<?xml version="1.0" encoding="UTF-8" standalone="no" ?>
<gpx xmlns="http://www.topografix.com/GPX/1/1" xmlns:xsi="http://www.w3.org/2001/XMLSchema-instance" xsi:schemaLocation="http://www.topografix.com/GPX/1/1 http://www.topografix.com/GPX/1/1/gpx.xsd" version="1.1" creator="VisuGPX - https://www.visugpx.com">
  <metadata>
    <name>Autour d\'Echalas</name>
    <desc><![CDATA[A 25 km de Lyon, y a personne, que demander de plus...]]></desc>
  </metadata>
  <trk>
    <name><![CDATA[Sequence 1]]></name>
    <trkseg>
      <trkpt lat="45.55405" lon="4.71752">
        <ele>350</ele>
        <time>2015-05-27T12:14:57Z</time>
      </trkpt>
      <trkpt lat="45.55412" lon="4.71755">
        <ele>358</ele>
        <time>2015-05-27T12:15:02Z</time>
      </trkpt>
      <trkpt lat="45.55409" lon="4.7176">
        <ele>359</ele>
        <time>2015-05-27T12:15:04Z</time>
      </trkpt>
      <trkpt lat="45.55413" lon="4.71787">
        <ele>358</ele>
        <time>2015-05-27T12:15:10Z</time>
      </trkpt>
      <trkpt lat="45.55422" lon="4.71805">
        <ele>360</ele>
        <time>2015-05-27T12:15:14Z</time>
      </trkpt>
      <trkpt lat="45.55432" lon="4.71828">
        <ele>358</ele>
        <time>2015-05-27T12:15:18Z</time>
      </trkpt>
      <trkpt lat="45.55445" lon="4.71851">
        <ele>358</ele>
        <time>2015-05-27T12:15:23Z</time>
      </trkpt>
      <trkpt lat="45.55465" lon="4.71892">
        <ele>359</ele>
        <time>2015-05-27T12:15:30Z</time>
      </trkpt>
      <trkpt lat="45.55479" lon="4.71921">
        <ele>358</ele>
        <time>2015-05-27T12:15:34Z</time>
      </trkpt>
      <trkpt lat="45.55501" lon="4.71975">
        <ele>357</ele>
        <time>2015-05-27T12:15:40Z</time>
      </trkpt>
      <trkpt lat="45.55509" lon="4.72008">
        <ele>357</ele>
        <time>2015-05-27T12:15:43Z</time>
      </trkpt>
      <trkpt lat="45.55524" lon="4.72073">
        <ele>353</ele>
        <time>2015-05-27T12:15:48Z</time>
      </trkpt>
      <trkpt lat="45.55539" lon="4.72132">
        <ele>352</ele>
        <time>2015-05-27T12:15:53Z</time>
      </trkpt>
      <trkpt lat="45.55592" lon="4.72175">
        <ele>348</ele>
        <time>2015-05-27T12:16:00Z</time>
      </trkpt>
      <trkpt lat="45.55608" lon="4.72193">
        <ele>347</ele>
        <time>2015-05-27T12:16:03Z</time>
      </trkpt>
      <trkpt lat="45.55634" lon="4.72213">
        <ele>344</ele>
        <time>2015-05-27T12:16:08Z</time>
      </trkpt>
      <trkpt lat="45.55682" lon="4.72217">
        <ele>339</ele>
        <time>2015-05-27T12:16:14Z</time>
      </trkpt>
      <trkpt lat="45.55712" lon="4.72225">
        <ele>336</ele>
        <time>2015-05-27T12:16:18Z</time>
      </trkpt>
      <trkpt lat="45.55747" lon="4.72239">
        <ele>335</ele>
        <time>2015-05-27T12:16:23Z</time>
      </trkpt>
      <trkpt lat="45.55776" lon="4.72246">
        <ele>333</ele>
        <time>2015-05-27T12:16:28Z</time>
      </trkpt>
      <trkpt lat="45.55809" lon="4.72255">
        <ele>332</ele>
        <time>2015-05-27T12:16:35Z</time>
      </trkpt>
      <trkpt lat="45.5582" lon="4.72259">
        <ele>331</ele>
        <time>2015-05-27T12:16:38Z</time>
      </trkpt>
      <trkpt lat="45.55843" lon="4.72267">
        <ele>329</ele>
        <time>2015-05-27T12:16:43Z</time>
      </trkpt>
      <trkpt lat="45.55865" lon="4.72276">
        <ele>328</ele>
        <time>2015-05-27T12:16:48Z</time>
      </trkpt>
      <trkpt lat="45.55886" lon="4.7229">
        <ele>327</ele>
        <time>2015-05-27T12:16:53Z</time>
      </trkpt>
      <trkpt lat="45.55903" lon="4.72308">
        <ele>328</ele>
        <time>2015-05-27T12:16:58Z</time>
      </trkpt>
      <trkpt lat="45.55925" lon="4.72329">
        <ele>326</ele>
        <time>2015-05-27T12:17:03Z</time>
      </trkpt>
      <trkpt lat="45.55947" lon="4.72353">
        <ele>326</ele>
        <time>2015-05-27T12:17:08Z</time>
      </trkpt>
      <trkpt lat="45.55969" lon="4.72375">
        <ele>324</ele>
        <time>2015-05-27T12:17:13Z</time>
      </trkpt>
      <trkpt lat="45.5599" lon="4.72394">
        <ele>323</ele>
        <time>2015-05-27T12:17:18Z</time>
      </trkpt>
      <trkpt lat="45.56008" lon="4.72409">
        <ele>324</ele>
        <time>2015-05-27T12:17:23Z</time>
      </trkpt>
      <trkpt lat="45.56024" lon="4.72422">
        <ele>323</ele>
        <time>2015-05-27T12:17:28Z</time>
      </trkpt>
      <trkpt lat="45.5604" lon="4.72435">
        <ele>322</ele>
        <time>2015-05-27T12:17:33Z</time>
      </trkpt>
      <trkpt lat="45.56055" lon="4.72444">
        <ele>321</ele>
        <time>2015-05-27T12:17:38Z</time>
      </trkpt>
      <trkpt lat="45.56071" lon="4.72453">
        <ele>320</ele>
        <time>2015-05-27T12:17:43Z</time>
      </trkpt>
      <trkpt lat="45.56088" lon="4.72466">
        <ele>322</ele>
        <time>2015-05-27T12:17:48Z</time>
      </trkpt>
      <trkpt lat="45.56109" lon="4.72477">
        <ele>321</ele>
        <time>2015-05-27T12:17:53Z</time>
      </trkpt>
      <trkpt lat="45.56137" lon="4.7248">
        <ele>319</ele>
        <time>2015-05-27T12:17:58Z</time>
      </trkpt>
      <trkpt lat="45.56166" lon="4.72477">
        <ele>318</ele>
        <time>2015-05-27T12:18:03Z</time>
      </trkpt>
      <trkpt lat="45.56189" lon="4.72482">
        <ele>319</ele>
        <time>2015-05-27T12:18:09Z</time>
      </trkpt>
      <trkpt lat="45.56192" lon="4.72489">
        <ele>318</ele>
        <time>2015-05-27T12:18:13Z</time>
      </trkpt>
      <trkpt lat="45.56194" lon="4.72495">
        <ele>318</ele>
        <time>2015-05-27T12:18:18Z</time>
      </trkpt>
      <trkpt lat="45.5619" lon="4.72508">
        <ele>317</ele>
        <time>2015-05-27T12:18:23Z</time>
      </trkpt>
      <trkpt lat="45.56188" lon="4.72522">
        <ele>316</ele>
        <time>2015-05-27T12:18:28Z</time>
      </trkpt>
      <trkpt lat="45.56188" lon="4.72537">
        <ele>316</ele>
        <time>2015-05-27T12:18:33Z</time>
      </trkpt>
      <trkpt lat="45.56194" lon="4.72568">
        <ele>308</ele>
        <time>2015-05-27T12:18:41Z</time>
      </trkpt>
      <trkpt lat="45.56194" lon="4.72574">
        <ele>308</ele>
        <time>2015-05-27T12:18:43Z</time>
      </trkpt>
      <trkpt lat="45.56194" lon="4.72586">
        <ele>305</ele>
        <time>2015-05-27T12:18:48Z</time>
      </trkpt>
      <trkpt lat="45.56191" lon="4.72597">
        <ele>306</ele>
        <time>2015-05-27T12:18:54Z</time>
      </trkpt>
      <trkpt lat="45.56189" lon="4.72605">
        <ele>308</ele>
        <time>2015-05-27T12:18:58Z</time>
      </trkpt>
      <trkpt lat="45.56184" lon="4.72619">
        <ele>306</ele>
        <time>2015-05-27T12:19:03Z</time>
      </trkpt>
      <trkpt lat="45.56178" lon="4.72645">
        <ele>304</ele>
        <time>2015-05-27T12:19:08Z</time>
      </trkpt>
      <trkpt lat="45.56169" lon="4.72664">
        <ele>303</ele>
        <time>2015-05-27T12:19:14Z</time>
      </trkpt>
      <trkpt lat="45.56165" lon="4.72679">
        <ele>297</ele>
        <time>2015-05-27T12:19:18Z</time>
      </trkpt>
      <trkpt lat="45.56158" lon="4.72701">
        <ele>299</ele>
        <time>2015-05-27T12:19:23Z</time>
      </trkpt>
      <trkpt lat="45.56146" lon="4.72722">
        <ele>288</ele>
        <time>2015-05-27T12:19:29Z</time>
      </trkpt>
      <trkpt lat="45.56137" lon="4.72745">
        <ele>293</ele>
        <time>2015-05-27T12:19:37Z</time>
      </trkpt>
      <trkpt lat="45.56139" lon="4.72748">
        <ele>294</ele>
        <time>2015-05-27T12:19:38Z</time>
      </trkpt>
      <trkpt lat="45.56119" lon="4.72799">
        <ele>287</ele>
        <time>2015-05-27T12:19:47Z</time>
      </trkpt>
      <trkpt lat="45.56115" lon="4.72806">
        <ele>286</ele>
        <time>2015-05-27T12:19:48Z</time>
      </trkpt>
      <trkpt lat="45.56089" lon="4.72839">
        <ele>286</ele>
        <time>2015-05-27T12:19:56Z</time>
      </trkpt>
      <trkpt lat="45.56094" lon="4.72843">
        <ele>284</ele>
        <time>2015-05-27T12:19:59Z</time>
      </trkpt>
      <trkpt lat="45.56097" lon="4.7285">
        <ele>284</ele>
        <time>2015-05-27T12:20:04Z</time>
      </trkpt>
      <trkpt lat="45.56099" lon="4.72851">
        <ele>285</ele>
        <time>2015-05-27T12:20:09Z</time>
      </trkpt>
      <trkpt lat="45.56098" lon="4.72852">
        <ele>284</ele>
        <time>2015-05-27T12:20:11Z</time>
      </trkpt>
      <trkpt lat="45.561" lon="4.72853">
        <ele>285</ele>
        <time>2015-05-27T12:20:16Z</time>
      </trkpt>
      <trkpt lat="45.56098" lon="4.72856">
        <ele>284</ele>
        <time>2015-05-27T12:20:21Z</time>
      </trkpt>
      <trkpt lat="45.56095" lon="4.72857">
        <ele>282</ele>
        <time>2015-05-27T12:20:26Z</time>
      </trkpt>
      <trkpt lat="45.56095" lon="4.72857">
        <ele>282</ele>
        <time>2015-05-27T12:20:31Z</time>
      </trkpt>
      <trkpt lat="45.56095" lon="4.72857">
        <ele>282</ele>
        <time>2015-05-27T12:20:34Z</time>
      </trkpt>
      <trkpt lat="45.56095" lon="4.72857">
        <ele>282</ele>
        <time>2015-05-27T12:20:37Z</time>
      </trkpt>
      <trkpt lat="45.56095" lon="4.72857">
        <ele>282</ele>
        <time>2015-05-27T12:20:40Z</time>
      </trkpt>
      <trkpt lat="45.56095" lon="4.72857">
        <ele>282</ele>
        <time>2015-05-27T12:20:43Z</time>
      </trkpt>
      <trkpt lat="45.56095" lon="4.72857">
        <ele>282</ele>
        <time>2015-05-27T12:20:48Z</time>
      </trkpt>
      <trkpt lat="45.56095" lon="4.72857">
        <ele>282</ele>
        <time>2015-05-27T12:20:50Z</time>
      </trkpt>
      <trkpt lat="45.56095" lon="4.72857">
        <ele>282</ele>
        <time>2015-05-27T12:20:52Z</time>
      </trkpt>
      <trkpt lat="45.56094" lon="4.72856">
        <ele>282</ele>
        <time>2015-05-27T12:20:57Z</time>
      </trkpt>
      <trkpt lat="45.56094" lon="4.72856">
        <ele>283</ele>
        <time>2015-05-27T12:20:58Z</time>
      </trkpt>
      <trkpt lat="45.56095" lon="4.72855">
        <ele>284</ele>
        <time>2015-05-27T12:21:03Z</time>
      </trkpt>
      <trkpt lat="45.56093" lon="4.72854">
        <ele>288</ele>
        <time>2015-05-27T12:21:08Z</time>
      </trkpt>
      <trkpt lat="45.5609" lon="4.72855">
        <ele>290</ele>
        <time>2015-05-27T12:21:11Z</time>
      </trkpt>
      <trkpt lat="45.56083" lon="4.7286">
        <ele>290</ele>
        <time>2015-05-27T12:21:16Z</time>
      </trkpt>
      <trkpt lat="45.56077" lon="4.72871">
        <ele>283</ele>
        <time>2015-05-27T12:21:23Z</time>
      </trkpt>
      <trkpt lat="45.56076" lon="4.72877">
        <ele>282</ele>
        <time>2015-05-27T12:21:29Z</time>
      </trkpt>
      <trkpt lat="45.56077" lon="4.72878">
        <ele>284</ele>
        <time>2015-05-27T12:21:31Z</time>
      </trkpt>
      <trkpt lat="45.56081" lon="4.72879">
        <ele>282</ele>
        <time>2015-05-27T12:21:36Z</time>
      </trkpt>
      <trkpt lat="45.56083" lon="4.72879">
        <ele>282</ele>
        <time>2015-05-27T12:21:39Z</time>
      </trkpt>
      <trkpt lat="45.56089" lon="4.7288">
        <ele>284</ele>
        <time>2015-05-27T12:21:44Z</time>
      </trkpt>
      <trkpt lat="45.56094" lon="4.72878">
        <ele>289</ele>
        <time>2015-05-27T12:21:49Z</time>
      </trkpt>
      <trkpt lat="45.56101" lon="4.72877">
        <ele>288</ele>
        <time>2015-05-27T12:21:54Z</time>
      </trkpt>
      <trkpt lat="45.5611" lon="4.72874">
        <ele>285</ele>
        <time>2015-05-27T12:22:00Z</time>
      </trkpt>
      <trkpt lat="45.5611" lon="4.72873">
        <ele>283</ele>
        <time>2015-05-27T12:22:04Z</time>
      </trkpt>
      <trkpt lat="45.56111" lon="4.72872">
        <ele>284</ele>
        <time>2015-05-27T12:22:07Z</time>
      </trkpt>
      <trkpt lat="45.56112" lon="4.72873">
        <ele>283</ele>
        <time>2015-05-27T12:22:10Z</time>
      </trkpt>
      <trkpt lat="45.56113" lon="4.72873">
        <ele>280</ele>
        <time>2015-05-27T12:22:13Z</time>
      </trkpt>
      <trkpt lat="45.56116" lon="4.72872">
        <ele>281</ele>
        <time>2015-05-27T12:22:18Z</time>
      </trkpt>
      <trkpt lat="45.5612" lon="4.72872">
        <ele>279</ele>
        <time>2015-05-27T12:22:23Z</time>
      </trkpt>
      <trkpt lat="45.56125" lon="4.72872">
        <ele>276</ele>
        <time>2015-05-27T12:22:31Z</time>
      </trkpt>
      <trkpt lat="45.56128" lon="4.72871">
        <ele>276</ele>
        <time>2015-05-27T12:22:35Z</time>
      </trkpt>
      <trkpt lat="45.56129" lon="4.7287">
        <ele>275</ele>
        <time>2015-05-27T12:22:39Z</time>
      </trkpt>
      <trkpt lat="45.56131" lon="4.72871">
        <ele>273</ele>
        <time>2015-05-27T12:22:43Z</time>
      </trkpt>
      <trkpt lat="45.56132" lon="4.72871">
        <ele>272</ele>
        <time>2015-05-27T12:22:46Z</time>
      </trkpt>
      <trkpt lat="45.56134" lon="4.72874">
        <ele>272</ele>
        <time>2015-05-27T12:22:51Z</time>
      </trkpt>
      <trkpt lat="45.56134" lon="4.72875">
        <ele>272</ele>
        <time>2015-05-27T12:22:55Z</time>
      </trkpt>
      <trkpt lat="45.56134" lon="4.72875">
        <ele>272</ele>
        <time>2015-05-27T12:22:57Z</time>
      </trkpt>
      <trkpt lat="45.56134" lon="4.72875">
        <ele>272</ele>
        <time>2015-05-27T12:23:02Z</time>
      </trkpt>
      <trkpt lat="45.56134" lon="4.72875">
        <ele>272</ele>
        <time>2015-05-27T12:23:05Z</time>
      </trkpt>
      <trkpt lat="45.56134" lon="4.72875">
        <ele>272</ele>
        <time>2015-05-27T12:23:08Z</time>
      </trkpt>
      <trkpt lat="45.56134" lon="4.72875">
        <ele>272</ele>
        <time>2015-05-27T12:23:09Z</time>
      </trkpt>
      <trkpt lat="45.56134" lon="4.72875">
        <ele>272</ele>
        <time>2015-05-27T12:23:12Z</time>
      </trkpt>
      <trkpt lat="45.56134" lon="4.72875">
        <ele>272</ele>
        <time>2015-05-27T12:23:15Z</time>
      </trkpt>
      <trkpt lat="45.56134" lon="4.72875">
        <ele>272</ele>
        <time>2015-05-27T12:23:18Z</time>
      </trkpt>
      <trkpt lat="45.56134" lon="4.72875">
        <ele>272</ele>
        <time>2015-05-27T12:23:21Z</time>
      </trkpt>
      <trkpt lat="45.56134" lon="4.72875">
        <ele>272</ele>
        <time>2015-05-27T12:23:24Z</time>
      </trkpt>
      <trkpt lat="45.56134" lon="4.72875">
        <ele>272</ele>
        <time>2015-05-27T12:23:27Z</time>
      </trkpt>
      <trkpt lat="45.56135" lon="4.72876">
        <ele>272</ele>
        <time>2015-05-27T12:23:31Z</time>
      </trkpt>
      <trkpt lat="45.56141" lon="4.72885">
        <ele>273</ele>
        <time>2015-05-27T12:23:37Z</time>
      </trkpt>
      <trkpt lat="45.56142" lon="4.72887">
        <ele>273</ele>
        <time>2015-05-27T12:23:38Z</time>
      </trkpt>
      <trkpt lat="45.56145" lon="4.72892">
        <ele>280</ele>
        <time>2015-05-27T12:23:43Z</time>
      </trkpt>
      <trkpt lat="45.56149" lon="4.72894">
        <ele>291</ele>
        <time>2015-05-27T12:23:49Z</time>
      </trkpt>
      <trkpt lat="45.56151" lon="4.72894">
        <ele>293</ele>
        <time>2015-05-27T12:23:53Z</time>
      </trkpt>
      <trkpt lat="45.56162" lon="4.72893">
        <ele>291</ele>
        <time>2015-05-27T12:24:02Z</time>
      </trkpt>
      <trkpt lat="45.56167" lon="4.72887">
        <ele>294</ele>
        <time>2015-05-27T12:24:07Z</time>
      </trkpt>
      <trkpt lat="45.56168" lon="4.72885">
        <ele>293</ele>
        <time>2015-05-27T12:24:08Z</time>
      </trkpt>
      <trkpt lat="45.56172" lon="4.7288">
        <ele>293</ele>
        <time>2015-05-27T12:24:13Z</time>
      </trkpt>
      <trkpt lat="45.56175" lon="4.72879">
        <ele>292</ele>
        <time>2015-05-27T12:24:18Z</time>
      </trkpt>
      <trkpt lat="45.56177" lon="4.72876">
        <ele>290</ele>
        <time>2015-05-27T12:24:23Z</time>
      </trkpt>
      <trkpt lat="45.56182" lon="4.7287">
        <ele>291</ele>
        <time>2015-05-27T12:24:32Z</time>
      </trkpt>
      <trkpt lat="45.56183" lon="4.72871">
        <ele>290</ele>
        <time>2015-05-27T12:24:33Z</time>
      </trkpt>
      <trkpt lat="45.56186" lon="4.72865">
        <ele>291</ele>
        <time>2015-05-27T12:24:42Z</time>
      </trkpt>
      <trkpt lat="45.56186" lon="4.72865">
        <ele>292</ele>
        <time>2015-05-27T12:24:43Z</time>
      </trkpt>
      <trkpt lat="45.56188" lon="4.72863">
        <ele>292</ele>
        <time>2015-05-27T12:24:46Z</time>
      </trkpt>
      <trkpt lat="45.56192" lon="4.72859">
        <ele>296</ele>
        <time>2015-05-27T12:24:51Z</time>
      </trkpt>
      <trkpt lat="45.56197" lon="4.72856">
        <ele>297</ele>
        <time>2015-05-27T12:24:56Z</time>
      </trkpt>
      <trkpt lat="45.56203" lon="4.72853">
        <ele>299</ele>
        <time>2015-05-27T12:25:01Z</time>
      </trkpt>
      <trkpt lat="45.56208" lon="4.72852">
        <ele>300</ele>
        <time>2015-05-27T12:25:06Z</time>
      </trkpt>
      <trkpt lat="45.56214" lon="4.7285">
        <ele>303</ele>
        <time>2015-05-27T12:25:11Z</time>
      </trkpt>
      <trkpt lat="45.56221" lon="4.7285">
        <ele>304</ele>
        <time>2015-05-27T12:25:16Z</time>
      </trkpt>
      <trkpt lat="45.56227" lon="4.7285">
        <ele>305</ele>
        <time>2015-05-27T12:25:21Z</time>
      </trkpt>
      <trkpt lat="45.56234" lon="4.72854">
        <ele>305</ele>
        <time>2015-05-27T12:25:28Z</time>
      </trkpt>
      <trkpt lat="45.56237" lon="4.72856">
        <ele>305</ele>
        <time>2015-05-27T12:25:31Z</time>
      </trkpt>
      <trkpt lat="45.56245" lon="4.72861">
        <ele>303</ele>
        <time>2015-05-27T12:25:38Z</time>
      </trkpt>
      <trkpt lat="45.56246" lon="4.72862">
        <ele>305</ele>
        <time>2015-05-27T12:25:41Z</time>
      </trkpt>
      <trkpt lat="45.56252" lon="4.72865">
        <ele>304</ele>
        <time>2015-05-27T12:25:46Z</time>
      </trkpt>
      <trkpt lat="45.56257" lon="4.72868">
        <ele>305</ele>
        <time>2015-05-27T12:25:51Z</time>
      </trkpt>
      <trkpt lat="45.5626" lon="4.72872">
        <ele>306</ele>
        <time>2015-05-27T12:25:56Z</time>
      </trkpt>
      <trkpt lat="45.56265" lon="4.72876">
        <ele>306</ele>
        <time>2015-05-27T12:26:01Z</time>
      </trkpt>
      <trkpt lat="45.56269" lon="4.72881">
        <ele>308</ele>
        <time>2015-05-27T12:26:06Z</time>
      </trkpt>
      <trkpt lat="45.5627" lon="4.72882">
        <ele>307</ele>
        <time>2015-05-27T12:26:11Z</time>
      </trkpt>
      <trkpt lat="45.56272" lon="4.72885">
        <ele>307</ele>
        <time>2015-05-27T12:26:16Z</time>
      </trkpt>
      <trkpt lat="45.56273" lon="4.72886">
        <ele>307</ele>
        <time>2015-05-27T12:26:19Z</time>
      </trkpt>
      <trkpt lat="45.56274" lon="4.72886">
        <ele>307</ele>
        <time>2015-05-27T12:26:24Z</time>
      </trkpt>
      <trkpt lat="45.56279" lon="4.72889">
        <ele>307</ele>
        <time>2015-05-27T12:26:31Z</time>
      </trkpt>
      <trkpt lat="45.5628" lon="4.72889">
        <ele>308</ele>
        <time>2015-05-27T12:26:32Z</time>
      </trkpt>
      <trkpt lat="45.56282" lon="4.72888">
        <ele>311</ele>
        <time>2015-05-27T12:26:37Z</time>
      </trkpt>
      <trkpt lat="45.56283" lon="4.72889">
        <ele>311</ele>
        <time>2015-05-27T12:26:42Z</time>
      </trkpt>
      <trkpt lat="45.56283" lon="4.7289">
        <ele>310</ele>
        <time>2015-05-27T12:26:45Z</time>
      </trkpt>
      <trkpt lat="45.56286" lon="4.72899">
        <ele>309</ele>
        <time>2015-05-27T12:26:51Z</time>
      </trkpt>
      <trkpt lat="45.56291" lon="4.72906">
        <ele>306</ele>
        <time>2015-05-27T12:26:56Z</time>
      </trkpt>
      <trkpt lat="45.56294" lon="4.72907">
        <ele>307</ele>
        <time>2015-05-27T12:26:59Z</time>
      </trkpt>
      <trkpt lat="45.56298" lon="4.7291">
        <ele>312</ele>
        <time>2015-05-27T12:27:06Z</time>
      </trkpt>
      <trkpt lat="45.563" lon="4.72912">
        <ele>314</ele>
        <time>2015-05-27T12:27:08Z</time>
      </trkpt>
      <trkpt lat="45.56305" lon="4.72919">
        <ele>320</ele>
        <time>2015-05-27T12:27:13Z</time>
      </trkpt>
      <trkpt lat="45.5631" lon="4.72923">
        <ele>324</ele>
        <time>2015-05-27T12:27:18Z</time>
      </trkpt>
      <trkpt lat="45.56312" lon="4.72924">
        <ele>325</ele>
        <time>2015-05-27T12:27:23Z</time>
      </trkpt>
      <trkpt lat="45.56316" lon="4.72929">
        <ele>328</ele>
        <time>2015-05-27T12:27:29Z</time>
      </trkpt>
      <trkpt lat="45.56318" lon="4.72931">
        <ele>329</ele>
        <time>2015-05-27T12:27:33Z</time>
      </trkpt>
      <trkpt lat="45.56322" lon="4.72936">
        <ele>330</ele>
        <time>2015-05-27T12:27:39Z</time>
      </trkpt>
      <trkpt lat="45.56325" lon="4.72937">
        <ele>330</ele>
        <time>2015-05-27T12:27:43Z</time>
      </trkpt>
      <trkpt lat="45.56326" lon="4.7294">
        <ele>331</ele>
        <time>2015-05-27T12:27:48Z</time>
      </trkpt>
      <trkpt lat="45.56328" lon="4.72944">
        <ele>329</ele>
        <time>2015-05-27T12:27:54Z</time>
      </trkpt>
      <trkpt lat="45.56328" lon="4.72943">
        <ele>329</ele>
        <time>2015-05-27T12:27:58Z</time>
      </trkpt>
      <trkpt lat="45.56328" lon="4.72944">
        <ele>329</ele>
        <time>2015-05-27T12:28:01Z</time>
      </trkpt>
      <trkpt lat="45.56328" lon="4.72944">
        <ele>329</ele>
        <time>2015-05-27T12:28:04Z</time>
      </trkpt>
      <trkpt lat="45.56328" lon="4.72944">
        <ele>329</ele>
        <time>2015-05-27T12:28:07Z</time>
      </trkpt>
      <trkpt lat="45.56328" lon="4.72944">
        <ele>329</ele>
        <time>2015-05-27T12:28:10Z</time>
      </trkpt>
      <trkpt lat="45.56328" lon="4.72944">
        <ele>329</ele>
        <time>2015-05-27T12:28:13Z</time>
      </trkpt>
      <trkpt lat="45.56328" lon="4.72944">
        <ele>329</ele>
        <time>2015-05-27T12:28:16Z</time>
      </trkpt>
      <trkpt lat="45.56328" lon="4.72944">
        <ele>329</ele>
        <time>2015-05-27T12:28:19Z</time>
      </trkpt>
      <trkpt lat="45.56328" lon="4.72944">
        <ele>329</ele>
        <time>2015-05-27T12:28:22Z</time>
      </trkpt>
      <trkpt lat="45.56328" lon="4.72943">
        <ele>330</ele>
        <time>2015-05-27T12:28:25Z</time>
      </trkpt>
      <trkpt lat="45.56333" lon="4.72949">
        <ele>332</ele>
        <time>2015-05-27T12:28:31Z</time>
      </trkpt>
      <trkpt lat="45.56335" lon="4.72952">
        <ele>332</ele>
        <time>2015-05-27T12:28:33Z</time>
      </trkpt>
      <trkpt lat="45.56341" lon="4.72959">
        <ele>332</ele>
        <time>2015-05-27T12:28:38Z</time>
      </trkpt>
      <trkpt lat="45.56347" lon="4.72968">
        <ele>334</ele>
        <time>2015-05-27T12:28:43Z</time>
      </trkpt>
      <trkpt lat="45.56355" lon="4.72959">
        <ele>335</ele>
        <time>2015-05-27T12:28:48Z</time>
      </trkpt>
      <trkpt lat="45.56385" lon="4.72923">
        <ele>331</ele>
        <time>2015-05-27T12:28:56Z</time>
      </trkpt>
      <trkpt lat="45.56393" lon="4.72911">
        <ele>331</ele>
        <time>2015-05-27T12:28:58Z</time>
      </trkpt>
      <trkpt lat="45.56398" lon="4.72874">
        <ele>330</ele>
        <time>2015-05-27T12:29:04Z</time>
      </trkpt>
      <trkpt lat="45.56395" lon="4.72846">
        <ele>328</ele>
        <time>2015-05-27T12:29:08Z</time>
      </trkpt>
      <trkpt lat="45.56414" lon="4.72812">
        <ele>325</ele>
        <time>2015-05-27T12:29:13Z</time>
      </trkpt>
      <trkpt lat="45.56422" lon="4.72776">
        <ele>326</ele>
        <time>2015-05-27T12:29:19Z</time>
      </trkpt>
      <trkpt lat="45.56425" lon="4.72762">
        <ele>327</ele>
        <time>2015-05-27T12:29:23Z</time>
      </trkpt>
      <trkpt lat="45.56431" lon="4.72747">
        <ele>327</ele>
        <time>2015-05-27T12:29:28Z</time>
      </trkpt>
      <trkpt lat="45.56436" lon="4.72731">
        <ele>328</ele>
        <time>2015-05-27T12:29:33Z</time>
      </trkpt>
      <trkpt lat="45.56441" lon="4.72712">
        <ele>327</ele>
        <time>2015-05-27T12:29:38Z</time>
      </trkpt>
      <trkpt lat="45.56442" lon="4.72686">
        <ele>327</ele>
        <time>2015-05-27T12:29:43Z</time>
      </trkpt>
      <trkpt lat="45.56449" lon="4.72655">
        <ele>327</ele>
        <time>2015-05-27T12:29:48Z</time>
      </trkpt>
      <trkpt lat="45.56465" lon="4.72632">
        <ele>326</ele>
        <time>2015-05-27T12:29:53Z</time>
      </trkpt>
      <trkpt lat="45.56492" lon="4.72602">
        <ele>324</ele>
        <time>2015-05-27T12:29:59Z</time>
      </trkpt>
      <trkpt lat="45.56511" lon="4.72578">
        <ele>323</ele>
        <time>2015-05-27T12:30:03Z</time>
      </trkpt>
      <trkpt lat="45.56524" lon="4.72546">
        <ele>323</ele>
        <time>2015-05-27T12:30:08Z</time>
      </trkpt>
      <trkpt lat="45.56525" lon="4.72516">
        <ele>323</ele>
        <time>2015-05-27T12:30:13Z</time>
      </trkpt>
      <trkpt lat="45.56519" lon="4.72484">
        <ele>324</ele>
        <time>2015-05-27T12:30:19Z</time>
      </trkpt>
      <trkpt lat="45.56514" lon="4.72459">
        <ele>322</ele>
        <time>2015-05-27T12:30:24Z</time>
      </trkpt>
      <trkpt lat="45.56515" lon="4.72425">
        <ele>316</ele>
        <time>2015-05-27T12:30:30Z</time>
      </trkpt>
      <trkpt lat="45.56517" lon="4.72406">
        <ele>313</ele>
        <time>2015-05-27T12:30:33Z</time>
      </trkpt>
      <trkpt lat="45.56521" lon="4.72373">
        <ele>311</ele>
        <time>2015-05-27T12:30:38Z</time>
      </trkpt>
      <trkpt lat="45.56528" lon="4.72342">
        <ele>307</ele>
        <time>2015-05-27T12:30:43Z</time>
      </trkpt>
      <trkpt lat="45.56538" lon="4.72318">
        <ele>303</ele>
        <time>2015-05-27T12:30:48Z</time>
      </trkpt>
      <trkpt lat="45.56556" lon="4.7229">
        <ele>303</ele>
        <time>2015-05-27T12:30:54Z</time>
      </trkpt>
      <trkpt lat="45.56573" lon="4.72275">
        <ele>296</ele>
        <time>2015-05-27T12:30:58Z</time>
      </trkpt>
      <trkpt lat="45.56592" lon="4.72259">
        <ele>294</ele>
        <time>2015-05-27T12:31:03Z</time>
      </trkpt>
      <trkpt lat="45.56622" lon="4.72243">
        <ele>290</ele>
        <time>2015-05-27T12:31:08Z</time>
      </trkpt>
      <trkpt lat="45.56671" lon="4.7223">
        <ele>285</ele>
        <time>2015-05-27T12:31:17Z</time>
      </trkpt>
      <trkpt lat="45.56676" lon="4.72228">
        <ele>285</ele>
        <time>2015-05-27T12:31:20Z</time>
      </trkpt>
      <trkpt lat="45.56687" lon="4.72226">
        <ele>286</ele>
        <time>2015-05-27T12:31:23Z</time>
      </trkpt>
      <trkpt lat="45.5674" lon="4.72225">
        <ele>284</ele>
        <time>2015-05-27T12:31:31Z</time>
      </trkpt>
      <trkpt lat="45.56762" lon="4.7223">
        <ele>287</ele>
        <time>2015-05-27T12:31:36Z</time>
      </trkpt>
      <trkpt lat="45.56771" lon="4.72231">
        <ele>285</ele>
        <time>2015-05-27T12:31:38Z</time>
      </trkpt>
      <trkpt lat="45.56805" lon="4.7223">
        <ele>275</ele>
        <time>2015-05-27T12:31:44Z</time>
      </trkpt>
      <trkpt lat="45.56824" lon="4.7222">
        <ele>275</ele>
        <time>2015-05-27T12:31:48Z</time>
      </trkpt>
      <trkpt lat="45.56861" lon="4.72208">
        <ele>271</ele>
        <time>2015-05-27T12:31:54Z</time>
      </trkpt>
      <trkpt lat="45.56866" lon="4.72202">
        <ele>272</ele>
        <time>2015-05-27T12:31:59Z</time>
      </trkpt>
      <trkpt lat="45.56877" lon="4.72197">
        <ele>265</ele>
        <time>2015-05-27T12:32:03Z</time>
      </trkpt>
      <trkpt lat="45.56888" lon="4.7219">
        <ele>264</ele>
        <time>2015-05-27T12:32:08Z</time>
      </trkpt>
      <trkpt lat="45.56902" lon="4.72187">
        <ele>258</ele>
        <time>2015-05-27T12:32:13Z</time>
      </trkpt>
      <trkpt lat="45.56926" lon="4.72181">
        <ele>257</ele>
        <time>2015-05-27T12:32:20Z</time>
      </trkpt>
      <trkpt lat="45.56941" lon="4.72167">
        <ele>262</ele>
        <time>2015-05-27T12:32:27Z</time>
      </trkpt>
      <trkpt lat="45.56944" lon="4.72163">
        <ele>264</ele>
        <time>2015-05-27T12:32:28Z</time>
      </trkpt>
      <trkpt lat="45.56961" lon="4.72134">
        <ele>260</ele>
        <time>2015-05-27T12:32:33Z</time>
      </trkpt>
      <trkpt lat="45.5698" lon="4.72106">
        <ele>247</ele>
        <time>2015-05-27T12:32:40Z</time>
      </trkpt>
      <trkpt lat="45.5699" lon="4.72096">
        <ele>243</ele>
        <time>2015-05-27T12:32:44Z</time>
      </trkpt>
      <trkpt lat="45.56996" lon="4.72087">
        <ele>240</ele>
        <time>2015-05-27T12:32:48Z</time>
      </trkpt>
      <trkpt lat="45.57001" lon="4.72074">
        <ele>238</ele>
        <time>2015-05-27T12:32:53Z</time>
      </trkpt>
      <trkpt lat="45.57009" lon="4.72058">
        <ele>236</ele>
        <time>2015-05-27T12:32:58Z</time>
      </trkpt>
      <trkpt lat="45.57019" lon="4.72038">
        <ele>232</ele>
        <time>2015-05-27T12:33:04Z</time>
      </trkpt>
      <trkpt lat="45.57029" lon="4.72024">
        <ele>228</ele>
        <time>2015-05-27T12:33:09Z</time>
      </trkpt>
      <trkpt lat="45.57036" lon="4.72012">
        <ele>224</ele>
        <time>2015-05-27T12:33:13Z</time>
      </trkpt>
      <trkpt lat="45.57048" lon="4.71994">
        <ele>220</ele>
        <time>2015-05-27T12:33:18Z</time>
      </trkpt>
      <trkpt lat="45.57061" lon="4.71967">
        <ele>215</ele>
        <time>2015-05-27T12:33:24Z</time>
      </trkpt>
      <trkpt lat="45.57069" lon="4.7195">
        <ele>211</ele>
        <time>2015-05-27T12:33:28Z</time>
      </trkpt>
      <trkpt lat="45.57091" lon="4.71941">
        <ele>210</ele>
        <time>2015-05-27T12:33:34Z</time>
      </trkpt>
      <trkpt lat="45.57102" lon="4.71946">
        <ele>210</ele>
        <time>2015-05-27T12:33:38Z</time>
      </trkpt>
      <trkpt lat="45.57108" lon="4.71948">
        <ele>211</ele>
        <time>2015-05-27T12:33:43Z</time>
      </trkpt>
      <trkpt lat="45.57109" lon="4.71949">
        <ele>210</ele>
        <time>2015-05-27T12:33:48Z</time>
      </trkpt>
      <trkpt lat="45.57108" lon="4.71948">
        <ele>210</ele>
        <time>2015-05-27T12:33:51Z</time>
      </trkpt>
      <trkpt lat="45.57109" lon="4.71948">
        <ele>210</ele>
        <time>2015-05-27T12:33:54Z</time>
      </trkpt>
      <trkpt lat="45.57109" lon="4.71948">
        <ele>209</ele>
        <time>2015-05-27T12:33:57Z</time>
      </trkpt>
      <trkpt lat="45.57109" lon="4.71948">
        <ele>209</ele>
        <time>2015-05-27T12:34:00Z</time>
      </trkpt>
      <trkpt lat="45.57109" lon="4.71947">
        <ele>209</ele>
        <time>2015-05-27T12:34:03Z</time>
      </trkpt>
      <trkpt lat="45.57109" lon="4.71947">
        <ele>209</ele>
        <time>2015-05-27T12:34:06Z</time>
      </trkpt>
      <trkpt lat="45.57109" lon="4.71947">
        <ele>209</ele>
        <time>2015-05-27T12:34:09Z</time>
      </trkpt>
      <trkpt lat="45.57109" lon="4.71946">
        <ele>208</ele>
        <time>2015-05-27T12:34:12Z</time>
      </trkpt>
      <trkpt lat="45.57109" lon="4.71946">
        <ele>208</ele>
        <time>2015-05-27T12:34:15Z</time>
      </trkpt>
      <trkpt lat="45.57109" lon="4.71946">
        <ele>208</ele>
        <time>2015-05-27T12:34:18Z</time>
      </trkpt>
      <trkpt lat="45.57109" lon="4.71946">
        <ele>207</ele>
        <time>2015-05-27T12:34:21Z</time>
      </trkpt>
      <trkpt lat="45.57109" lon="4.71946">
        <ele>207</ele>
        <time>2015-05-27T12:34:24Z</time>
      </trkpt>
      <trkpt lat="45.57109" lon="4.71946">
        <ele>207</ele>
        <time>2015-05-27T12:34:27Z</time>
      </trkpt>
      <trkpt lat="45.57109" lon="4.71946">
        <ele>207</ele>
        <time>2015-05-27T12:34:30Z</time>
      </trkpt>
      <trkpt lat="45.57109" lon="4.71946">
        <ele>208</ele>
        <time>2015-05-27T12:34:33Z</time>
      </trkpt>
      <trkpt lat="45.57109" lon="4.71949">
        <ele>210</ele>
        <time>2015-05-27T12:34:40Z</time>
      </trkpt>
      <trkpt lat="45.5711" lon="4.7195">
        <ele>210</ele>
        <time>2015-05-27T12:34:41Z</time>
      </trkpt>
      <trkpt lat="45.57119" lon="4.71955">
        <ele>206</ele>
        <time>2015-05-27T12:34:46Z</time>
      </trkpt>
      <trkpt lat="45.57127" lon="4.71962">
        <ele>207</ele>
        <time>2015-05-27T12:34:51Z</time>
      </trkpt>
      <trkpt lat="45.57137" lon="4.71968">
        <ele>207</ele>
        <time>2015-05-27T12:34:56Z</time>
      </trkpt>
      <trkpt lat="45.57148" lon="4.71974">
        <ele>206</ele>
        <time>2015-05-27T12:35:01Z</time>
      </trkpt>
      <trkpt lat="45.5716" lon="4.7198">
        <ele>206</ele>
        <time>2015-05-27T12:35:06Z</time>
      </trkpt>
      <trkpt lat="45.57169" lon="4.71988">
        <ele>207</ele>
        <time>2015-05-27T12:35:11Z</time>
      </trkpt>
      <trkpt lat="45.57169" lon="4.72">
        <ele>208</ele>
        <time>2015-05-27T12:35:16Z</time>
      </trkpt>
      <trkpt lat="45.57168" lon="4.72012">
        <ele>209</ele>
        <time>2015-05-27T12:35:21Z</time>
      </trkpt>
      <trkpt lat="45.5717" lon="4.72024">
        <ele>209</ele>
        <time>2015-05-27T12:35:26Z</time>
      </trkpt>
      <trkpt lat="45.57172" lon="4.72038">
        <ele>209</ele>
        <time>2015-05-27T12:35:31Z</time>
      </trkpt>
      <trkpt lat="45.57174" lon="4.72051">
        <ele>210</ele>
        <time>2015-05-27T12:35:36Z</time>
      </trkpt>
      <trkpt lat="45.57175" lon="4.72062">
        <ele>211</ele>
        <time>2015-05-27T12:35:41Z</time>
      </trkpt>
      <trkpt lat="45.57177" lon="4.72074">
        <ele>213</ele>
        <time>2015-05-27T12:35:46Z</time>
      </trkpt>
      <trkpt lat="45.57179" lon="4.72085">
        <ele>214</ele>
        <time>2015-05-27T12:35:51Z</time>
      </trkpt>
      <trkpt lat="45.5718" lon="4.72095">
        <ele>216</ele>
        <time>2015-05-27T12:35:56Z</time>
      </trkpt>
      <trkpt lat="45.57182" lon="4.72107">
        <ele>218</ele>
        <time>2015-05-27T12:36:01Z</time>
      </trkpt>
      <trkpt lat="45.57184" lon="4.72112">
        <ele>224</ele>
        <time>2015-05-27T12:36:06Z</time>
      </trkpt>
      <trkpt lat="45.57185" lon="4.72116">
        <ele>229</ele>
        <time>2015-05-27T12:36:11Z</time>
      </trkpt>
      <trkpt lat="45.57187" lon="4.72126">
        <ele>232</ele>
        <time>2015-05-27T12:36:17Z</time>
      </trkpt>
      <trkpt lat="45.57189" lon="4.72135">
        <ele>230</ele>
        <time>2015-05-27T12:36:21Z</time>
      </trkpt>
      <trkpt lat="45.57188" lon="4.72142">
        <ele>231</ele>
        <time>2015-05-27T12:36:27Z</time>
      </trkpt>
      <trkpt lat="45.57188" lon="4.72149">
        <ele>232</ele>
        <time>2015-05-27T12:36:31Z</time>
      </trkpt>
      <trkpt lat="45.57186" lon="4.72156">
        <ele>237</ele>
        <time>2015-05-27T12:36:36Z</time>
      </trkpt>
      <trkpt lat="45.57186" lon="4.72164">
        <ele>238</ele>
        <time>2015-05-27T12:36:41Z</time>
      </trkpt>
      <trkpt lat="45.57183" lon="4.72179">
        <ele>236</ele>
        <time>2015-05-27T12:36:49Z</time>
      </trkpt>
      <trkpt lat="45.57184" lon="4.72181">
        <ele>238</ele>
        <time>2015-05-27T12:36:51Z</time>
      </trkpt>
      <trkpt lat="45.57184" lon="4.72192">
        <ele>239</ele>
        <time>2015-05-27T12:36:56Z</time>
      </trkpt>
      <trkpt lat="45.57184" lon="4.72201">
        <ele>237</ele>
        <time>2015-05-27T12:37:01Z</time>
      </trkpt>
      <trkpt lat="45.5718" lon="4.72219">
        <ele>238</ele>
        <time>2015-05-27T12:37:09Z</time>
      </trkpt>
      <trkpt lat="45.57178" lon="4.72224">
        <ele>236</ele>
        <time>2015-05-27T12:37:11Z</time>
      </trkpt>
      <trkpt lat="45.57179" lon="4.72233">
        <ele>238</ele>
        <time>2015-05-27T12:37:17Z</time>
      </trkpt>
      <trkpt lat="45.57181" lon="4.72239">
        <ele>240</ele>
        <time>2015-05-27T12:37:21Z</time>
      </trkpt>
      <trkpt lat="45.57184" lon="4.72249">
        <ele>239</ele>
        <time>2015-05-27T12:37:26Z</time>
      </trkpt>
      <trkpt lat="45.57188" lon="4.72267">
        <ele>244</ele>
        <time>2015-05-27T12:37:35Z</time>
      </trkpt>
      <trkpt lat="45.57188" lon="4.7227">
        <ele>243</ele>
        <time>2015-05-27T12:37:36Z</time>
      </trkpt>
      <trkpt lat="45.57189" lon="4.72281">
        <ele>246</ele>
        <time>2015-05-27T12:37:41Z</time>
      </trkpt>
      <trkpt lat="45.57192" lon="4.72291">
        <ele>251</ele>
        <time>2015-05-27T12:37:46Z</time>
      </trkpt>
      <trkpt lat="45.57191" lon="4.72313">
        <ele>246</ele>
        <time>2015-05-27T12:37:54Z</time>
      </trkpt>
      <trkpt lat="45.57192" lon="4.72324">
        <ele>252</ele>
        <time>2015-05-27T12:37:59Z</time>
      </trkpt>
      <trkpt lat="45.57193" lon="4.72333">
        <ele>251</ele>
        <time>2015-05-27T12:38:02Z</time>
      </trkpt>
      <trkpt lat="45.57195" lon="4.72343">
        <ele>254</ele>
        <time>2015-05-27T12:38:06Z</time>
      </trkpt>
      <trkpt lat="45.57196" lon="4.72356">
        <ele>256</ele>
        <time>2015-05-27T12:38:11Z</time>
      </trkpt>
      <trkpt lat="45.57197" lon="4.72374">
        <ele>253</ele>
        <time>2015-05-27T12:38:18Z</time>
      </trkpt>
      <trkpt lat="45.57199" lon="4.72385">
        <ele>249</ele>
        <time>2015-05-27T12:38:23Z</time>
      </trkpt>
      <trkpt lat="45.57206" lon="4.72394">
        <ele>250</ele>
        <time>2015-05-27T12:38:29Z</time>
      </trkpt>
      <trkpt lat="45.57208" lon="4.72397">
        <ele>252</ele>
        <time>2015-05-27T12:38:31Z</time>
      </trkpt>
      <trkpt lat="45.57212" lon="4.72409">
        <ele>250</ele>
        <time>2015-05-27T12:38:37Z</time>
      </trkpt>
      <trkpt lat="45.57219" lon="4.72418">
        <ele>249</ele>
        <time>2015-05-27T12:38:44Z</time>
      </trkpt>
      <trkpt lat="45.57222" lon="4.72421">
        <ele>251</ele>
        <time>2015-05-27T12:38:46Z</time>
      </trkpt>
      <trkpt lat="45.57229" lon="4.72431">
        <ele>252</ele>
        <time>2015-05-27T12:38:51Z</time>
      </trkpt>
      <trkpt lat="45.57235" lon="4.72453">
        <ele>256</ele>
        <time>2015-05-27T12:39:00Z</time>
      </trkpt>
      <trkpt lat="45.57235" lon="4.72456">
        <ele>256</ele>
        <time>2015-05-27T12:39:01Z</time>
      </trkpt>
      <trkpt lat="45.57235" lon="4.72472">
        <ele>253</ele>
        <time>2015-05-27T12:39:06Z</time>
      </trkpt>
      <trkpt lat="45.57231" lon="4.72483">
        <ele>252</ele>
        <time>2015-05-27T12:39:11Z</time>
      </trkpt>
      <trkpt lat="45.57224" lon="4.7249">
        <ele>250</ele>
        <time>2015-05-27T12:39:16Z</time>
      </trkpt>
      <trkpt lat="45.57216" lon="4.72496">
        <ele>248</ele>
        <time>2015-05-27T12:39:21Z</time>
      </trkpt>
      <trkpt lat="45.57208" lon="4.72497">
        <ele>251</ele>
        <time>2015-05-27T12:39:26Z</time>
      </trkpt>
      <trkpt lat="45.57202" lon="4.72495">
        <ele>253</ele>
        <time>2015-05-27T12:39:31Z</time>
      </trkpt>
      <trkpt lat="45.57199" lon="4.72493">
        <ele>251</ele>
        <time>2015-05-27T12:39:36Z</time>
      </trkpt>
      <trkpt lat="45.57192" lon="4.72489">
        <ele>252</ele>
        <time>2015-05-27T12:39:41Z</time>
      </trkpt>
      <trkpt lat="45.57185" lon="4.72481">
        <ele>251</ele>
        <time>2015-05-27T12:39:46Z</time>
      </trkpt>
      <trkpt lat="45.57174" lon="4.72473">
        <ele>247</ele>
        <time>2015-05-27T12:39:51Z</time>
      </trkpt>
      <trkpt lat="45.57167" lon="4.72464">
        <ele>247</ele>
        <time>2015-05-27T12:39:58Z</time>
      </trkpt>
      <trkpt lat="45.57162" lon="4.72459">
        <ele>246</ele>
        <time>2015-05-27T12:40:02Z</time>
      </trkpt>
      <trkpt lat="45.5716" lon="4.72453">
        <ele>252</ele>
        <time>2015-05-27T12:40:07Z</time>
      </trkpt>
      <trkpt lat="45.57154" lon="4.72445">
        <ele>254</ele>
        <time>2015-05-27T12:40:12Z</time>
      </trkpt>
      <trkpt lat="45.5715" lon="4.72438">
        <ele>256</ele>
        <time>2015-05-27T12:40:16Z</time>
      </trkpt>
      <trkpt lat="45.57142" lon="4.72437">
        <ele>253</ele>
        <time>2015-05-27T12:40:21Z</time>
      </trkpt>
      <trkpt lat="45.57134" lon="4.72438">
        <ele>250</ele>
        <time>2015-05-27T12:40:26Z</time>
      </trkpt>
      <trkpt lat="45.57125" lon="4.72442">
        <ele>252</ele>
        <time>2015-05-27T12:40:35Z</time>
      </trkpt>
      <trkpt lat="45.57124" lon="4.72442">
        <ele>252</ele>
        <time>2015-05-27T12:40:36Z</time>
      </trkpt>
      <trkpt lat="45.57121" lon="4.72447">
        <ele>255</ele>
        <time>2015-05-27T12:40:42Z</time>
      </trkpt>
      <trkpt lat="45.57115" lon="4.7245">
        <ele>255</ele>
        <time>2015-05-27T12:40:46Z</time>
      </trkpt>
      <trkpt lat="45.57105" lon="4.7246">
        <ele>261</ele>
        <time>2015-05-27T12:40:51Z</time>
      </trkpt>
      <trkpt lat="45.57089" lon="4.72485">
        <ele>261</ele>
        <time>2015-05-27T12:40:58Z</time>
      </trkpt>
      <trkpt lat="45.57082" lon="4.72495">
        <ele>263</ele>
        <time>2015-05-27T12:41:01Z</time>
      </trkpt>
      <trkpt lat="45.57072" lon="4.7251">
        <ele>263</ele>
        <time>2015-05-27T12:41:06Z</time>
      </trkpt>
      <trkpt lat="45.57058" lon="4.72533">
        <ele>261</ele>
        <time>2015-05-27T12:41:11Z</time>
      </trkpt>
      <trkpt lat="45.57043" lon="4.72555">
        <ele>260</ele>
        <time>2015-05-27T12:41:18Z</time>
      </trkpt>
      <trkpt lat="45.57032" lon="4.72572">
        <ele>261</ele>
        <time>2015-05-27T12:41:23Z</time>
      </trkpt>
      <trkpt lat="45.57025" lon="4.72581">
        <ele>262</ele>
        <time>2015-05-27T12:41:26Z</time>
      </trkpt>
      <trkpt lat="45.57004" lon="4.72614">
        <ele>259</ele>
        <time>2015-05-27T12:41:31Z</time>
      </trkpt>
      <trkpt lat="45.5698" lon="4.72643">
        <ele>256</ele>
        <time>2015-05-27T12:41:36Z</time>
      </trkpt>
      <trkpt lat="45.56944" lon="4.72677">
        <ele>259</ele>
        <time>2015-05-27T12:41:42Z</time>
      </trkpt>
      <trkpt lat="45.56927" lon="4.72698">
        <ele>259</ele>
        <time>2015-05-27T12:41:46Z</time>
      </trkpt>
      <trkpt lat="45.56918" lon="4.72722">
        <ele>258</ele>
        <time>2015-05-27T12:41:51Z</time>
      </trkpt>
      <trkpt lat="45.56911" lon="4.72731">
        <ele>264</ele>
        <time>2015-05-27T12:41:56Z</time>
      </trkpt>
      <trkpt lat="45.56908" lon="4.72735">
        <ele>264</ele>
        <time>2015-05-27T12:42:03Z</time>
      </trkpt>
      <trkpt lat="45.56908" lon="4.72735">
        <ele>265</ele>
        <time>2015-05-27T12:42:06Z</time>
      </trkpt>
      <trkpt lat="45.56908" lon="4.72735">
        <ele>266</ele>
        <time>2015-05-27T12:42:09Z</time>
      </trkpt>
      <trkpt lat="45.56908" lon="4.72735">
        <ele>266</ele>
        <time>2015-05-27T12:42:12Z</time>
      </trkpt>
      <trkpt lat="45.56908" lon="4.72735">
        <ele>266</ele>
        <time>2015-05-27T12:42:15Z</time>
      </trkpt>
      <trkpt lat="45.56908" lon="4.72735">
        <ele>266</ele>
        <time>2015-05-27T12:42:18Z</time>
      </trkpt>
      <trkpt lat="45.56908" lon="4.72735">
        <ele>266</ele>
        <time>2015-05-27T12:42:21Z</time>
      </trkpt>
      <trkpt lat="45.56908" lon="4.72738">
        <ele>265</ele>
        <time>2015-05-27T12:42:24Z</time>
      </trkpt>
      <trkpt lat="45.56907" lon="4.7274">
        <ele>267</ele>
        <time>2015-05-27T12:42:29Z</time>
      </trkpt>
      <trkpt lat="45.56913" lon="4.72743">
        <ele>269</ele>
        <time>2015-05-27T12:42:35Z</time>
      </trkpt>
      <trkpt lat="45.56912" lon="4.72743">
        <ele>273</ele>
        <time>2015-05-27T12:42:40Z</time>
      </trkpt>
      <trkpt lat="45.5692" lon="4.72742">
        <ele>283</ele>
        <time>2015-05-27T12:42:46Z</time>
      </trkpt>
      <trkpt lat="45.56921" lon="4.72741">
        <ele>284</ele>
        <time>2015-05-27T12:42:47Z</time>
      </trkpt>
      <trkpt lat="45.56929" lon="4.72743">
        <ele>284</ele>
        <time>2015-05-27T12:42:52Z</time>
      </trkpt>
      <trkpt lat="45.56933" lon="4.72741">
        <ele>284</ele>
        <time>2015-05-27T12:42:57Z</time>
      </trkpt>
      <trkpt lat="45.56938" lon="4.72735">
        <ele>287</ele>
        <time>2015-05-27T12:43:02Z</time>
      </trkpt>
      <trkpt lat="45.56955" lon="4.72732">
        <ele>283</ele>
        <time>2015-05-27T12:43:11Z</time>
      </trkpt>
      <trkpt lat="45.56956" lon="4.72731">
        <ele>284</ele>
        <time>2015-05-27T12:43:12Z</time>
      </trkpt>
      <trkpt lat="45.56962" lon="4.72732">
        <ele>288</ele>
        <time>2015-05-27T12:43:17Z</time>
      </trkpt>
      <trkpt lat="45.56978" lon="4.72727">
        <ele>279</ele>
        <time>2015-05-27T12:43:26Z</time>
      </trkpt>
      <trkpt lat="45.56978" lon="4.72726">
        <ele>281</ele>
        <time>2015-05-27T12:43:27Z</time>
      </trkpt>
      <trkpt lat="45.56988" lon="4.72725">
        <ele>273</ele>
        <time>2015-05-27T12:43:32Z</time>
      </trkpt>
      <trkpt lat="45.56995" lon="4.72723">
        <ele>274</ele>
        <time>2015-05-27T12:43:37Z</time>
      </trkpt>
      <trkpt lat="45.57011" lon="4.72724">
        <ele>272</ele>
        <time>2015-05-27T12:43:46Z</time>
      </trkpt>
      <trkpt lat="45.57019" lon="4.72727">
        <ele>270</ele>
        <time>2015-05-27T12:43:51Z</time>
      </trkpt>
      <trkpt lat="45.57021" lon="4.72727">
        <ele>270</ele>
        <time>2015-05-27T12:43:52Z</time>
      </trkpt>
      <trkpt lat="45.57028" lon="4.72729">
        <ele>276</ele>
        <time>2015-05-27T12:43:57Z</time>
      </trkpt>
      <trkpt lat="45.57033" lon="4.72726">
        <ele>279</ele>
        <time>2015-05-27T12:44:02Z</time>
      </trkpt>
      <trkpt lat="45.57042" lon="4.72716">
        <ele>282</ele>
        <time>2015-05-27T12:44:07Z</time>
      </trkpt>
      <trkpt lat="45.57057" lon="4.72713">
        <ele>277</ele>
        <time>2015-05-27T12:44:12Z</time>
      </trkpt>
      <trkpt lat="45.57067" lon="4.72708">
        <ele>277</ele>
        <time>2015-05-27T12:44:17Z</time>
      </trkpt>
      <trkpt lat="45.57082" lon="4.72703">
        <ele>274</ele>
        <time>2015-05-27T12:44:22Z</time>
      </trkpt>
      <trkpt lat="45.571" lon="4.72704">
        <ele>271</ele>
        <time>2015-05-27T12:44:29Z</time>
      </trkpt>
      <trkpt lat="45.57105" lon="4.72705">
        <ele>273</ele>
        <time>2015-05-27T12:44:32Z</time>
      </trkpt>
      <trkpt lat="45.57116" lon="4.72708">
        <ele>276</ele>
        <time>2015-05-27T12:44:39Z</time>
      </trkpt>
      <trkpt lat="45.57119" lon="4.72709">
        <ele>277</ele>
        <time>2015-05-27T12:44:42Z</time>
      </trkpt>
      <trkpt lat="45.57126" lon="4.7271">
        <ele>281</ele>
        <time>2015-05-27T12:44:47Z</time>
      </trkpt>
      <trkpt lat="45.5713" lon="4.72711">
        <ele>280</ele>
        <time>2015-05-27T12:44:52Z</time>
      </trkpt>
      <trkpt lat="45.57138" lon="4.72715">
        <ele>282</ele>
        <time>2015-05-27T12:44:59Z</time>
      </trkpt>
      <trkpt lat="45.57142" lon="4.72718">
        <ele>283</ele>
        <time>2015-05-27T12:45:02Z</time>
      </trkpt>
      <trkpt lat="45.57149" lon="4.72722">
        <ele>282</ele>
        <time>2015-05-27T12:45:07Z</time>
      </trkpt>
      <trkpt lat="45.57156" lon="4.72729">
        <ele>282</ele>
        <time>2015-05-27T12:45:12Z</time>
      </trkpt>
      <trkpt lat="45.57166" lon="4.72734">
        <ele>280</ele>
        <time>2015-05-27T12:45:18Z</time>
      </trkpt>
      <trkpt lat="45.5717" lon="4.72739">
        <ele>279</ele>
        <time>2015-05-27T12:45:22Z</time>
      </trkpt>
      <trkpt lat="45.57175" lon="4.72743">
        <ele>280</ele>
        <time>2015-05-27T12:45:27Z</time>
      </trkpt>
      <trkpt lat="45.57178" lon="4.7275">
        <ele>279</ele>
        <time>2015-05-27T12:45:32Z</time>
      </trkpt>
      <trkpt lat="45.57174" lon="4.72756">
        <ele>275</ele>
        <time>2015-05-27T12:45:37Z</time>
      </trkpt>
      <trkpt lat="45.57169" lon="4.72761">
        <ele>274</ele>
        <time>2015-05-27T12:45:42Z</time>
      </trkpt>
      <trkpt lat="45.57165" lon="4.72764">
        <ele>276</ele>
        <time>2015-05-27T12:45:47Z</time>
      </trkpt>
      <trkpt lat="45.57162" lon="4.72767">
        <ele>276</ele>
        <time>2015-05-27T12:45:52Z</time>
      </trkpt>
      <trkpt lat="45.57157" lon="4.72771">
        <ele>276</ele>
        <time>2015-05-27T12:45:57Z</time>
      </trkpt>
      <trkpt lat="45.57151" lon="4.72775">
        <ele>275</ele>
        <time>2015-05-27T12:46:02Z</time>
      </trkpt>
      <trkpt lat="45.57143" lon="4.72779">
        <ele>274</ele>
        <time>2015-05-27T12:46:07Z</time>
      </trkpt>
      <trkpt lat="45.57135" lon="4.72784">
        <ele>272</ele>
        <time>2015-05-27T12:46:12Z</time>
      </trkpt>
      <trkpt lat="45.57126" lon="4.7279">
        <ele>272</ele>
        <time>2015-05-27T12:46:17Z</time>
      </trkpt>
      <trkpt lat="45.57119" lon="4.72794">
        <ele>269</ele>
        <time>2015-05-27T12:46:22Z</time>
      </trkpt>
      <trkpt lat="45.57112" lon="4.72798">
        <ele>269</ele>
        <time>2015-05-27T12:46:27Z</time>
      </trkpt>
      <trkpt lat="45.57104" lon="4.72804">
        <ele>267</ele>
        <time>2015-05-27T12:46:32Z</time>
      </trkpt>
      <trkpt lat="45.57097" lon="4.7281">
        <ele>268</ele>
        <time>2015-05-27T12:46:37Z</time>
      </trkpt>
      <trkpt lat="45.57093" lon="4.72816">
        <ele>272</ele>
        <time>2015-05-27T12:46:42Z</time>
      </trkpt>
      <trkpt lat="45.57092" lon="4.72821">
        <ele>277</ele>
        <time>2015-05-27T12:46:47Z</time>
      </trkpt>
      <trkpt lat="45.57086" lon="4.72829">
        <ele>279</ele>
        <time>2015-05-27T12:46:52Z</time>
      </trkpt>
      <trkpt lat="45.57085" lon="4.72836">
        <ele>284</ele>
        <time>2015-05-27T12:46:57Z</time>
      </trkpt>
      <trkpt lat="45.57081" lon="4.72843">
        <ele>285</ele>
        <time>2015-05-27T12:47:02Z</time>
      </trkpt>
      <trkpt lat="45.57076" lon="4.72849">
        <ele>287</ele>
        <time>2015-05-27T12:47:07Z</time>
      </trkpt>
      <trkpt lat="45.57071" lon="4.72856">
        <ele>287</ele>
        <time>2015-05-27T12:47:12Z</time>
      </trkpt>
      <trkpt lat="45.57066" lon="4.72863">
        <ele>289</ele>
        <time>2015-05-27T12:47:17Z</time>
      </trkpt>
      <trkpt lat="45.57062" lon="4.7287">
        <ele>289</ele>
        <time>2015-05-27T12:47:22Z</time>
      </trkpt>
      <trkpt lat="45.57057" lon="4.72878">
        <ele>291</ele>
        <time>2015-05-27T12:47:27Z</time>
      </trkpt>
      <trkpt lat="45.57052" lon="4.72886">
        <ele>291</ele>
        <time>2015-05-27T12:47:32Z</time>
      </trkpt>
      <trkpt lat="45.57048" lon="4.72893">
        <ele>291</ele>
        <time>2015-05-27T12:47:37Z</time>
      </trkpt>
      <trkpt lat="45.57043" lon="4.72901">
        <ele>292</ele>
        <time>2015-05-27T12:47:42Z</time>
      </trkpt>
      <trkpt lat="45.57038" lon="4.72905">
        <ele>292</ele>
        <time>2015-05-27T12:47:47Z</time>
      </trkpt>
      <trkpt lat="45.57033" lon="4.72912">
        <ele>292</ele>
        <time>2015-05-27T12:47:52Z</time>
      </trkpt>
      <trkpt lat="45.57028" lon="4.72918">
        <ele>292</ele>
        <time>2015-05-27T12:47:57Z</time>
      </trkpt>
      <trkpt lat="45.57023" lon="4.72924">
        <ele>293</ele>
        <time>2015-05-27T12:48:02Z</time>
      </trkpt>
      <trkpt lat="45.57018" lon="4.7293">
        <ele>294</ele>
        <time>2015-05-27T12:48:07Z</time>
      </trkpt>
      <trkpt lat="45.57012" lon="4.72937">
        <ele>295</ele>
        <time>2015-05-27T12:48:12Z</time>
      </trkpt>
      <trkpt lat="45.57006" lon="4.72943">
        <ele>296</ele>
        <time>2015-05-27T12:48:17Z</time>
      </trkpt>
      <trkpt lat="45.57001" lon="4.72949">
        <ele>296</ele>
        <time>2015-05-27T12:48:22Z</time>
      </trkpt>
      <trkpt lat="45.56996" lon="4.72955">
        <ele>297</ele>
        <time>2015-05-27T12:48:27Z</time>
      </trkpt>
      <trkpt lat="45.56991" lon="4.72961">
        <ele>298</ele>
        <time>2015-05-27T12:48:32Z</time>
      </trkpt>
      <trkpt lat="45.56986" lon="4.72967">
        <ele>299</ele>
        <time>2015-05-27T12:48:37Z</time>
      </trkpt>
      <trkpt lat="45.56983" lon="4.72974">
        <ele>300</ele>
        <time>2015-05-27T12:48:42Z</time>
      </trkpt>
      <trkpt lat="45.56981" lon="4.72982">
        <ele>300</ele>
        <time>2015-05-27T12:48:47Z</time>
      </trkpt>
      <trkpt lat="45.56983" lon="4.72988">
        <ele>300</ele>
        <time>2015-05-27T12:48:52Z</time>
      </trkpt>
      <trkpt lat="45.56985" lon="4.72991">
        <ele>301</ele>
        <time>2015-05-27T12:48:57Z</time>
      </trkpt>
      <trkpt lat="45.56985" lon="4.72989">
        <ele>301</ele>
        <time>2015-05-27T12:49:02Z</time>
      </trkpt>
      <trkpt lat="45.56984" lon="4.72991">
        <ele>301</ele>
        <time>2015-05-27T12:49:05Z</time>
      </trkpt>
      <trkpt lat="45.56983" lon="4.72993">
        <ele>301</ele>
        <time>2015-05-27T12:49:10Z</time>
      </trkpt>
      <trkpt lat="45.56982" lon="4.72994">
        <ele>301</ele>
        <time>2015-05-27T12:49:15Z</time>
      </trkpt>
      <trkpt lat="45.56982" lon="4.72994">
        <ele>301</ele>
        <time>2015-05-27T12:49:18Z</time>
      </trkpt>
      <trkpt lat="45.56982" lon="4.72994">
        <ele>301</ele>
        <time>2015-05-27T12:49:21Z</time>
      </trkpt>
      <trkpt lat="45.56982" lon="4.72994">
        <ele>301</ele>
        <time>2015-05-27T12:49:24Z</time>
      </trkpt>
      <trkpt lat="45.56982" lon="4.72993">
        <ele>301</ele>
        <time>2015-05-27T12:49:27Z</time>
      </trkpt>
      <trkpt lat="45.56982" lon="4.72994">
        <ele>301</ele>
        <time>2015-05-27T12:49:30Z</time>
      </trkpt>
      <trkpt lat="45.56982" lon="4.72994">
        <ele>301</ele>
        <time>2015-05-27T12:49:33Z</time>
      </trkpt>
      <trkpt lat="45.56982" lon="4.72994">
        <ele>301</ele>
        <time>2015-05-27T12:49:38Z</time>
      </trkpt>
      <trkpt lat="45.56982" lon="4.72994">
        <ele>301</ele>
        <time>2015-05-27T12:49:39Z</time>
      </trkpt>
    </trkseg>
  </trk>
  <trk>
    <name><![CDATA[Sequence 2]]></name>
    <trkseg>
      <trkpt lat="45.56982" lon="4.72993">
        <ele>300</ele>
        <time>2015-05-27T12:51:02Z</time>
      </trkpt>
      <trkpt lat="45.56982" lon="4.72993">
        <ele>300</ele>
        <time>2015-05-27T12:51:05Z</time>
      </trkpt>
      <trkpt lat="45.56982" lon="4.72993">
        <ele>300</ele>
        <time>2015-05-27T12:51:08Z</time>
      </trkpt>
      <trkpt lat="45.56982" lon="4.72993">
        <ele>300</ele>
        <time>2015-05-27T12:51:11Z</time>
      </trkpt>
      <trkpt lat="45.56982" lon="4.72993">
        <ele>300</ele>
        <time>2015-05-27T12:51:14Z</time>
      </trkpt>
      <trkpt lat="45.56983" lon="4.72993">
        <ele>301</ele>
        <time>2015-05-27T12:51:18Z</time>
      </trkpt>
      <trkpt lat="45.56983" lon="4.72993">
        <ele>301</ele>
        <time>2015-05-27T12:51:20Z</time>
      </trkpt>
      <trkpt lat="45.56983" lon="4.72992">
        <ele>301</ele>
        <time>2015-05-27T12:51:23Z</time>
      </trkpt>
      <trkpt lat="45.56983" lon="4.72992">
        <ele>301</ele>
        <time>2015-05-27T12:51:26Z</time>
      </trkpt>
      <trkpt lat="45.56983" lon="4.72992">
        <ele>302</ele>
        <time>2015-05-27T12:51:29Z</time>
      </trkpt>
      <trkpt lat="45.56983" lon="4.72992">
        <ele>301</ele>
        <time>2015-05-27T12:51:32Z</time>
      </trkpt>
      <trkpt lat="45.56983" lon="4.72992">
        <ele>301</ele>
        <time>2015-05-27T12:51:35Z</time>
      </trkpt>
      <trkpt lat="45.56983" lon="4.72992">
        <ele>301</ele>
        <time>2015-05-27T12:51:38Z</time>
      </trkpt>
      <trkpt lat="45.56983" lon="4.72991">
        <ele>301</ele>
        <time>2015-05-27T12:51:41Z</time>
      </trkpt>
      <trkpt lat="45.56982" lon="4.72992">
        <ele>300</ele>
        <time>2015-05-27T12:51:44Z</time>
      </trkpt>
      <trkpt lat="45.56982" lon="4.72993">
        <ele>301</ele>
        <time>2015-05-27T12:51:49Z</time>
      </trkpt>
      <trkpt lat="45.56982" lon="4.72993">
        <ele>301</ele>
        <time>2015-05-27T12:51:53Z</time>
      </trkpt>
      <trkpt lat="45.56982" lon="4.72993">
        <ele>301</ele>
        <time>2015-05-27T12:51:57Z</time>
      </trkpt>
      <trkpt lat="45.56982" lon="4.72993">
        <ele>301</ele>
        <time>2015-05-27T12:51:58Z</time>
      </trkpt>
      <trkpt lat="45.56982" lon="4.72993">
        <ele>301</ele>
        <time>2015-05-27T12:52:01Z</time>
      </trkpt>
      <trkpt lat="45.56983" lon="4.72992">
        <ele>304</ele>
        <time>2015-05-27T12:52:04Z</time>
      </trkpt>
      <trkpt lat="45.56983" lon="4.72995">
        <ele>301</ele>
        <time>2015-05-27T12:52:07Z</time>
      </trkpt>
      <trkpt lat="45.56983" lon="4.72995">
        <ele>301</ele>
        <time>2015-05-27T12:52:12Z</time>
      </trkpt>
      <trkpt lat="45.56985" lon="4.72998">
        <ele>303</ele>
        <time>2015-05-27T12:52:15Z</time>
      </trkpt>
      <trkpt lat="45.5699" lon="4.73009">
        <ele>304</ele>
        <time>2015-05-27T12:52:20Z</time>
      </trkpt>
      <trkpt lat="45.56995" lon="4.7303">
        <ele>305</ele>
        <time>2015-05-27T12:52:25Z</time>
      </trkpt>
      <trkpt lat="45.56999" lon="4.73063">
        <ele>304</ele>
        <time>2015-05-27T12:52:30Z</time>
      </trkpt>
      <trkpt lat="45.57" lon="4.7309">
        <ele>306</ele>
        <time>2015-05-27T12:52:35Z</time>
      </trkpt>
      <trkpt lat="45.57002" lon="4.73095">
        <ele>308</ele>
        <time>2015-05-27T12:52:40Z</time>
      </trkpt>
      <trkpt lat="45.57004" lon="4.73099">
        <ele>308</ele>
        <time>2015-05-27T12:52:45Z</time>
      </trkpt>
      <trkpt lat="45.57004" lon="4.73102">
        <ele>305</ele>
        <time>2015-05-27T12:52:51Z</time>
      </trkpt>
      <trkpt lat="45.57004" lon="4.73102">
        <ele>305</ele>
        <time>2015-05-27T12:52:53Z</time>
      </trkpt>
      <trkpt lat="45.57002" lon="4.73102">
        <ele>303</ele>
        <time>2015-05-27T12:52:58Z</time>
      </trkpt>
      <trkpt lat="45.57002" lon="4.73103">
        <ele>304</ele>
        <time>2015-05-27T12:53:03Z</time>
      </trkpt>
      <trkpt lat="45.57001" lon="4.73103">
        <ele>300</ele>
        <time>2015-05-27T12:53:06Z</time>
      </trkpt>
      <trkpt lat="45.56999" lon="4.73104">
        <ele>300</ele>
        <time>2015-05-27T12:53:13Z</time>
      </trkpt>
      <trkpt lat="45.56998" lon="4.73104">
        <ele>299</ele>
        <time>2015-05-27T12:53:18Z</time>
      </trkpt>
      <trkpt lat="45.56998" lon="4.73104">
        <ele>298</ele>
        <time>2015-05-27T12:53:19Z</time>
      </trkpt>
      <trkpt lat="45.56999" lon="4.73104">
        <ele>298</ele>
        <time>2015-05-27T12:53:22Z</time>
      </trkpt>
      <trkpt lat="45.57001" lon="4.73104">
        <ele>298</ele>
        <time>2015-05-27T12:53:27Z</time>
      </trkpt>
      <trkpt lat="45.57001" lon="4.73105">
        <ele>299</ele>
        <time>2015-05-27T12:53:31Z</time>
      </trkpt>
      <trkpt lat="45.57001" lon="4.73105">
        <ele>299</ele>
        <time>2015-05-27T12:53:33Z</time>
      </trkpt>
      <trkpt lat="45.57003" lon="4.73109">
        <ele>303</ele>
        <time>2015-05-27T12:53:36Z</time>
      </trkpt>
      <trkpt lat="45.57009" lon="4.73122">
        <ele>313</ele>
        <time>2015-05-27T12:53:43Z</time>
      </trkpt>
      <trkpt lat="45.57013" lon="4.73129">
        <ele>319</ele>
        <time>2015-05-27T12:53:46Z</time>
      </trkpt>
      <trkpt lat="45.57018" lon="4.73144">
        <ele>320</ele>
        <time>2015-05-27T12:53:51Z</time>
      </trkpt>
      <trkpt lat="45.57025" lon="4.7316">
        <ele>322</ele>
        <time>2015-05-27T12:53:56Z</time>
      </trkpt>
      <trkpt lat="45.5703" lon="4.73174">
        <ele>322</ele>
        <time>2015-05-27T12:54:01Z</time>
      </trkpt>
      <trkpt lat="45.57036" lon="4.73191">
        <ele>321</ele>
        <time>2015-05-27T12:54:06Z</time>
      </trkpt>
      <trkpt lat="45.57045" lon="4.73211">
        <ele>320</ele>
        <time>2015-05-27T12:54:11Z</time>
      </trkpt>
      <trkpt lat="45.57051" lon="4.73232">
        <ele>319</ele>
        <time>2015-05-27T12:54:16Z</time>
      </trkpt>
      <trkpt lat="45.57052" lon="4.73257">
        <ele>317</ele>
        <time>2015-05-27T12:54:21Z</time>
      </trkpt>
      <trkpt lat="45.57051" lon="4.73285">
        <ele>316</ele>
        <time>2015-05-27T12:54:26Z</time>
      </trkpt>
      <trkpt lat="45.57047" lon="4.73311">
        <ele>316</ele>
        <time>2015-05-27T12:54:31Z</time>
      </trkpt>
      <trkpt lat="45.57041" lon="4.7334">
        <ele>315</ele>
        <time>2015-05-27T12:54:36Z</time>
      </trkpt>
      <trkpt lat="45.57033" lon="4.73373">
        <ele>314</ele>
        <time>2015-05-27T12:54:41Z</time>
      </trkpt>
      <trkpt lat="45.57034" lon="4.73404">
        <ele>313</ele>
        <time>2015-05-27T12:54:46Z</time>
      </trkpt>
      <trkpt lat="45.57046" lon="4.73412">
        <ele>315</ele>
        <time>2015-05-27T12:54:51Z</time>
      </trkpt>
      <trkpt lat="45.57055" lon="4.73416">
        <ele>317</ele>
        <time>2015-05-27T12:54:56Z</time>
      </trkpt>
      <trkpt lat="45.57063" lon="4.73418">
        <ele>322</ele>
        <time>2015-05-27T12:55:01Z</time>
      </trkpt>
      <trkpt lat="45.57072" lon="4.73422">
        <ele>321</ele>
        <time>2015-05-27T12:55:06Z</time>
      </trkpt>
      <trkpt lat="45.57081" lon="4.73426">
        <ele>323</ele>
        <time>2015-05-27T12:55:11Z</time>
      </trkpt>
      <trkpt lat="45.57089" lon="4.73431">
        <ele>324</ele>
        <time>2015-05-27T12:55:16Z</time>
      </trkpt>
      <trkpt lat="45.57096" lon="4.73438">
        <ele>323</ele>
        <time>2015-05-27T12:55:21Z</time>
      </trkpt>
      <trkpt lat="45.57094" lon="4.73449">
        <ele>319</ele>
        <time>2015-05-27T12:55:26Z</time>
      </trkpt>
      <trkpt lat="45.57087" lon="4.7346">
        <ele>317</ele>
        <time>2015-05-27T12:55:31Z</time>
      </trkpt>
      <trkpt lat="45.57078" lon="4.73472">
        <ele>317</ele>
        <time>2015-05-27T12:55:36Z</time>
      </trkpt>
      <trkpt lat="45.57068" lon="4.73484">
        <ele>317</ele>
        <time>2015-05-27T12:55:41Z</time>
      </trkpt>
      <trkpt lat="45.57059" lon="4.73495">
        <ele>317</ele>
        <time>2015-05-27T12:55:46Z</time>
      </trkpt>
      <trkpt lat="45.5705" lon="4.73505">
        <ele>317</ele>
        <time>2015-05-27T12:55:51Z</time>
      </trkpt>
      <trkpt lat="45.57041" lon="4.73515">
        <ele>317</ele>
        <time>2015-05-27T12:55:56Z</time>
      </trkpt>
      <trkpt lat="45.57032" lon="4.73527">
        <ele>317</ele>
        <time>2015-05-27T12:56:01Z</time>
      </trkpt>
      <trkpt lat="45.57022" lon="4.73539">
        <ele>318</ele>
        <time>2015-05-27T12:56:06Z</time>
      </trkpt>
      <trkpt lat="45.57012" lon="4.73551">
        <ele>318</ele>
        <time>2015-05-27T12:56:11Z</time>
      </trkpt>
      <trkpt lat="45.57002" lon="4.73562">
        <ele>319</ele>
        <time>2015-05-27T12:56:16Z</time>
      </trkpt>
      <trkpt lat="45.56992" lon="4.73572">
        <ele>319</ele>
        <time>2015-05-27T12:56:21Z</time>
      </trkpt>
      <trkpt lat="45.56984" lon="4.73583">
        <ele>322</ele>
        <time>2015-05-27T12:56:26Z</time>
      </trkpt>
      <trkpt lat="45.56975" lon="4.73592">
        <ele>324</ele>
        <time>2015-05-27T12:56:31Z</time>
      </trkpt>
      <trkpt lat="45.56967" lon="4.736">
        <ele>326</ele>
        <time>2015-05-27T12:56:36Z</time>
      </trkpt>
      <trkpt lat="45.56957" lon="4.73608">
        <ele>327</ele>
        <time>2015-05-27T12:56:41Z</time>
      </trkpt>
      <trkpt lat="45.56946" lon="4.73617">
        <ele>329</ele>
        <time>2015-05-27T12:56:46Z</time>
      </trkpt>
      <trkpt lat="45.56935" lon="4.73625">
        <ele>329</ele>
        <time>2015-05-27T12:56:51Z</time>
      </trkpt>
      <trkpt lat="45.56924" lon="4.7363">
        <ele>330</ele>
        <time>2015-05-27T12:56:56Z</time>
      </trkpt>
      <trkpt lat="45.56913" lon="4.73634">
        <ele>330</ele>
        <time>2015-05-27T12:57:01Z</time>
      </trkpt>
      <trkpt lat="45.56901" lon="4.73638">
        <ele>331</ele>
        <time>2015-05-27T12:57:06Z</time>
      </trkpt>
      <trkpt lat="45.5689" lon="4.73643">
        <ele>333</ele>
        <time>2015-05-27T12:57:11Z</time>
      </trkpt>
      <trkpt lat="45.56882" lon="4.73653">
        <ele>333</ele>
        <time>2015-05-27T12:57:16Z</time>
      </trkpt>
      <trkpt lat="45.56885" lon="4.7367">
        <ele>332</ele>
        <time>2015-05-27T12:57:21Z</time>
      </trkpt>
      <trkpt lat="45.56888" lon="4.73692">
        <ele>331</ele>
        <time>2015-05-27T12:57:26Z</time>
      </trkpt>
      <trkpt lat="45.56887" lon="4.73717">
        <ele>331</ele>
        <time>2015-05-27T12:57:31Z</time>
      </trkpt>
      <trkpt lat="45.56885" lon="4.73743">
        <ele>332</ele>
        <time>2015-05-27T12:57:36Z</time>
      </trkpt>
      <trkpt lat="45.56879" lon="4.7377">
        <ele>331</ele>
        <time>2015-05-27T12:57:41Z</time>
      </trkpt>
      <trkpt lat="45.56872" lon="4.73796">
        <ele>332</ele>
        <time>2015-05-27T12:57:46Z</time>
      </trkpt>
      <trkpt lat="45.56862" lon="4.73821">
        <ele>332</ele>
        <time>2015-05-27T12:57:51Z</time>
      </trkpt>
      <trkpt lat="45.5685" lon="4.73843">
        <ele>334</ele>
        <time>2015-05-27T12:57:56Z</time>
      </trkpt>
      <trkpt lat="45.56837" lon="4.73862">
        <ele>336</ele>
        <time>2015-05-27T12:58:01Z</time>
      </trkpt>
      <trkpt lat="45.56843" lon="4.73908">
        <ele>336</ele>
        <time>2015-05-27T12:58:10Z</time>
      </trkpt>
      <trkpt lat="45.5684" lon="4.7392">
        <ele>334</ele>
        <time>2015-05-27T12:58:12Z</time>
      </trkpt>
      <trkpt lat="45.56833" lon="4.73945">
        <ele>332</ele>
        <time>2015-05-27T12:58:16Z</time>
      </trkpt>
      <trkpt lat="45.56825" lon="4.73974">
        <ele>332</ele>
        <time>2015-05-27T12:58:21Z</time>
      </trkpt>
      <trkpt lat="45.56817" lon="4.74031">
        <ele>330</ele>
        <time>2015-05-27T12:58:30Z</time>
      </trkpt>
      <trkpt lat="45.56815" lon="4.74035">
        <ele>330</ele>
        <time>2015-05-27T12:58:31Z</time>
      </trkpt>
      <trkpt lat="45.56781" lon="4.74058">
        <ele>330</ele>
        <time>2015-05-27T12:58:40Z</time>
      </trkpt>
      <trkpt lat="45.56778" lon="4.74065">
        <ele>330</ele>
        <time>2015-05-27T12:58:41Z</time>
      </trkpt>
      <trkpt lat="45.56757" lon="4.74113">
        <ele>331</ele>
        <time>2015-05-27T12:58:48Z</time>
      </trkpt>
      <trkpt lat="45.56747" lon="4.74135">
        <ele>333</ele>
        <time>2015-05-27T12:58:53Z</time>
      </trkpt>
      <trkpt lat="45.56739" lon="4.74147">
        <ele>333</ele>
        <time>2015-05-27T12:58:57Z</time>
      </trkpt>
      <trkpt lat="45.56733" lon="4.7416">
        <ele>333</ele>
        <time>2015-05-27T12:59:01Z</time>
      </trkpt>
      <trkpt lat="45.5672" lon="4.74171">
        <ele>334</ele>
        <time>2015-05-27T12:59:06Z</time>
      </trkpt>
      <trkpt lat="45.56703" lon="4.74188">
        <ele>336</ele>
        <time>2015-05-27T12:59:13Z</time>
      </trkpt>
      <trkpt lat="45.56696" lon="4.74195">
        <ele>336</ele>
        <time>2015-05-27T12:59:16Z</time>
      </trkpt>
      <trkpt lat="45.56671" lon="4.74215">
        <ele>334</ele>
        <time>2015-05-27T12:59:25Z</time>
      </trkpt>
      <trkpt lat="45.56669" lon="4.74217">
        <ele>335</ele>
        <time>2015-05-27T12:59:26Z</time>
      </trkpt>
      <trkpt lat="45.56654" lon="4.74228">
        <ele>335</ele>
        <time>2015-05-27T12:59:31Z</time>
      </trkpt>
      <trkpt lat="45.56641" lon="4.74242">
        <ele>333</ele>
        <time>2015-05-27T12:59:36Z</time>
      </trkpt>
      <trkpt lat="45.56625" lon="4.74254">
        <ele>333</ele>
        <time>2015-05-27T12:59:41Z</time>
      </trkpt>
      <trkpt lat="45.56609" lon="4.74264">
        <ele>333</ele>
        <time>2015-05-27T12:59:46Z</time>
      </trkpt>
      <trkpt lat="45.56587" lon="4.74277">
        <ele>332</ele>
        <time>2015-05-27T12:59:53Z</time>
      </trkpt>
      <trkpt lat="45.56577" lon="4.74284">
        <ele>331</ele>
        <time>2015-05-27T12:59:56Z</time>
      </trkpt>
      <trkpt lat="45.56553" lon="4.74297">
        <ele>331</ele>
        <time>2015-05-27T13:00:02Z</time>
      </trkpt>
      <trkpt lat="45.56531" lon="4.74301">
        <ele>335</ele>
        <time>2015-05-27T13:00:10Z</time>
      </trkpt>
      <trkpt lat="45.56529" lon="4.743">
        <ele>334</ele>
        <time>2015-05-27T13:00:11Z</time>
      </trkpt>
      <trkpt lat="45.56514" lon="4.74293">
        <ele>334</ele>
        <time>2015-05-27T13:00:16Z</time>
      </trkpt>
      <trkpt lat="45.56497" lon="4.74286">
        <ele>337</ele>
        <time>2015-05-27T13:00:21Z</time>
      </trkpt>
      <trkpt lat="45.56483" lon="4.7428">
        <ele>337</ele>
        <time>2015-05-27T13:00:26Z</time>
      </trkpt>
      <trkpt lat="45.5646" lon="4.74269">
        <ele>335</ele>
        <time>2015-05-27T13:00:35Z</time>
      </trkpt>
      <trkpt lat="45.56448" lon="4.74265">
        <ele>336</ele>
        <time>2015-05-27T13:00:40Z</time>
      </trkpt>
      <trkpt lat="45.56445" lon="4.74265">
        <ele>336</ele>
        <time>2015-05-27T13:00:41Z</time>
      </trkpt>
      <trkpt lat="45.56433" lon="4.74263">
        <ele>336</ele>
        <time>2015-05-27T13:00:46Z</time>
      </trkpt>
      <trkpt lat="45.56423" lon="4.74263">
        <ele>336</ele>
        <time>2015-05-27T13:00:51Z</time>
      </trkpt>
      <trkpt lat="45.56409" lon="4.74261">
        <ele>337</ele>
        <time>2015-05-27T13:00:56Z</time>
      </trkpt>
      <trkpt lat="45.56399" lon="4.7426">
        <ele>337</ele>
        <time>2015-05-27T13:01:01Z</time>
      </trkpt>
      <trkpt lat="45.56384" lon="4.74258">
        <ele>336</ele>
        <time>2015-05-27T13:01:08Z</time>
      </trkpt>
      <trkpt lat="45.5638" lon="4.74256">
        <ele>337</ele>
        <time>2015-05-27T13:01:11Z</time>
      </trkpt>
      <trkpt lat="45.56376" lon="4.74265">
        <ele>335</ele>
        <time>2015-05-27T13:01:16Z</time>
      </trkpt>
      <trkpt lat="45.56375" lon="4.74282">
        <ele>334</ele>
        <time>2015-05-27T13:01:21Z</time>
      </trkpt>
      <trkpt lat="45.56376" lon="4.74298">
        <ele>337</ele>
        <time>2015-05-27T13:01:26Z</time>
      </trkpt>
      <trkpt lat="45.56375" lon="4.74316">
        <ele>337</ele>
        <time>2015-05-27T13:01:31Z</time>
      </trkpt>
      <trkpt lat="45.56372" lon="4.7434">
        <ele>338</ele>
        <time>2015-05-27T13:01:40Z</time>
      </trkpt>
      <trkpt lat="45.5637" lon="4.74342">
        <ele>339</ele>
        <time>2015-05-27T13:01:41Z</time>
      </trkpt>
      <trkpt lat="45.5636" lon="4.74354">
        <ele>337</ele>
        <time>2015-05-27T13:01:46Z</time>
      </trkpt>
      <trkpt lat="45.56348" lon="4.74364">
        <ele>339</ele>
        <time>2015-05-27T13:01:51Z</time>
      </trkpt>
      <trkpt lat="45.56338" lon="4.74375">
        <ele>337</ele>
        <time>2015-05-27T13:01:56Z</time>
      </trkpt>
      <trkpt lat="45.56322" lon="4.74389">
        <ele>340</ele>
        <time>2015-05-27T13:02:03Z</time>
      </trkpt>
      <trkpt lat="45.56315" lon="4.74396">
        <ele>341</ele>
        <time>2015-05-27T13:02:06Z</time>
      </trkpt>
      <trkpt lat="45.56301" lon="4.74406">
        <ele>343</ele>
        <time>2015-05-27T13:02:11Z</time>
      </trkpt>
      <trkpt lat="45.56288" lon="4.74415">
        <ele>340</ele>
        <time>2015-05-27T13:02:16Z</time>
      </trkpt>
      <trkpt lat="45.56267" lon="4.74423">
        <ele>341</ele>
        <time>2015-05-27T13:02:24Z</time>
      </trkpt>
      <trkpt lat="45.56261" lon="4.74425">
        <ele>342</ele>
        <time>2015-05-27T13:02:26Z</time>
      </trkpt>
      <trkpt lat="45.56244" lon="4.74431">
        <ele>347</ele>
        <time>2015-05-27T13:02:33Z</time>
      </trkpt>
      <trkpt lat="45.56236" lon="4.74433">
        <ele>349</ele>
        <time>2015-05-27T13:02:36Z</time>
      </trkpt>
      <trkpt lat="45.56218" lon="4.74441">
        <ele>350</ele>
        <time>2015-05-27T13:02:45Z</time>
      </trkpt>
      <trkpt lat="45.56216" lon="4.74442">
        <ele>350</ele>
        <time>2015-05-27T13:02:46Z</time>
      </trkpt>
      <trkpt lat="45.56206" lon="4.74445">
        <ele>348</ele>
        <time>2015-05-27T13:02:51Z</time>
      </trkpt>
      <trkpt lat="45.56194" lon="4.74455">
        <ele>348</ele>
        <time>2015-05-27T13:02:59Z</time>
      </trkpt>
      <trkpt lat="45.5619" lon="4.74459">
        <ele>348</ele>
        <time>2015-05-27T13:03:01Z</time>
      </trkpt>
      <trkpt lat="45.56178" lon="4.74466">
        <ele>348</ele>
        <time>2015-05-27T13:03:06Z</time>
      </trkpt>
      <trkpt lat="45.56166" lon="4.74472">
        <ele>351</ele>
        <time>2015-05-27T13:03:11Z</time>
      </trkpt>
      <trkpt lat="45.56154" lon="4.74479">
        <ele>349</ele>
        <time>2015-05-27T13:03:16Z</time>
      </trkpt>
      <trkpt lat="45.56143" lon="4.74486">
        <ele>351</ele>
        <time>2015-05-27T13:03:21Z</time>
      </trkpt>
      <trkpt lat="45.5613" lon="4.74493">
        <ele>347</ele>
        <time>2015-05-27T13:03:26Z</time>
      </trkpt>
      <trkpt lat="45.56117" lon="4.74498">
        <ele>346</ele>
        <time>2015-05-27T13:03:31Z</time>
      </trkpt>
      <trkpt lat="45.56101" lon="4.74507">
        <ele>349</ele>
        <time>2015-05-27T13:03:39Z</time>
      </trkpt>
      <trkpt lat="45.56097" lon="4.7451">
        <ele>350</ele>
        <time>2015-05-27T13:03:41Z</time>
      </trkpt>
      <trkpt lat="45.56088" lon="4.74523">
        <ele>350</ele>
        <time>2015-05-27T13:03:46Z</time>
      </trkpt>
      <trkpt lat="45.56079" lon="4.74535">
        <ele>351</ele>
        <time>2015-05-27T13:03:51Z</time>
      </trkpt>
      <trkpt lat="45.56068" lon="4.74546">
        <ele>354</ele>
        <time>2015-05-27T13:03:56Z</time>
      </trkpt>
      <trkpt lat="45.56062" lon="4.74559">
        <ele>354</ele>
        <time>2015-05-27T13:04:01Z</time>
      </trkpt>
      <trkpt lat="45.56056" lon="4.74574">
        <ele>353</ele>
        <time>2015-05-27T13:04:06Z</time>
      </trkpt>
      <trkpt lat="45.56047" lon="4.74586">
        <ele>354</ele>
        <time>2015-05-27T13:04:11Z</time>
      </trkpt>
      <trkpt lat="45.56027" lon="4.7461">
        <ele>358</ele>
        <time>2015-05-27T13:04:20Z</time>
      </trkpt>
      <trkpt lat="45.56017" lon="4.74628">
        <ele>356</ele>
        <time>2015-05-27T13:04:25Z</time>
      </trkpt>
      <trkpt lat="45.56014" lon="4.74631">
        <ele>357</ele>
        <time>2015-05-27T13:04:26Z</time>
      </trkpt>
      <trkpt lat="45.56002" lon="4.74651">
        <ele>356</ele>
        <time>2015-05-27T13:04:31Z</time>
      </trkpt>
      <trkpt lat="45.55996" lon="4.74679">
        <ele>355</ele>
        <time>2015-05-27T13:04:36Z</time>
      </trkpt>
      <trkpt lat="45.55986" lon="4.74709">
        <ele>354</ele>
        <time>2015-05-27T13:04:41Z</time>
      </trkpt>
      <trkpt lat="45.55975" lon="4.74694">
        <ele>356</ele>
        <time>2015-05-27T13:04:46Z</time>
      </trkpt>
      <trkpt lat="45.5597" lon="4.74677">
        <ele>357</ele>
        <time>2015-05-27T13:04:51Z</time>
      </trkpt>
      <trkpt lat="45.55967" lon="4.74662">
        <ele>359</ele>
        <time>2015-05-27T13:04:56Z</time>
      </trkpt>
      <trkpt lat="45.55962" lon="4.74643">
        <ele>359</ele>
        <time>2015-05-27T13:05:01Z</time>
      </trkpt>
      <trkpt lat="45.55962" lon="4.74623">
        <ele>359</ele>
        <time>2015-05-27T13:05:06Z</time>
      </trkpt>
      <trkpt lat="45.55957" lon="4.74601">
        <ele>361</ele>
        <time>2015-05-27T13:05:12Z</time>
      </trkpt>
      <trkpt lat="45.55952" lon="4.74583">
        <ele>361</ele>
        <time>2015-05-27T13:05:16Z</time>
      </trkpt>
      <trkpt lat="45.55949" lon="4.74563">
        <ele>361</ele>
        <time>2015-05-27T13:05:21Z</time>
      </trkpt>
      <trkpt lat="45.55947" lon="4.74545">
        <ele>361</ele>
        <time>2015-05-27T13:05:26Z</time>
      </trkpt>
      <trkpt lat="45.55945" lon="4.74528">
        <ele>363</ele>
        <time>2015-05-27T13:05:31Z</time>
      </trkpt>
      <trkpt lat="45.55941" lon="4.74505">
        <ele>362</ele>
        <time>2015-05-27T13:05:38Z</time>
      </trkpt>
      <trkpt lat="45.55938" lon="4.74495">
        <ele>362</ele>
        <time>2015-05-27T13:05:41Z</time>
      </trkpt>
      <trkpt lat="45.55936" lon="4.74479">
        <ele>363</ele>
        <time>2015-05-27T13:05:46Z</time>
      </trkpt>
      <trkpt lat="45.55933" lon="4.74464">
        <ele>365</ele>
        <time>2015-05-27T13:05:51Z</time>
      </trkpt>
      <trkpt lat="45.5593" lon="4.74448">
        <ele>365</ele>
        <time>2015-05-27T13:05:56Z</time>
      </trkpt>
      <trkpt lat="45.55922" lon="4.74428">
        <ele>367</ele>
        <time>2015-05-27T13:06:03Z</time>
      </trkpt>
      <trkpt lat="45.55917" lon="4.74405">
        <ele>368</ele>
        <time>2015-05-27T13:06:10Z</time>
      </trkpt>
      <trkpt lat="45.55914" lon="4.74396">
        <ele>370</ele>
        <time>2015-05-27T13:06:13Z</time>
      </trkpt>
      <trkpt lat="45.55912" lon="4.74387">
        <ele>371</ele>
        <time>2015-05-27T13:06:16Z</time>
      </trkpt>
      <trkpt lat="45.55909" lon="4.74372">
        <ele>372</ele>
        <time>2015-05-27T13:06:21Z</time>
      </trkpt>
      <trkpt lat="45.55906" lon="4.74356">
        <ele>373</ele>
        <time>2015-05-27T13:06:26Z</time>
      </trkpt>
      <trkpt lat="45.55903" lon="4.74338">
        <ele>373</ele>
        <time>2015-05-27T13:06:31Z</time>
      </trkpt>
      <trkpt lat="45.55901" lon="4.74323">
        <ele>373</ele>
        <time>2015-05-27T13:06:36Z</time>
      </trkpt>
      <trkpt lat="45.55896" lon="4.74296">
        <ele>372</ele>
        <time>2015-05-27T13:06:45Z</time>
      </trkpt>
      <trkpt lat="45.55894" lon="4.74283">
        <ele>372</ele>
        <time>2015-05-27T13:06:49Z</time>
      </trkpt>
      <trkpt lat="45.55892" lon="4.74277">
        <ele>373</ele>
        <time>2015-05-27T13:06:51Z</time>
      </trkpt>
      <trkpt lat="45.55887" lon="4.74262">
        <ele>374</ele>
        <time>2015-05-27T13:06:56Z</time>
      </trkpt>
      <trkpt lat="45.55882" lon="4.74247">
        <ele>374</ele>
        <time>2015-05-27T13:07:01Z</time>
      </trkpt>
      <trkpt lat="45.55877" lon="4.74232">
        <ele>374</ele>
        <time>2015-05-27T13:07:06Z</time>
      </trkpt>
      <trkpt lat="45.55871" lon="4.74216">
        <ele>375</ele>
        <time>2015-05-27T13:07:11Z</time>
      </trkpt>
      <trkpt lat="45.55866" lon="4.74199">
        <ele>375</ele>
        <time>2015-05-27T13:07:16Z</time>
      </trkpt>
      <trkpt lat="45.5586" lon="4.74183">
        <ele>376</ele>
        <time>2015-05-27T13:07:21Z</time>
      </trkpt>
      <trkpt lat="45.55853" lon="4.74165">
        <ele>375</ele>
        <time>2015-05-27T13:07:26Z</time>
      </trkpt>
      <trkpt lat="45.55846" lon="4.74148">
        <ele>375</ele>
        <time>2015-05-27T13:07:31Z</time>
      </trkpt>
      <trkpt lat="45.5584" lon="4.74129">
        <ele>373</ele>
        <time>2015-05-27T13:07:36Z</time>
      </trkpt>
      <trkpt lat="45.55834" lon="4.74111">
        <ele>374</ele>
        <time>2015-05-27T13:07:41Z</time>
      </trkpt>
      <trkpt lat="45.55824" lon="4.74098">
        <ele>374</ele>
        <time>2015-05-27T13:07:46Z</time>
      </trkpt>
      <trkpt lat="45.55812" lon="4.74108">
        <ele>374</ele>
        <time>2015-05-27T13:07:51Z</time>
      </trkpt>
      <trkpt lat="45.558" lon="4.74125">
        <ele>375</ele>
        <time>2015-05-27T13:07:58Z</time>
      </trkpt>
      <trkpt lat="45.55795" lon="4.74133">
        <ele>374</ele>
        <time>2015-05-27T13:08:01Z</time>
      </trkpt>
      <trkpt lat="45.55787" lon="4.74144">
        <ele>373</ele>
        <time>2015-05-27T13:08:06Z</time>
      </trkpt>
      <trkpt lat="45.5578" lon="4.74153">
        <ele>375</ele>
        <time>2015-05-27T13:08:11Z</time>
      </trkpt>
      <trkpt lat="45.55771" lon="4.74161">
        <ele>374</ele>
        <time>2015-05-27T13:08:16Z</time>
      </trkpt>
      <trkpt lat="45.55762" lon="4.74171">
        <ele>373</ele>
        <time>2015-05-27T13:08:21Z</time>
      </trkpt>
      <trkpt lat="45.55754" lon="4.74178">
        <ele>377</ele>
        <time>2015-05-27T13:08:26Z</time>
      </trkpt>
      <trkpt lat="45.55744" lon="4.74188">
        <ele>375</ele>
        <time>2015-05-27T13:08:31Z</time>
      </trkpt>
      <trkpt lat="45.55737" lon="4.74197">
        <ele>374</ele>
        <time>2015-05-27T13:08:36Z</time>
      </trkpt>
      <trkpt lat="45.55729" lon="4.74207">
        <ele>375</ele>
        <time>2015-05-27T13:08:41Z</time>
      </trkpt>
      <trkpt lat="45.55719" lon="4.74215">
        <ele>377</ele>
        <time>2015-05-27T13:08:46Z</time>
      </trkpt>
      <trkpt lat="45.55712" lon="4.74226">
        <ele>378</ele>
        <time>2015-05-27T13:08:51Z</time>
      </trkpt>
      <trkpt lat="45.55702" lon="4.74241">
        <ele>381</ele>
        <time>2015-05-27T13:08:58Z</time>
      </trkpt>
      <trkpt lat="45.55697" lon="4.74246">
        <ele>383</ele>
        <time>2015-05-27T13:09:01Z</time>
      </trkpt>
      <trkpt lat="45.55687" lon="4.74256">
        <ele>383</ele>
        <time>2015-05-27T13:09:07Z</time>
      </trkpt>
      <trkpt lat="45.55676" lon="4.7426">
        <ele>386</ele>
        <time>2015-05-27T13:09:13Z</time>
      </trkpt>
      <trkpt lat="45.55671" lon="4.74264">
        <ele>387</ele>
        <time>2015-05-27T13:09:16Z</time>
      </trkpt>
      <trkpt lat="45.55661" lon="4.74273">
        <ele>390</ele>
        <time>2015-05-27T13:09:23Z</time>
      </trkpt>
      <trkpt lat="45.55655" lon="4.74276">
        <ele>394</ele>
        <time>2015-05-27T13:09:26Z</time>
      </trkpt>
      <trkpt lat="45.55644" lon="4.74284">
        <ele>396</ele>
        <time>2015-05-27T13:09:33Z</time>
      </trkpt>
      <trkpt lat="45.5564" lon="4.74287">
        <ele>394</ele>
        <time>2015-05-27T13:09:36Z</time>
      </trkpt>
      <trkpt lat="45.55631" lon="4.74291">
        <ele>395</ele>
        <time>2015-05-27T13:09:41Z</time>
      </trkpt>
      <trkpt lat="45.55619" lon="4.74294">
        <ele>396</ele>
        <time>2015-05-27T13:09:47Z</time>
      </trkpt>
      <trkpt lat="45.55612" lon="4.74299">
        <ele>395</ele>
        <time>2015-05-27T13:09:52Z</time>
      </trkpt>
      <trkpt lat="45.55605" lon="4.74302">
        <ele>393</ele>
        <time>2015-05-27T13:09:56Z</time>
      </trkpt>
      <trkpt lat="45.55589" lon="4.74308">
        <ele>397</ele>
        <time>2015-05-27T13:10:04Z</time>
      </trkpt>
      <trkpt lat="45.55585" lon="4.74309">
        <ele>400</ele>
        <time>2015-05-27T13:10:06Z</time>
      </trkpt>
      <trkpt lat="45.55569" lon="4.74318">
        <ele>399</ele>
        <time>2015-05-27T13:10:15Z</time>
      </trkpt>
      <trkpt lat="45.55567" lon="4.74319">
        <ele>398</ele>
        <time>2015-05-27T13:10:16Z</time>
      </trkpt>
      <trkpt lat="45.55548" lon="4.74328">
        <ele>398</ele>
        <time>2015-05-27T13:10:24Z</time>
      </trkpt>
      <trkpt lat="45.55542" lon="4.74329">
        <ele>398</ele>
        <time>2015-05-27T13:10:26Z</time>
      </trkpt>
      <trkpt lat="45.5553" lon="4.74334">
        <ele>400</ele>
        <time>2015-05-27T13:10:31Z</time>
      </trkpt>
      <trkpt lat="45.55517" lon="4.74339">
        <ele>398</ele>
        <time>2015-05-27T13:10:36Z</time>
      </trkpt>
      <trkpt lat="45.555" lon="4.74343">
        <ele>396</ele>
        <time>2015-05-27T13:10:41Z</time>
      </trkpt>
      <trkpt lat="45.55478" lon="4.74345">
        <ele>396</ele>
        <time>2015-05-27T13:10:46Z</time>
      </trkpt>
      <trkpt lat="45.55452" lon="4.7435">
        <ele>397</ele>
        <time>2015-05-27T13:10:54Z</time>
      </trkpt>
      <trkpt lat="45.55446" lon="4.74352">
        <ele>396</ele>
        <time>2015-05-27T13:10:56Z</time>
      </trkpt>
      <trkpt lat="45.5543" lon="4.74353">
        <ele>395</ele>
        <time>2015-05-27T13:11:01Z</time>
      </trkpt>
      <trkpt lat="45.55413" lon="4.74353">
        <ele>397</ele>
        <time>2015-05-27T13:11:06Z</time>
      </trkpt>
      <trkpt lat="45.55386" lon="4.74355">
        <ele>396</ele>
        <time>2015-05-27T13:11:14Z</time>
      </trkpt>
      <trkpt lat="45.55376" lon="4.74354">
        <ele>396</ele>
        <time>2015-05-27T13:11:17Z</time>
      </trkpt>
      <trkpt lat="45.55363" lon="4.74356">
        <ele>395</ele>
        <time>2015-05-27T13:11:22Z</time>
      </trkpt>
      <trkpt lat="45.5535" lon="4.74358">
        <ele>394</ele>
        <time>2015-05-27T13:11:28Z</time>
      </trkpt>
      <trkpt lat="45.55339" lon="4.74359">
        <ele>396</ele>
        <time>2015-05-27T13:11:32Z</time>
      </trkpt>
      <trkpt lat="45.5533" lon="4.74362">
        <ele>397</ele>
        <time>2015-05-27T13:11:36Z</time>
      </trkpt>
      <trkpt lat="45.55318" lon="4.74366">
        <ele>397</ele>
        <time>2015-05-27T13:11:41Z</time>
      </trkpt>
      <trkpt lat="45.55303" lon="4.74368">
        <ele>400</ele>
        <time>2015-05-27T13:11:46Z</time>
      </trkpt>
      <trkpt lat="45.55294" lon="4.74374">
        <ele>401</ele>
        <time>2015-05-27T13:11:51Z</time>
      </trkpt>
      <trkpt lat="45.55284" lon="4.7438">
        <ele>403</ele>
        <time>2015-05-27T13:11:56Z</time>
      </trkpt>
      <trkpt lat="45.55264" lon="4.7439">
        <ele>406</ele>
        <time>2015-05-27T13:12:05Z</time>
      </trkpt>
      <trkpt lat="45.55262" lon="4.74392">
        <ele>404</ele>
        <time>2015-05-27T13:12:06Z</time>
      </trkpt>
      <trkpt lat="45.5525" lon="4.74395">
        <ele>410</ele>
        <time>2015-05-27T13:12:11Z</time>
      </trkpt>
      <trkpt lat="45.55234" lon="4.74404">
        <ele>410</ele>
        <time>2015-05-27T13:12:19Z</time>
      </trkpt>
      <trkpt lat="45.5523" lon="4.74402">
        <ele>410</ele>
        <time>2015-05-27T13:12:22Z</time>
      </trkpt>
      <trkpt lat="45.55218" lon="4.744">
        <ele>411</ele>
        <time>2015-05-27T13:12:30Z</time>
      </trkpt>
      <trkpt lat="45.55216" lon="4.744">
        <ele>412</ele>
        <time>2015-05-27T13:12:31Z</time>
      </trkpt>
      <trkpt lat="45.55205" lon="4.74395">
        <ele>415</ele>
        <time>2015-05-27T13:12:38Z</time>
      </trkpt>
      <trkpt lat="45.55198" lon="4.74399">
        <ele>413</ele>
        <time>2015-05-27T13:12:43Z</time>
      </trkpt>
      <trkpt lat="45.55193" lon="4.74401">
        <ele>413</ele>
        <time>2015-05-27T13:12:46Z</time>
      </trkpt>
      <trkpt lat="45.55182" lon="4.74399">
        <ele>414</ele>
        <time>2015-05-27T13:12:54Z</time>
      </trkpt>
      <trkpt lat="45.5518" lon="4.74399">
        <ele>414</ele>
        <time>2015-05-27T13:12:56Z</time>
      </trkpt>
      <trkpt lat="45.55169" lon="4.74398">
        <ele>417</ele>
        <time>2015-05-27T13:13:01Z</time>
      </trkpt>
      <trkpt lat="45.55157" lon="4.74393">
        <ele>416</ele>
        <time>2015-05-27T13:13:09Z</time>
      </trkpt>
      <trkpt lat="45.55151" lon="4.74392">
        <ele>413</ele>
        <time>2015-05-27T13:13:15Z</time>
      </trkpt>
      <trkpt lat="45.55149" lon="4.74391">
        <ele>414</ele>
        <time>2015-05-27T13:13:16Z</time>
      </trkpt>
      <trkpt lat="45.55137" lon="4.74386">
        <ele>413</ele>
        <time>2015-05-27T13:13:23Z</time>
      </trkpt>
      <trkpt lat="45.55136" lon="4.74387">
        <ele>415</ele>
        <time>2015-05-27T13:13:26Z</time>
      </trkpt>
      <trkpt lat="45.55128" lon="4.74389">
        <ele>416</ele>
        <time>2015-05-27T13:13:32Z</time>
      </trkpt>
      <trkpt lat="45.55121" lon="4.74386">
        <ele>418</ele>
        <time>2015-05-27T13:13:38Z</time>
      </trkpt>
      <trkpt lat="45.5512" lon="4.74386">
        <ele>417</ele>
        <time>2015-05-27T13:13:41Z</time>
      </trkpt>
      <trkpt lat="45.55113" lon="4.74384">
        <ele>415</ele>
        <time>2015-05-27T13:13:46Z</time>
      </trkpt>
      <trkpt lat="45.55101" lon="4.7438">
        <ele>415</ele>
        <time>2015-05-27T13:13:53Z</time>
      </trkpt>
      <trkpt lat="45.55098" lon="4.7438">
        <ele>414</ele>
        <time>2015-05-27T13:13:56Z</time>
      </trkpt>
      <trkpt lat="45.5509" lon="4.74382">
        <ele>416</ele>
        <time>2015-05-27T13:14:03Z</time>
      </trkpt>
      <trkpt lat="45.55087" lon="4.74384">
        <ele>417</ele>
        <time>2015-05-27T13:14:07Z</time>
      </trkpt>
      <trkpt lat="45.55081" lon="4.74381">
        <ele>418</ele>
        <time>2015-05-27T13:14:11Z</time>
      </trkpt>
      <trkpt lat="45.55075" lon="4.74381">
        <ele>420</ele>
        <time>2015-05-27T13:14:16Z</time>
      </trkpt>
      <trkpt lat="45.55069" lon="4.7438">
        <ele>421</ele>
        <time>2015-05-27T13:14:21Z</time>
      </trkpt>
      <trkpt lat="45.5506" lon="4.74377">
        <ele>422</ele>
        <time>2015-05-27T13:14:30Z</time>
      </trkpt>
      <trkpt lat="45.55055" lon="4.74376">
        <ele>421</ele>
        <time>2015-05-27T13:14:32Z</time>
      </trkpt>
      <trkpt lat="45.55049" lon="4.7437">
        <ele>422</ele>
        <time>2015-05-27T13:14:36Z</time>
      </trkpt>
      <trkpt lat="45.55042" lon="4.74368">
        <ele>427</ele>
        <time>2015-05-27T13:14:45Z</time>
      </trkpt>
      <trkpt lat="45.55041" lon="4.7437">
        <ele>427</ele>
        <time>2015-05-27T13:14:46Z</time>
      </trkpt>
      <trkpt lat="45.55031" lon="4.7437">
        <ele>429</ele>
        <time>2015-05-27T13:14:55Z</time>
      </trkpt>
      <trkpt lat="45.55031" lon="4.74371">
        <ele>429</ele>
        <time>2015-05-27T13:14:56Z</time>
      </trkpt>
      <trkpt lat="45.55027" lon="4.7437">
        <ele>432</ele>
        <time>2015-05-27T13:15:01Z</time>
      </trkpt>
      <trkpt lat="45.5502" lon="4.74369">
        <ele>434</ele>
        <time>2015-05-27T13:15:08Z</time>
      </trkpt>
      <trkpt lat="45.55018" lon="4.74367">
        <ele>438</ele>
        <time>2015-05-27T13:15:13Z</time>
      </trkpt>
      <trkpt lat="45.55007" lon="4.74365">
        <ele>443</ele>
        <time>2015-05-27T13:15:20Z</time>
      </trkpt>
      <trkpt lat="45.55002" lon="4.74364">
        <ele>444</ele>
        <time>2015-05-27T13:15:25Z</time>
      </trkpt>
      <trkpt lat="45.55" lon="4.74365">
        <ele>443</ele>
        <time>2015-05-27T13:15:26Z</time>
      </trkpt>
      <trkpt lat="45.54992" lon="4.74362">
        <ele>444</ele>
        <time>2015-05-27T13:15:32Z</time>
      </trkpt>
      <trkpt lat="45.54987" lon="4.74359">
        <ele>447</ele>
        <time>2015-05-27T13:15:36Z</time>
      </trkpt>
      <trkpt lat="45.54983" lon="4.7436">
        <ele>451</ele>
        <time>2015-05-27T13:15:42Z</time>
      </trkpt>
      <trkpt lat="45.54981" lon="4.7436">
        <ele>453</ele>
        <time>2015-05-27T13:15:47Z</time>
      </trkpt>
      <trkpt lat="45.54981" lon="4.74361">
        <ele>454</ele>
        <time>2015-05-27T13:15:50Z</time>
      </trkpt>
      <trkpt lat="45.5498" lon="4.74361">
        <ele>455</ele>
        <time>2015-05-27T13:15:52Z</time>
      </trkpt>
      <trkpt lat="45.54979" lon="4.74363">
        <ele>453</ele>
        <time>2015-05-27T13:15:59Z</time>
      </trkpt>
      <trkpt lat="45.54978" lon="4.74363">
        <ele>454</ele>
        <time>2015-05-27T13:16:00Z</time>
      </trkpt>
      <trkpt lat="45.5497" lon="4.74369">
        <ele>452</ele>
        <time>2015-05-27T13:16:06Z</time>
      </trkpt>
      <trkpt lat="45.54963" lon="4.74368">
        <ele>454</ele>
        <time>2015-05-27T13:16:10Z</time>
      </trkpt>
      <trkpt lat="45.54958" lon="4.74369">
        <ele>458</ele>
        <time>2015-05-27T13:16:15Z</time>
      </trkpt>
      <trkpt lat="45.54936" lon="4.74374">
        <ele>457</ele>
        <time>2015-05-27T13:16:30Z</time>
      </trkpt>
      <trkpt lat="45.54928" lon="4.74377">
        <ele>454</ele>
        <time>2015-05-27T13:16:35Z</time>
      </trkpt>
      <trkpt lat="45.54926" lon="4.74378">
        <ele>452</ele>
        <time>2015-05-27T13:16:37Z</time>
      </trkpt>
      <trkpt lat="45.54923" lon="4.74382">
        <ele>452</ele>
        <time>2015-05-27T13:16:41Z</time>
      </trkpt>
      <trkpt lat="45.54915" lon="4.74383">
        <ele>453</ele>
        <time>2015-05-27T13:16:47Z</time>
      </trkpt>
      <trkpt lat="45.5491" lon="4.74381">
        <ele>454</ele>
        <time>2015-05-27T13:16:51Z</time>
      </trkpt>
      <trkpt lat="45.54904" lon="4.74378">
        <ele>454</ele>
        <time>2015-05-27T13:16:56Z</time>
      </trkpt>
      <trkpt lat="45.54902" lon="4.74378">
        <ele>454</ele>
        <time>2015-05-27T13:17:01Z</time>
      </trkpt>
      <trkpt lat="45.549" lon="4.74377">
        <ele>455</ele>
        <time>2015-05-27T13:17:06Z</time>
      </trkpt>
      <trkpt lat="45.54897" lon="4.74376">
        <ele>457</ele>
        <time>2015-05-27T13:17:11Z</time>
      </trkpt>
      <trkpt lat="45.54896" lon="4.74372">
        <ele>457</ele>
        <time>2015-05-27T13:17:16Z</time>
      </trkpt>
      <trkpt lat="45.54892" lon="4.74371">
        <ele>457</ele>
        <time>2015-05-27T13:17:21Z</time>
      </trkpt>
      <trkpt lat="45.54889" lon="4.74374">
        <ele>458</ele>
        <time>2015-05-27T13:17:26Z</time>
      </trkpt>
      <trkpt lat="45.54888" lon="4.74372">
        <ele>458</ele>
        <time>2015-05-27T13:17:31Z</time>
      </trkpt>
      <trkpt lat="45.54884" lon="4.74373">
        <ele>460</ele>
        <time>2015-05-27T13:17:38Z</time>
      </trkpt>
      <trkpt lat="45.54878" lon="4.74371">
        <ele>461</ele>
        <time>2015-05-27T13:17:43Z</time>
      </trkpt>
      <trkpt lat="45.54874" lon="4.7437">
        <ele>463</ele>
        <time>2015-05-27T13:17:47Z</time>
      </trkpt>
      <trkpt lat="45.54872" lon="4.7437">
        <ele>464</ele>
        <time>2015-05-27T13:17:49Z</time>
      </trkpt>
      <trkpt lat="45.54868" lon="4.74371">
        <ele>467</ele>
        <time>2015-05-27T13:17:54Z</time>
      </trkpt>
      <trkpt lat="45.5486" lon="4.74369">
        <ele>464</ele>
        <time>2015-05-27T13:17:59Z</time>
      </trkpt>
      <trkpt lat="45.54856" lon="4.74371">
        <ele>467</ele>
        <time>2015-05-27T13:18:04Z</time>
      </trkpt>
      <trkpt lat="45.54848" lon="4.7437">
        <ele>471</ele>
        <time>2015-05-27T13:18:09Z</time>
      </trkpt>
      <trkpt lat="45.54839" lon="4.74369">
        <ele>470</ele>
        <time>2015-05-27T13:18:15Z</time>
      </trkpt>
      <trkpt lat="45.54838" lon="4.74373">
        <ele>470</ele>
        <time>2015-05-27T13:18:19Z</time>
      </trkpt>
      <trkpt lat="45.54825" lon="4.74371">
        <ele>474</ele>
        <time>2015-05-27T13:18:25Z</time>
      </trkpt>
      <trkpt lat="45.54816" lon="4.74371">
        <ele>474</ele>
        <time>2015-05-27T13:18:32Z</time>
      </trkpt>
      <trkpt lat="45.54811" lon="4.74368">
        <ele>477</ele>
        <time>2015-05-27T13:18:34Z</time>
      </trkpt>
      <trkpt lat="45.54798" lon="4.74372">
        <ele>481</ele>
        <time>2015-05-27T13:18:42Z</time>
      </trkpt>
      <trkpt lat="45.54792" lon="4.74372">
        <ele>484</ele>
        <time>2015-05-27T13:18:45Z</time>
      </trkpt>
      <trkpt lat="45.54785" lon="4.74372">
        <ele>483</ele>
        <time>2015-05-27T13:18:49Z</time>
      </trkpt>
      <trkpt lat="45.54772" lon="4.74374">
        <ele>482</ele>
        <time>2015-05-27T13:18:56Z</time>
      </trkpt>
      <trkpt lat="45.54767" lon="4.74375">
        <ele>483</ele>
        <time>2015-05-27T13:18:59Z</time>
      </trkpt>
      <trkpt lat="45.54753" lon="4.74375">
        <ele>480</ele>
        <time>2015-05-27T13:19:05Z</time>
      </trkpt>
      <trkpt lat="45.54742" lon="4.74377">
        <ele>479</ele>
        <time>2015-05-27T13:19:09Z</time>
      </trkpt>
      <trkpt lat="45.54726" lon="4.74381">
        <ele>484</ele>
        <time>2015-05-27T13:19:16Z</time>
      </trkpt>
      <trkpt lat="45.5472" lon="4.74382">
        <ele>483</ele>
        <time>2015-05-27T13:19:20Z</time>
      </trkpt>
      <trkpt lat="45.54715" lon="4.74386">
        <ele>478</ele>
        <time>2015-05-27T13:19:25Z</time>
      </trkpt>
      <trkpt lat="45.54716" lon="4.74389">
        <ele>478</ele>
        <time>2015-05-27T13:19:30Z</time>
      </trkpt>
      <trkpt lat="45.54716" lon="4.7439">
        <ele>478</ele>
        <time>2015-05-27T13:19:34Z</time>
      </trkpt>
      <trkpt lat="45.54715" lon="4.7439">
        <ele>478</ele>
        <time>2015-05-27T13:19:37Z</time>
      </trkpt>
      <trkpt lat="45.54712" lon="4.74391">
        <ele>478</ele>
        <time>2015-05-27T13:19:40Z</time>
      </trkpt>
      <trkpt lat="45.54714" lon="4.74392">
        <ele>475</ele>
        <time>2015-05-27T13:19:45Z</time>
      </trkpt>
      <trkpt lat="45.54715" lon="4.74392">
        <ele>475</ele>
        <time>2015-05-27T13:19:48Z</time>
      </trkpt>
      <trkpt lat="45.54714" lon="4.74393">
        <ele>477</ele>
        <time>2015-05-27T13:19:51Z</time>
      </trkpt>
    </trkseg>
  </trk>
  <trk>
    <name><![CDATA[Sequence 3]]></name>
    <trkseg>
      <trkpt lat="45.54709" lon="4.74391">
        <ele>478</ele>
        <time>2015-05-27T13:22:21Z</time>
      </trkpt>
      <trkpt lat="45.54709" lon="4.74391">
        <ele>478</ele>
        <time>2015-05-27T13:22:24Z</time>
      </trkpt>
      <trkpt lat="45.54708" lon="4.74391">
        <ele>478</ele>
        <time>2015-05-27T13:22:27Z</time>
      </trkpt>
      <trkpt lat="45.54707" lon="4.74392">
        <ele>478</ele>
        <time>2015-05-27T13:22:33Z</time>
      </trkpt>
      <trkpt lat="45.54707" lon="4.74392">
        <ele>479</ele>
        <time>2015-05-27T13:22:35Z</time>
      </trkpt>
      <trkpt lat="45.54707" lon="4.74392">
        <ele>479</ele>
        <time>2015-05-27T13:22:38Z</time>
      </trkpt>
      <trkpt lat="45.54707" lon="4.74392">
        <ele>479</ele>
        <time>2015-05-27T13:22:41Z</time>
      </trkpt>
      <trkpt lat="45.54707" lon="4.74392">
        <ele>479</ele>
        <time>2015-05-27T13:22:46Z</time>
      </trkpt>
      <trkpt lat="45.54707" lon="4.74392">
        <ele>479</ele>
        <time>2015-05-27T13:22:47Z</time>
      </trkpt>
      <trkpt lat="45.54706" lon="4.74392">
        <ele>479</ele>
        <time>2015-05-27T13:22:50Z</time>
      </trkpt>
      <trkpt lat="45.54706" lon="4.74392">
        <ele>479</ele>
        <time>2015-05-27T13:22:53Z</time>
      </trkpt>
      <trkpt lat="45.54707" lon="4.74392">
        <ele>476</ele>
        <time>2015-05-27T13:22:56Z</time>
      </trkpt>
      <trkpt lat="45.54708" lon="4.74393">
        <ele>477</ele>
        <time>2015-05-27T13:23:01Z</time>
      </trkpt>
      <trkpt lat="45.54708" lon="4.74393">
        <ele>477</ele>
        <time>2015-05-27T13:23:04Z</time>
      </trkpt>
      <trkpt lat="45.54708" lon="4.74392">
        <ele>477</ele>
        <time>2015-05-27T13:23:07Z</time>
      </trkpt>
      <trkpt lat="45.54707" lon="4.74392">
        <ele>477</ele>
        <time>2015-05-27T13:23:11Z</time>
      </trkpt>
      <trkpt lat="45.54707" lon="4.74392">
        <ele>477</ele>
        <time>2015-05-27T13:23:13Z</time>
      </trkpt>
      <trkpt lat="45.54707" lon="4.74392">
        <ele>477</ele>
        <time>2015-05-27T13:23:16Z</time>
      </trkpt>
      <trkpt lat="45.54707" lon="4.74392">
        <ele>477</ele>
        <time>2015-05-27T13:23:19Z</time>
      </trkpt>
      <trkpt lat="45.54707" lon="4.74392">
        <ele>477</ele>
        <time>2015-05-27T13:23:22Z</time>
      </trkpt>
      <trkpt lat="45.54707" lon="4.74392">
        <ele>477</ele>
        <time>2015-05-27T13:23:25Z</time>
      </trkpt>
      <trkpt lat="45.54707" lon="4.74392">
        <ele>477</ele>
        <time>2015-05-27T13:23:28Z</time>
      </trkpt>
      <trkpt lat="45.54707" lon="4.74391">
        <ele>478</ele>
        <time>2015-05-27T13:23:31Z</time>
      </trkpt>
      <trkpt lat="45.54708" lon="4.74392">
        <ele>477</ele>
        <time>2015-05-27T13:23:34Z</time>
      </trkpt>
      <trkpt lat="45.54706" lon="4.74394">
        <ele>477</ele>
        <time>2015-05-27T13:23:38Z</time>
      </trkpt>
      <trkpt lat="45.54706" lon="4.74405">
        <ele>480</ele>
        <time>2015-05-27T13:23:42Z</time>
      </trkpt>
      <trkpt lat="45.54707" lon="4.74412">
        <ele>482</ele>
        <time>2015-05-27T13:23:47Z</time>
      </trkpt>
      <trkpt lat="45.54707" lon="4.74414">
        <ele>482</ele>
        <time>2015-05-27T13:23:52Z</time>
      </trkpt>
      <trkpt lat="45.54708" lon="4.74415">
        <ele>480</ele>
        <time>2015-05-27T13:23:55Z</time>
      </trkpt>
      <trkpt lat="45.54709" lon="4.74416">
        <ele>480</ele>
        <time>2015-05-27T13:23:59Z</time>
      </trkpt>
      <trkpt lat="45.54709" lon="4.74416">
        <ele>481</ele>
        <time>2015-05-27T13:24:01Z</time>
      </trkpt>
      <trkpt lat="45.5471" lon="4.74417">
        <ele>481</ele>
        <time>2015-05-27T13:24:04Z</time>
      </trkpt>
      <trkpt lat="45.5471" lon="4.74417">
        <ele>481</ele>
        <time>2015-05-27T13:24:09Z</time>
      </trkpt>
      <trkpt lat="45.5471" lon="4.74417">
        <ele>481</ele>
        <time>2015-05-27T13:24:10Z</time>
      </trkpt>
      <trkpt lat="45.5471" lon="4.74417">
        <ele>480</ele>
        <time>2015-05-27T13:24:13Z</time>
      </trkpt>
      <trkpt lat="45.5471" lon="4.74417">
        <ele>480</ele>
        <time>2015-05-27T13:24:16Z</time>
      </trkpt>
      <trkpt lat="45.5471" lon="4.74417">
        <ele>480</ele>
        <time>2015-05-27T13:24:19Z</time>
      </trkpt>
      <trkpt lat="45.5471" lon="4.74417">
        <ele>480</ele>
        <time>2015-05-27T13:24:22Z</time>
      </trkpt>
      <trkpt lat="45.5471" lon="4.74417">
        <ele>480</ele>
        <time>2015-05-27T13:24:25Z</time>
      </trkpt>
      <trkpt lat="45.5471" lon="4.74417">
        <ele>480</ele>
        <time>2015-05-27T13:24:28Z</time>
      </trkpt>
      <trkpt lat="45.5471" lon="4.74417">
        <ele>480</ele>
        <time>2015-05-27T13:24:31Z</time>
      </trkpt>
      <trkpt lat="45.5471" lon="4.74417">
        <ele>481</ele>
        <time>2015-05-27T13:24:34Z</time>
      </trkpt>
      <trkpt lat="45.5471" lon="4.74417">
        <ele>480</ele>
        <time>2015-05-27T13:24:37Z</time>
      </trkpt>
      <trkpt lat="45.54711" lon="4.74418">
        <ele>480</ele>
        <time>2015-05-27T13:24:42Z</time>
      </trkpt>
      <trkpt lat="45.54711" lon="4.74418">
        <ele>480</ele>
        <time>2015-05-27T13:24:45Z</time>
      </trkpt>
      <trkpt lat="45.54711" lon="4.74418">
        <ele>480</ele>
        <time>2015-05-27T13:24:48Z</time>
      </trkpt>
      <trkpt lat="45.54711" lon="4.74417">
        <ele>480</ele>
        <time>2015-05-27T13:24:50Z</time>
      </trkpt>
      <trkpt lat="45.54711" lon="4.74417">
        <ele>480</ele>
        <time>2015-05-27T13:24:52Z</time>
      </trkpt>
      <trkpt lat="45.54711" lon="4.74419">
        <ele>479</ele>
        <time>2015-05-27T13:24:55Z</time>
      </trkpt>
      <trkpt lat="45.54715" lon="4.74425">
        <ele>480</ele>
        <time>2015-05-27T13:25:00Z</time>
      </trkpt>
      <trkpt lat="45.54714" lon="4.74438">
        <ele>481</ele>
        <time>2015-05-27T13:25:05Z</time>
      </trkpt>
      <trkpt lat="45.54719" lon="4.7446">
        <ele>478</ele>
        <time>2015-05-27T13:25:11Z</time>
      </trkpt>
      <trkpt lat="45.54722" lon="4.74493">
        <ele>476</ele>
        <time>2015-05-27T13:25:17Z</time>
      </trkpt>
      <trkpt lat="45.54726" lon="4.74511">
        <ele>472</ele>
        <time>2015-05-27T13:25:20Z</time>
      </trkpt>
      <trkpt lat="45.54733" lon="4.74539">
        <ele>469</ele>
        <time>2015-05-27T13:25:25Z</time>
      </trkpt>
      <trkpt lat="45.54738" lon="4.7458">
        <ele>467</ele>
        <time>2015-05-27T13:25:32Z</time>
      </trkpt>
      <trkpt lat="45.54743" lon="4.74605">
        <ele>471</ele>
        <time>2015-05-27T13:25:36Z</time>
      </trkpt>
      <trkpt lat="45.54746" lon="4.74634">
        <ele>471</ele>
        <time>2015-05-27T13:25:40Z</time>
      </trkpt>
      <trkpt lat="45.54755" lon="4.74697">
        <ele>466</ele>
        <time>2015-05-27T13:25:49Z</time>
      </trkpt>
      <trkpt lat="45.54756" lon="4.74703">
        <ele>464</ele>
        <time>2015-05-27T13:25:50Z</time>
      </trkpt>
      <trkpt lat="45.54755" lon="4.74735">
        <ele>463</ele>
        <time>2015-05-27T13:25:55Z</time>
      </trkpt>
      <trkpt lat="45.54758" lon="4.74775">
        <ele>462</ele>
        <time>2015-05-27T13:26:01Z</time>
      </trkpt>
      <trkpt lat="45.5476" lon="4.74802">
        <ele>463</ele>
        <time>2015-05-27T13:26:05Z</time>
      </trkpt>
      <trkpt lat="45.54762" lon="4.74832">
        <ele>463</ele>
        <time>2015-05-27T13:26:10Z</time>
      </trkpt>
      <trkpt lat="45.54774" lon="4.74886">
        <ele>462</ele>
        <time>2015-05-27T13:26:18Z</time>
      </trkpt>
      <trkpt lat="45.54789" lon="4.74924">
        <ele>463</ele>
        <time>2015-05-27T13:26:22Z</time>
      </trkpt>
      <trkpt lat="45.54801" lon="4.74953">
        <ele>461</ele>
        <time>2015-05-27T13:26:25Z</time>
      </trkpt>
      <trkpt lat="45.54823" lon="4.75033">
        <ele>460</ele>
        <time>2015-05-27T13:26:32Z</time>
      </trkpt>
      <trkpt lat="45.54829" lon="4.75058">
        <ele>460</ele>
        <time>2015-05-27T13:26:35Z</time>
      </trkpt>
      <trkpt lat="45.54832" lon="4.75105">
        <ele>461</ele>
        <time>2015-05-27T13:26:40Z</time>
      </trkpt>
      <trkpt lat="45.54829" lon="4.75148">
        <ele>459</ele>
        <time>2015-05-27T13:26:46Z</time>
      </trkpt>
      <trkpt lat="45.54829" lon="4.75176">
        <ele>460</ele>
        <time>2015-05-27T13:26:50Z</time>
      </trkpt>
      <trkpt lat="45.54822" lon="4.75228">
        <ele>451</ele>
        <time>2015-05-27T13:26:57Z</time>
      </trkpt>
      <trkpt lat="45.54814" lon="4.75243">
        <ele>451</ele>
        <time>2015-05-27T13:27:00Z</time>
      </trkpt>
      <trkpt lat="45.54829" lon="4.75271">
        <ele>445</ele>
        <time>2015-05-27T13:27:06Z</time>
      </trkpt>
      <trkpt lat="45.54858" lon="4.7531">
        <ele>443</ele>
        <time>2015-05-27T13:27:13Z</time>
      </trkpt>
      <trkpt lat="45.54877" lon="4.75323">
        <ele>432</ele>
        <time>2015-05-27T13:27:19Z</time>
      </trkpt>
      <trkpt lat="45.54881" lon="4.75324">
        <ele>431</ele>
        <time>2015-05-27T13:27:20Z</time>
      </trkpt>
      <trkpt lat="45.54902" lon="4.75326">
        <ele>429</ele>
        <time>2015-05-27T13:27:25Z</time>
      </trkpt>
      <trkpt lat="45.54927" lon="4.75327">
        <ele>427</ele>
        <time>2015-05-27T13:27:30Z</time>
      </trkpt>
      <trkpt lat="45.54954" lon="4.75333">
        <ele>426</ele>
        <time>2015-05-27T13:27:35Z</time>
      </trkpt>
      <trkpt lat="45.54985" lon="4.75345">
        <ele>419</ele>
        <time>2015-05-27T13:27:40Z</time>
      </trkpt>
      <trkpt lat="45.55012" lon="4.75371">
        <ele>417</ele>
        <time>2015-05-27T13:27:45Z</time>
      </trkpt>
      <trkpt lat="45.55033" lon="4.75409">
        <ele>413</ele>
        <time>2015-05-27T13:27:50Z</time>
      </trkpt>
      <trkpt lat="45.55034" lon="4.75438">
        <ele>412</ele>
        <time>2015-05-27T13:27:55Z</time>
      </trkpt>
      <trkpt lat="45.5501" lon="4.75432">
        <ele>411</ele>
        <time>2015-05-27T13:28:00Z</time>
      </trkpt>
      <trkpt lat="45.54982" lon="4.75422">
        <ele>410</ele>
        <time>2015-05-27T13:28:05Z</time>
      </trkpt>
      <trkpt lat="45.54954" lon="4.75412">
        <ele>410</ele>
        <time>2015-05-27T13:28:10Z</time>
      </trkpt>
      <trkpt lat="45.54923" lon="4.75412">
        <ele>407</ele>
        <time>2015-05-27T13:28:15Z</time>
      </trkpt>
      <trkpt lat="45.54896" lon="4.75418">
        <ele>407</ele>
        <time>2015-05-27T13:28:20Z</time>
      </trkpt>
      <trkpt lat="45.54875" lon="4.75417">
        <ele>406</ele>
        <time>2015-05-27T13:28:25Z</time>
      </trkpt>
      <trkpt lat="45.54852" lon="4.75414">
        <ele>405</ele>
        <time>2015-05-27T13:28:30Z</time>
      </trkpt>
      <trkpt lat="45.54833" lon="4.75407">
        <ele>402</ele>
        <time>2015-05-27T13:28:35Z</time>
      </trkpt>
      <trkpt lat="45.54787" lon="4.75408">
        <ele>402</ele>
        <time>2015-05-27T13:28:43Z</time>
      </trkpt>
      <trkpt lat="45.54757" lon="4.75411">
        <ele>403</ele>
        <time>2015-05-27T13:28:47Z</time>
      </trkpt>
      <trkpt lat="45.54731" lon="4.75406">
        <ele>402</ele>
        <time>2015-05-27T13:28:50Z</time>
      </trkpt>
      <trkpt lat="45.54665" lon="4.75358">
        <ele>401</ele>
        <time>2015-05-27T13:28:58Z</time>
      </trkpt>
      <trkpt lat="45.54655" lon="4.75345">
        <ele>398</ele>
        <time>2015-05-27T13:29:00Z</time>
      </trkpt>
      <trkpt lat="45.54631" lon="4.75301">
        <ele>392</ele>
        <time>2015-05-27T13:29:05Z</time>
      </trkpt>
      <trkpt lat="45.54603" lon="4.7526">
        <ele>391</ele>
        <time>2015-05-27T13:29:10Z</time>
      </trkpt>
      <trkpt lat="45.54587" lon="4.75244">
        <ele>390</ele>
        <time>2015-05-27T13:29:15Z</time>
      </trkpt>
      <trkpt lat="45.54577" lon="4.75243">
        <ele>391</ele>
        <time>2015-05-27T13:29:20Z</time>
      </trkpt>
      <trkpt lat="45.54566" lon="4.75244">
        <ele>393</ele>
        <time>2015-05-27T13:29:25Z</time>
      </trkpt>
      <trkpt lat="45.54549" lon="4.75246">
        <ele>393</ele>
        <time>2015-05-27T13:29:31Z</time>
      </trkpt>
      <trkpt lat="45.54524" lon="4.7525">
        <ele>392</ele>
        <time>2015-05-27T13:29:35Z</time>
      </trkpt>
      <trkpt lat="45.54491" lon="4.75251">
        <ele>388</ele>
        <time>2015-05-27T13:29:42Z</time>
      </trkpt>
      <trkpt lat="45.54475" lon="4.75242">
        <ele>385</ele>
        <time>2015-05-27T13:29:46Z</time>
      </trkpt>
      <trkpt lat="45.54452" lon="4.75226">
        <ele>387</ele>
        <time>2015-05-27T13:29:54Z</time>
      </trkpt>
      <trkpt lat="45.54446" lon="4.75224">
        <ele>386</ele>
        <time>2015-05-27T13:29:57Z</time>
      </trkpt>
      <trkpt lat="45.54438" lon="4.75218">
        <ele>384</ele>
        <time>2015-05-27T13:30:00Z</time>
      </trkpt>
      <trkpt lat="45.54421" lon="4.75209">
        <ele>387</ele>
        <time>2015-05-27T13:30:05Z</time>
      </trkpt>
      <trkpt lat="45.54408" lon="4.75201">
        <ele>387</ele>
        <time>2015-05-27T13:30:10Z</time>
      </trkpt>
      <trkpt lat="45.54396" lon="4.75175">
        <ele>382</ele>
        <time>2015-05-27T13:30:15Z</time>
      </trkpt>
      <trkpt lat="45.54384" lon="4.75151">
        <ele>384</ele>
        <time>2015-05-27T13:30:21Z</time>
      </trkpt>
      <trkpt lat="45.54384" lon="4.7513">
        <ele>384</ele>
        <time>2015-05-27T13:30:25Z</time>
      </trkpt>
      <trkpt lat="45.54381" lon="4.75107">
        <ele>389</ele>
        <time>2015-05-27T13:30:30Z</time>
      </trkpt>
      <trkpt lat="45.5438" lon="4.75083">
        <ele>386</ele>
        <time>2015-05-27T13:30:35Z</time>
      </trkpt>
      <trkpt lat="45.54379" lon="4.75083">
        <ele>392</ele>
        <time>2015-05-27T13:30:42Z</time>
      </trkpt>
      <trkpt lat="45.5438" lon="4.75083">
        <ele>391</ele>
        <time>2015-05-27T13:30:43Z</time>
      </trkpt>
      <trkpt lat="45.54382" lon="4.75079">
        <ele>384</ele>
        <time>2015-05-27T13:30:51Z</time>
      </trkpt>
      <trkpt lat="45.54382" lon="4.75079">
        <ele>384</ele>
        <time>2015-05-27T13:30:53Z</time>
      </trkpt>
      <trkpt lat="45.54383" lon="4.75076">
        <ele>382</ele>
        <time>2015-05-27T13:30:57Z</time>
      </trkpt>
      <trkpt lat="45.54382" lon="4.75078">
        <ele>380</ele>
        <time>2015-05-27T13:31:01Z</time>
      </trkpt>
      <trkpt lat="45.54379" lon="4.7508">
        <ele>379</ele>
        <time>2015-05-27T13:31:06Z</time>
      </trkpt>
      <trkpt lat="45.54371" lon="4.75092">
        <ele>372</ele>
        <time>2015-05-27T13:31:11Z</time>
      </trkpt>
      <trkpt lat="45.54346" lon="4.75132">
        <ele>373</ele>
        <time>2015-05-27T13:31:19Z</time>
      </trkpt>
      <trkpt lat="45.54341" lon="4.75138">
        <ele>374</ele>
        <time>2015-05-27T13:31:22Z</time>
      </trkpt>
      <trkpt lat="45.54336" lon="4.75146">
        <ele>380</ele>
        <time>2015-05-27T13:31:26Z</time>
      </trkpt>
      <trkpt lat="45.54325" lon="4.7515">
        <ele>381</ele>
        <time>2015-05-27T13:31:31Z</time>
      </trkpt>
      <trkpt lat="45.54309" lon="4.75159">
        <ele>377</ele>
        <time>2015-05-27T13:31:36Z</time>
      </trkpt>
      <trkpt lat="45.54299" lon="4.75179">
        <ele>372</ele>
        <time>2015-05-27T13:31:43Z</time>
      </trkpt>
      <trkpt lat="45.543" lon="4.75182">
        <ele>371</ele>
        <time>2015-05-27T13:31:46Z</time>
      </trkpt>
      <trkpt lat="45.54294" lon="4.75188">
        <ele>375</ele>
        <time>2015-05-27T13:31:51Z</time>
      </trkpt>
      <trkpt lat="45.54288" lon="4.75198">
        <ele>376</ele>
        <time>2015-05-27T13:31:58Z</time>
      </trkpt>
      <trkpt lat="45.54289" lon="4.75204">
        <ele>379</ele>
        <time>2015-05-27T13:32:01Z</time>
      </trkpt>
      <trkpt lat="45.5429" lon="4.7522">
        <ele>389</ele>
        <time>2015-05-27T13:32:09Z</time>
      </trkpt>
      <trkpt lat="45.54291" lon="4.75231">
        <ele>388</ele>
        <time>2015-05-27T13:32:13Z</time>
      </trkpt>
      <trkpt lat="45.54292" lon="4.75238">
        <ele>386</ele>
        <time>2015-05-27T13:32:16Z</time>
      </trkpt>
      <trkpt lat="45.54291" lon="4.75249">
        <ele>388</ele>
        <time>2015-05-27T13:32:21Z</time>
      </trkpt>
      <trkpt lat="45.54291" lon="4.75261">
        <ele>390</ele>
        <time>2015-05-27T13:32:27Z</time>
      </trkpt>
      <trkpt lat="45.54292" lon="4.75283">
        <ele>388</ele>
        <time>2015-05-27T13:32:34Z</time>
      </trkpt>
      <trkpt lat="45.54292" lon="4.753">
        <ele>383</ele>
        <time>2015-05-27T13:32:40Z</time>
      </trkpt>
      <trkpt lat="45.54293" lon="4.75302">
        <ele>383</ele>
        <time>2015-05-27T13:32:42Z</time>
      </trkpt>
      <trkpt lat="45.54295" lon="4.75314">
        <ele>383</ele>
        <time>2015-05-27T13:32:48Z</time>
      </trkpt>
      <trkpt lat="45.54297" lon="4.75322">
        <ele>382</ele>
        <time>2015-05-27T13:32:51Z</time>
      </trkpt>
      <trkpt lat="45.54296" lon="4.75335">
        <ele>379</ele>
        <time>2015-05-27T13:32:57Z</time>
      </trkpt>
      <trkpt lat="45.54297" lon="4.75346">
        <ele>373</ele>
        <time>2015-05-27T13:33:03Z</time>
      </trkpt>
      <trkpt lat="45.543" lon="4.75357">
        <ele>373</ele>
        <time>2015-05-27T13:33:08Z</time>
      </trkpt>
      <trkpt lat="45.54303" lon="4.7537">
        <ele>372</ele>
        <time>2015-05-27T13:33:14Z</time>
      </trkpt>
      <trkpt lat="45.54304" lon="4.75379">
        <ele>369</ele>
        <time>2015-05-27T13:33:18Z</time>
      </trkpt>
      <trkpt lat="45.54308" lon="4.75386">
        <ele>369</ele>
        <time>2015-05-27T13:33:21Z</time>
      </trkpt>
      <trkpt lat="45.54317" lon="4.75403">
        <ele>372</ele>
        <time>2015-05-27T13:33:27Z</time>
      </trkpt>
      <trkpt lat="45.54321" lon="4.75414">
        <ele>372</ele>
        <time>2015-05-27T13:33:31Z</time>
      </trkpt>
      <trkpt lat="45.54327" lon="4.75435">
        <ele>371</ele>
        <time>2015-05-27T13:33:39Z</time>
      </trkpt>
      <trkpt lat="45.54327" lon="4.75443">
        <ele>370</ele>
        <time>2015-05-27T13:33:41Z</time>
      </trkpt>
      <trkpt lat="45.54328" lon="4.75456">
        <ele>368</ele>
        <time>2015-05-27T13:33:46Z</time>
      </trkpt>
      <trkpt lat="45.54335" lon="4.75465">
        <ele>368</ele>
        <time>2015-05-27T13:33:51Z</time>
      </trkpt>
      <trkpt lat="45.54346" lon="4.75471">
        <ele>378</ele>
        <time>2015-05-27T13:34:00Z</time>
      </trkpt>
      <trkpt lat="45.54347" lon="4.75471">
        <ele>380</ele>
        <time>2015-05-27T13:34:02Z</time>
      </trkpt>
      <trkpt lat="45.54355" lon="4.75478">
        <ele>381</ele>
        <time>2015-05-27T13:34:08Z</time>
      </trkpt>
      <trkpt lat="45.54356" lon="4.75482">
        <ele>381</ele>
        <time>2015-05-27T13:34:11Z</time>
      </trkpt>
      <trkpt lat="45.54361" lon="4.75493">
        <ele>381</ele>
        <time>2015-05-27T13:34:17Z</time>
      </trkpt>
      <trkpt lat="45.54362" lon="4.75502">
        <ele>381</ele>
        <time>2015-05-27T13:34:21Z</time>
      </trkpt>
      <trkpt lat="45.54362" lon="4.75518">
        <ele>383</ele>
        <time>2015-05-27T13:34:28Z</time>
      </trkpt>
      <trkpt lat="45.54363" lon="4.75524">
        <ele>388</ele>
        <time>2015-05-27T13:34:32Z</time>
      </trkpt>
      <trkpt lat="45.54362" lon="4.75535">
        <ele>385</ele>
        <time>2015-05-27T13:34:38Z</time>
      </trkpt>
      <trkpt lat="45.54363" lon="4.75541">
        <ele>386</ele>
        <time>2015-05-27T13:34:41Z</time>
      </trkpt>
      <trkpt lat="45.54364" lon="4.75548">
        <ele>387</ele>
        <time>2015-05-27T13:34:46Z</time>
      </trkpt>
      <trkpt lat="45.5436" lon="4.75566">
        <ele>388</ele>
        <time>2015-05-27T13:34:54Z</time>
      </trkpt>
      <trkpt lat="45.54359" lon="4.75571">
        <ele>389</ele>
        <time>2015-05-27T13:34:56Z</time>
      </trkpt>
      <trkpt lat="45.54358" lon="4.75579">
        <ele>394</ele>
        <time>2015-05-27T13:35:01Z</time>
      </trkpt>
      <trkpt lat="45.54358" lon="4.75584">
        <ele>397</ele>
        <time>2015-05-27T13:35:07Z</time>
      </trkpt>
      <trkpt lat="45.54358" lon="4.75586">
        <ele>400</ele>
        <time>2015-05-27T13:35:11Z</time>
      </trkpt>
      <trkpt lat="45.54357" lon="4.75596">
        <ele>399</ele>
        <time>2015-05-27T13:35:20Z</time>
      </trkpt>
      <trkpt lat="45.54356" lon="4.756">
        <ele>399</ele>
        <time>2015-05-27T13:35:22Z</time>
      </trkpt>
      <trkpt lat="45.54356" lon="4.75611">
        <ele>401</ele>
        <time>2015-05-27T13:35:28Z</time>
      </trkpt>
      <trkpt lat="45.54358" lon="4.75617">
        <ele>403</ele>
        <time>2015-05-27T13:35:32Z</time>
      </trkpt>
      <trkpt lat="45.54362" lon="4.75624">
        <ele>407</ele>
        <time>2015-05-27T13:35:36Z</time>
      </trkpt>
      <trkpt lat="45.54367" lon="4.75629">
        <ele>407</ele>
        <time>2015-05-27T13:35:41Z</time>
      </trkpt>
      <trkpt lat="45.54378" lon="4.75645">
        <ele>402</ele>
        <time>2015-05-27T13:35:49Z</time>
      </trkpt>
      <trkpt lat="45.54385" lon="4.75658">
        <ele>398</ele>
        <time>2015-05-27T13:35:54Z</time>
      </trkpt>
      <trkpt lat="45.54388" lon="4.75664">
        <ele>398</ele>
        <time>2015-05-27T13:35:56Z</time>
      </trkpt>
      <trkpt lat="45.54394" lon="4.75676">
        <ele>398</ele>
        <time>2015-05-27T13:36:01Z</time>
      </trkpt>
      <trkpt lat="45.54402" lon="4.75695">
        <ele>395</ele>
        <time>2015-05-27T13:36:07Z</time>
      </trkpt>
      <trkpt lat="45.54407" lon="4.75708">
        <ele>399</ele>
        <time>2015-05-27T13:36:11Z</time>
      </trkpt>
      <trkpt lat="45.5442" lon="4.75723">
        <ele>396</ele>
        <time>2015-05-27T13:36:17Z</time>
      </trkpt>
      <trkpt lat="45.54427" lon="4.75742">
        <ele>392</ele>
        <time>2015-05-27T13:36:23Z</time>
      </trkpt>
      <trkpt lat="45.54429" lon="4.75751">
        <ele>392</ele>
        <time>2015-05-27T13:36:26Z</time>
      </trkpt>
      <trkpt lat="45.54435" lon="4.75761">
        <ele>399</ele>
        <time>2015-05-27T13:36:32Z</time>
      </trkpt>
      <trkpt lat="45.54434" lon="4.75772">
        <ele>404</ele>
        <time>2015-05-27T13:36:37Z</time>
      </trkpt>
      <trkpt lat="45.54434" lon="4.75794">
        <ele>401</ele>
        <time>2015-05-27T13:36:45Z</time>
      </trkpt>
      <trkpt lat="45.54435" lon="4.75802">
        <ele>404</ele>
        <time>2015-05-27T13:36:50Z</time>
      </trkpt>
      <trkpt lat="45.54434" lon="4.75804">
        <ele>405</ele>
        <time>2015-05-27T13:36:51Z</time>
      </trkpt>
      <trkpt lat="45.54419" lon="4.75821">
        <ele>406</ele>
        <time>2015-05-27T13:37:00Z</time>
      </trkpt>
      <trkpt lat="45.54413" lon="4.75825">
        <ele>404</ele>
        <time>2015-05-27T13:37:03Z</time>
      </trkpt>
      <trkpt lat="45.54405" lon="4.75832">
        <ele>405</ele>
        <time>2015-05-27T13:37:08Z</time>
      </trkpt>
      <trkpt lat="45.544" lon="4.75837">
        <ele>406</ele>
        <time>2015-05-27T13:37:11Z</time>
      </trkpt>
      <trkpt lat="45.54394" lon="4.75844">
        <ele>409</ele>
        <time>2015-05-27T13:37:16Z</time>
      </trkpt>
      <trkpt lat="45.54385" lon="4.75854">
        <ele>409</ele>
        <time>2015-05-27T13:37:21Z</time>
      </trkpt>
      <trkpt lat="45.54376" lon="4.75867">
        <ele>408</ele>
        <time>2015-05-27T13:37:26Z</time>
      </trkpt>
      <trkpt lat="45.54367" lon="4.75881">
        <ele>411</ele>
        <time>2015-05-27T13:37:31Z</time>
      </trkpt>
      <trkpt lat="45.54364" lon="4.75889">
        <ele>415</ele>
        <time>2015-05-27T13:37:36Z</time>
      </trkpt>
      <trkpt lat="45.54358" lon="4.759">
        <ele>416</ele>
        <time>2015-05-27T13:37:41Z</time>
      </trkpt>
      <trkpt lat="45.54359" lon="4.75911">
        <ele>419</ele>
        <time>2015-05-27T13:37:47Z</time>
      </trkpt>
      <trkpt lat="45.5436" lon="4.75918">
        <ele>418</ele>
        <time>2015-05-27T13:37:51Z</time>
      </trkpt>
      <trkpt lat="45.54361" lon="4.75925">
        <ele>416</ele>
        <time>2015-05-27T13:37:56Z</time>
      </trkpt>
      <trkpt lat="45.54366" lon="4.75935">
        <ele>413</ele>
        <time>2015-05-27T13:38:01Z</time>
      </trkpt>
      <trkpt lat="45.54369" lon="4.75941">
        <ele>414</ele>
        <time>2015-05-27T13:38:06Z</time>
      </trkpt>
      <trkpt lat="45.54377" lon="4.75944">
        <ele>419</ele>
        <time>2015-05-27T13:38:11Z</time>
      </trkpt>
      <trkpt lat="45.54389" lon="4.75951">
        <ele>424</ele>
        <time>2015-05-27T13:38:19Z</time>
      </trkpt>
      <trkpt lat="45.54392" lon="4.75956">
        <ele>424</ele>
        <time>2015-05-27T13:38:21Z</time>
      </trkpt>
      <trkpt lat="45.54405" lon="4.75982">
        <ele>423</ele>
        <time>2015-05-27T13:38:30Z</time>
      </trkpt>
      <trkpt lat="45.54406" lon="4.75985">
        <ele>423</ele>
        <time>2015-05-27T13:38:31Z</time>
      </trkpt>
      <trkpt lat="45.54416" lon="4.76016">
        <ele>422</ele>
        <time>2015-05-27T13:38:40Z</time>
      </trkpt>
      <trkpt lat="45.54417" lon="4.76019">
        <ele>422</ele>
        <time>2015-05-27T13:38:41Z</time>
      </trkpt>
      <trkpt lat="45.54422" lon="4.76046">
        <ele>422</ele>
        <time>2015-05-27T13:38:46Z</time>
      </trkpt>
      <trkpt lat="45.54429" lon="4.76101">
        <ele>418</ele>
        <time>2015-05-27T13:38:55Z</time>
      </trkpt>
      <trkpt lat="45.54433" lon="4.7612">
        <ele>419</ele>
        <time>2015-05-27T13:38:59Z</time>
      </trkpt>
      <trkpt lat="45.54434" lon="4.76128">
        <ele>418</ele>
        <time>2015-05-27T13:39:01Z</time>
      </trkpt>
      <trkpt lat="45.54437" lon="4.76142">
        <ele>417</ele>
        <time>2015-05-27T13:39:06Z</time>
      </trkpt>
      <trkpt lat="45.54439" lon="4.7616">
        <ele>420</ele>
        <time>2015-05-27T13:39:13Z</time>
      </trkpt>
      <trkpt lat="45.54437" lon="4.76168">
        <ele>421</ele>
        <time>2015-05-27T13:39:16Z</time>
      </trkpt>
      <trkpt lat="45.54433" lon="4.76179">
        <ele>421</ele>
        <time>2015-05-27T13:39:21Z</time>
      </trkpt>
      <trkpt lat="45.54429" lon="4.76191">
        <ele>421</ele>
        <time>2015-05-27T13:39:26Z</time>
      </trkpt>
      <trkpt lat="45.54422" lon="4.76205">
        <ele>421</ele>
        <time>2015-05-27T13:39:31Z</time>
      </trkpt>
      <trkpt lat="45.54405" lon="4.76239">
        <ele>421</ele>
        <time>2015-05-27T13:39:40Z</time>
      </trkpt>
      <trkpt lat="45.54403" lon="4.76243">
        <ele>421</ele>
        <time>2015-05-27T13:39:41Z</time>
      </trkpt>
      <trkpt lat="45.54393" lon="4.7626">
        <ele>419</ele>
        <time>2015-05-27T13:39:46Z</time>
      </trkpt>
      <trkpt lat="45.54386" lon="4.76276">
        <ele>420</ele>
        <time>2015-05-27T13:39:51Z</time>
      </trkpt>
      <trkpt lat="45.54383" lon="4.76297">
        <ele>420</ele>
        <time>2015-05-27T13:39:56Z</time>
      </trkpt>
      <trkpt lat="45.54387" lon="4.7632">
        <ele>421</ele>
        <time>2015-05-27T13:40:01Z</time>
      </trkpt>
      <trkpt lat="45.54394" lon="4.76348">
        <ele>418</ele>
        <time>2015-05-27T13:40:07Z</time>
      </trkpt>
      <trkpt lat="45.54398" lon="4.76367">
        <ele>418</ele>
        <time>2015-05-27T13:40:11Z</time>
      </trkpt>
      <trkpt lat="45.544" lon="4.76392">
        <ele>417</ele>
        <time>2015-05-27T13:40:16Z</time>
      </trkpt>
      <trkpt lat="45.544" lon="4.76415">
        <ele>419</ele>
        <time>2015-05-27T13:40:21Z</time>
      </trkpt>
      <trkpt lat="45.54399" lon="4.76439">
        <ele>419</ele>
        <time>2015-05-27T13:40:26Z</time>
      </trkpt>
      <trkpt lat="45.54398" lon="4.7646">
        <ele>419</ele>
        <time>2015-05-27T13:40:31Z</time>
      </trkpt>
      <trkpt lat="45.54395" lon="4.76481">
        <ele>419</ele>
        <time>2015-05-27T13:40:36Z</time>
      </trkpt>
      <trkpt lat="45.54392" lon="4.76501">
        <ele>419</ele>
        <time>2015-05-27T13:40:41Z</time>
      </trkpt>
      <trkpt lat="45.54385" lon="4.76531">
        <ele>418</ele>
        <time>2015-05-27T13:40:47Z</time>
      </trkpt>
      <trkpt lat="45.54375" lon="4.76551">
        <ele>418</ele>
        <time>2015-05-27T13:40:51Z</time>
      </trkpt>
      <trkpt lat="45.54362" lon="4.76576">
        <ele>418</ele>
        <time>2015-05-27T13:40:56Z</time>
      </trkpt>
      <trkpt lat="45.54349" lon="4.76593">
        <ele>419</ele>
        <time>2015-05-27T13:41:01Z</time>
      </trkpt>
      <trkpt lat="45.54341" lon="4.76583">
        <ele>421</ele>
        <time>2015-05-27T13:41:06Z</time>
      </trkpt>
      <trkpt lat="45.54339" lon="4.76566">
        <ele>422</ele>
        <time>2015-05-27T13:41:11Z</time>
      </trkpt>
      <trkpt lat="45.54334" lon="4.76548">
        <ele>423</ele>
        <time>2015-05-27T13:41:16Z</time>
      </trkpt>
      <trkpt lat="45.5433" lon="4.7653">
        <ele>424</ele>
        <time>2015-05-27T13:41:21Z</time>
      </trkpt>
      <trkpt lat="45.54325" lon="4.76512">
        <ele>423</ele>
        <time>2015-05-27T13:41:26Z</time>
      </trkpt>
      <trkpt lat="45.54319" lon="4.76494">
        <ele>424</ele>
        <time>2015-05-27T13:41:31Z</time>
      </trkpt>
      <trkpt lat="45.54314" lon="4.76478">
        <ele>425</ele>
        <time>2015-05-27T13:41:36Z</time>
      </trkpt>
      <trkpt lat="45.54308" lon="4.76461">
        <ele>425</ele>
        <time>2015-05-27T13:41:41Z</time>
      </trkpt>
      <trkpt lat="45.54303" lon="4.76445">
        <ele>426</ele>
        <time>2015-05-27T13:41:46Z</time>
      </trkpt>
      <trkpt lat="45.54297" lon="4.76428">
        <ele>427</ele>
        <time>2015-05-27T13:41:51Z</time>
      </trkpt>
      <trkpt lat="45.54291" lon="4.76412">
        <ele>426</ele>
        <time>2015-05-27T13:41:56Z</time>
      </trkpt>
      <trkpt lat="45.54286" lon="4.76395">
        <ele>426</ele>
        <time>2015-05-27T13:42:01Z</time>
      </trkpt>
      <trkpt lat="45.5428" lon="4.76376">
        <ele>427</ele>
        <time>2015-05-27T13:42:06Z</time>
      </trkpt>
      <trkpt lat="45.54274" lon="4.7636">
        <ele>428</ele>
        <time>2015-05-27T13:42:11Z</time>
      </trkpt>
      <trkpt lat="45.54268" lon="4.76344">
        <ele>428</ele>
        <time>2015-05-27T13:42:16Z</time>
      </trkpt>
      <trkpt lat="45.54261" lon="4.76324">
        <ele>428</ele>
        <time>2015-05-27T13:42:22Z</time>
      </trkpt>
      <trkpt lat="45.54257" lon="4.7631">
        <ele>428</ele>
        <time>2015-05-27T13:42:26Z</time>
      </trkpt>
      <trkpt lat="45.54252" lon="4.76293">
        <ele>428</ele>
        <time>2015-05-27T13:42:31Z</time>
      </trkpt>
      <trkpt lat="45.54251" lon="4.76277">
        <ele>430</ele>
        <time>2015-05-27T13:42:36Z</time>
      </trkpt>
      <trkpt lat="45.54256" lon="4.7626">
        <ele>431</ele>
        <time>2015-05-27T13:42:44Z</time>
      </trkpt>
      <trkpt lat="45.54257" lon="4.76257">
        <ele>432</ele>
        <time>2015-05-27T13:42:46Z</time>
      </trkpt>
      <trkpt lat="45.5426" lon="4.76247">
        <ele>432</ele>
        <time>2015-05-27T13:42:51Z</time>
      </trkpt>
      <trkpt lat="45.54265" lon="4.76236">
        <ele>431</ele>
        <time>2015-05-27T13:42:56Z</time>
      </trkpt>
      <trkpt lat="45.54269" lon="4.76225">
        <ele>433</ele>
        <time>2015-05-27T13:43:01Z</time>
      </trkpt>
      <trkpt lat="45.5427" lon="4.76209">
        <ele>435</ele>
        <time>2015-05-27T13:43:09Z</time>
      </trkpt>
      <trkpt lat="45.5427" lon="4.76204">
        <ele>436</ele>
        <time>2015-05-27T13:43:11Z</time>
      </trkpt>
      <trkpt lat="45.5427" lon="4.76189">
        <ele>438</ele>
        <time>2015-05-27T13:43:18Z</time>
      </trkpt>
      <trkpt lat="45.5427" lon="4.76184">
        <ele>439</ele>
        <time>2015-05-27T13:43:21Z</time>
      </trkpt>
      <trkpt lat="45.54271" lon="4.76175">
        <ele>439</ele>
        <time>2015-05-27T13:43:26Z</time>
      </trkpt>
      <trkpt lat="45.54271" lon="4.76168">
        <ele>441</ele>
        <time>2015-05-27T13:43:31Z</time>
      </trkpt>
      <trkpt lat="45.54274" lon="4.76157">
        <ele>442</ele>
        <time>2015-05-27T13:43:36Z</time>
      </trkpt>
      <trkpt lat="45.54273" lon="4.76146">
        <ele>443</ele>
        <time>2015-05-27T13:43:43Z</time>
      </trkpt>
      <trkpt lat="45.54272" lon="4.76141">
        <ele>441</ele>
        <time>2015-05-27T13:43:46Z</time>
      </trkpt>
      <trkpt lat="45.54268" lon="4.76133">
        <ele>442</ele>
        <time>2015-05-27T13:43:51Z</time>
      </trkpt>
      <trkpt lat="45.54264" lon="4.76124">
        <ele>442</ele>
        <time>2015-05-27T13:43:56Z</time>
      </trkpt>
      <trkpt lat="45.5426" lon="4.76109">
        <ele>446</ele>
        <time>2015-05-27T13:44:04Z</time>
      </trkpt>
      <trkpt lat="45.54258" lon="4.76107">
        <ele>447</ele>
        <time>2015-05-27T13:44:06Z</time>
      </trkpt>
      <trkpt lat="45.54256" lon="4.76104">
        <ele>448</ele>
        <time>2015-05-27T13:44:11Z</time>
      </trkpt>
      <trkpt lat="45.54251" lon="4.76096">
        <ele>450</ele>
        <time>2015-05-27T13:44:16Z</time>
      </trkpt>
      <trkpt lat="45.54245" lon="4.76085">
        <ele>453</ele>
        <time>2015-05-27T13:44:23Z</time>
      </trkpt>
      <trkpt lat="45.54241" lon="4.76077">
        <ele>456</ele>
        <time>2015-05-27T13:44:28Z</time>
      </trkpt>
      <trkpt lat="45.54238" lon="4.76073">
        <ele>456</ele>
        <time>2015-05-27T13:44:31Z</time>
      </trkpt>
      <trkpt lat="45.54234" lon="4.76064">
        <ele>455</ele>
        <time>2015-05-27T13:44:36Z</time>
      </trkpt>
      <trkpt lat="45.5423" lon="4.76055">
        <ele>457</ele>
        <time>2015-05-27T13:44:41Z</time>
      </trkpt>
      <trkpt lat="45.54227" lon="4.76046">
        <ele>460</ele>
        <time>2015-05-27T13:44:46Z</time>
      </trkpt>
      <trkpt lat="45.54223" lon="4.76036">
        <ele>460</ele>
        <time>2015-05-27T13:44:51Z</time>
      </trkpt>
      <trkpt lat="45.54215" lon="4.7603">
        <ele>460</ele>
        <time>2015-05-27T13:45:00Z</time>
      </trkpt>
      <trkpt lat="45.54209" lon="4.76031">
        <ele>459</ele>
        <time>2015-05-27T13:45:04Z</time>
      </trkpt>
      <trkpt lat="45.54205" lon="4.76031">
        <ele>459</ele>
        <time>2015-05-27T13:45:06Z</time>
      </trkpt>
      <trkpt lat="45.54193" lon="4.76026">
        <ele>458</ele>
        <time>2015-05-27T13:45:13Z</time>
      </trkpt>
      <trkpt lat="45.54188" lon="4.76023">
        <ele>458</ele>
        <time>2015-05-27T13:45:16Z</time>
      </trkpt>
      <trkpt lat="45.54182" lon="4.76018">
        <ele>459</ele>
        <time>2015-05-27T13:45:21Z</time>
      </trkpt>
      <trkpt lat="45.54172" lon="4.76011">
        <ele>462</ele>
        <time>2015-05-27T13:45:29Z</time>
      </trkpt>
      <trkpt lat="45.5417" lon="4.76009">
        <ele>462</ele>
        <time>2015-05-27T13:45:31Z</time>
      </trkpt>
      <trkpt lat="45.54163" lon="4.76002">
        <ele>462</ele>
        <time>2015-05-27T13:45:36Z</time>
      </trkpt>
      <trkpt lat="45.54156" lon="4.75994">
        <ele>460</ele>
        <time>2015-05-27T13:45:41Z</time>
      </trkpt>
      <trkpt lat="45.5415" lon="4.75989">
        <ele>460</ele>
        <time>2015-05-27T13:45:46Z</time>
      </trkpt>
      <trkpt lat="45.54145" lon="4.7598">
        <ele>460</ele>
        <time>2015-05-27T13:45:51Z</time>
      </trkpt>
      <trkpt lat="45.54139" lon="4.75972">
        <ele>460</ele>
        <time>2015-05-27T13:45:56Z</time>
      </trkpt>
      <trkpt lat="45.54133" lon="4.75965">
        <ele>461</ele>
        <time>2015-05-27T13:46:01Z</time>
      </trkpt>
      <trkpt lat="45.54127" lon="4.75956">
        <ele>460</ele>
        <time>2015-05-27T13:46:06Z</time>
      </trkpt>
      <trkpt lat="45.54121" lon="4.75948">
        <ele>461</ele>
        <time>2015-05-27T13:46:11Z</time>
      </trkpt>
      <trkpt lat="45.54116" lon="4.75939">
        <ele>463</ele>
        <time>2015-05-27T13:46:16Z</time>
      </trkpt>
      <trkpt lat="45.54111" lon="4.75932">
        <ele>463</ele>
        <time>2015-05-27T13:46:21Z</time>
      </trkpt>
      <trkpt lat="45.54107" lon="4.75925">
        <ele>464</ele>
        <time>2015-05-27T13:46:26Z</time>
      </trkpt>
      <trkpt lat="45.54101" lon="4.75917">
        <ele>465</ele>
        <time>2015-05-27T13:46:33Z</time>
      </trkpt>
      <trkpt lat="45.54097" lon="4.75912">
        <ele>466</ele>
        <time>2015-05-27T13:46:40Z</time>
      </trkpt>
      <trkpt lat="45.54096" lon="4.75911">
        <ele>465</ele>
        <time>2015-05-27T13:46:41Z</time>
      </trkpt>
      <trkpt lat="45.54092" lon="4.75904">
        <ele>467</ele>
        <time>2015-05-27T13:46:46Z</time>
      </trkpt>
      <trkpt lat="45.54078" lon="4.7589">
        <ele>470</ele>
        <time>2015-05-27T13:46:55Z</time>
      </trkpt>
      <trkpt lat="45.54076" lon="4.75888">
        <ele>471</ele>
        <time>2015-05-27T13:46:56Z</time>
      </trkpt>
      <trkpt lat="45.54063" lon="4.75868">
        <ele>473</ele>
        <time>2015-05-27T13:47:01Z</time>
      </trkpt>
      <trkpt lat="45.54046" lon="4.75838">
        <ele>473</ele>
        <time>2015-05-27T13:47:06Z</time>
      </trkpt>
      <trkpt lat="45.54034" lon="4.75812">
        <ele>473</ele>
        <time>2015-05-27T13:47:11Z</time>
      </trkpt>
      <trkpt lat="45.54027" lon="4.75799">
        <ele>471</ele>
        <time>2015-05-27T13:47:16Z</time>
      </trkpt>
      <trkpt lat="45.54021" lon="4.75782">
        <ele>469</ele>
        <time>2015-05-27T13:47:23Z</time>
      </trkpt>
      <trkpt lat="45.54012" lon="4.75761">
        <ele>465</ele>
        <time>2015-05-27T13:47:28Z</time>
      </trkpt>
      <trkpt lat="45.53998" lon="4.75742">
        <ele>462</ele>
        <time>2015-05-27T13:47:34Z</time>
      </trkpt>
      <trkpt lat="45.53994" lon="4.75733">
        <ele>462</ele>
        <time>2015-05-27T13:47:36Z</time>
      </trkpt>
      <trkpt lat="45.53984" lon="4.75711">
        <ele>462</ele>
        <time>2015-05-27T13:47:41Z</time>
      </trkpt>
      <trkpt lat="45.53972" lon="4.7569">
        <ele>462</ele>
        <time>2015-05-27T13:47:46Z</time>
      </trkpt>
      <trkpt lat="45.53949" lon="4.75657">
        <ele>463</ele>
        <time>2015-05-27T13:47:55Z</time>
      </trkpt>
      <trkpt lat="45.53946" lon="4.75654">
        <ele>463</ele>
        <time>2015-05-27T13:47:56Z</time>
      </trkpt>
      <trkpt lat="45.5393" lon="4.75634">
        <ele>464</ele>
        <time>2015-05-27T13:48:01Z</time>
      </trkpt>
      <trkpt lat="45.53912" lon="4.75614">
        <ele>463</ele>
        <time>2015-05-27T13:48:06Z</time>
      </trkpt>
      <trkpt lat="45.53895" lon="4.75597">
        <ele>464</ele>
        <time>2015-05-27T13:48:11Z</time>
      </trkpt>
      <trkpt lat="45.53876" lon="4.75583">
        <ele>464</ele>
        <time>2015-05-27T13:48:16Z</time>
      </trkpt>
      <trkpt lat="45.53849" lon="4.75558">
        <ele>463</ele>
        <time>2015-05-27T13:48:24Z</time>
      </trkpt>
      <trkpt lat="45.53843" lon="4.75554">
        <ele>464</ele>
        <time>2015-05-27T13:48:26Z</time>
      </trkpt>
      <trkpt lat="45.53823" lon="4.75547">
        <ele>463</ele>
        <time>2015-05-27T13:48:31Z</time>
      </trkpt>
      <trkpt lat="45.53805" lon="4.75542">
        <ele>464</ele>
        <time>2015-05-27T13:48:36Z</time>
      </trkpt>
      <trkpt lat="45.53786" lon="4.75545">
        <ele>467</ele>
        <time>2015-05-27T13:48:41Z</time>
      </trkpt>
      <trkpt lat="45.53768" lon="4.7555">
        <ele>466</ele>
        <time>2015-05-27T13:48:46Z</time>
      </trkpt>
      <trkpt lat="45.53748" lon="4.75553">
        <ele>467</ele>
        <time>2015-05-27T13:48:51Z</time>
      </trkpt>
      <trkpt lat="45.5373" lon="4.75558">
        <ele>468</ele>
        <time>2015-05-27T13:48:56Z</time>
      </trkpt>
      <trkpt lat="45.53714" lon="4.75561">
        <ele>469</ele>
        <time>2015-05-27T13:49:01Z</time>
      </trkpt>
      <trkpt lat="45.53696" lon="4.75567">
        <ele>469</ele>
        <time>2015-05-27T13:49:06Z</time>
      </trkpt>
      <trkpt lat="45.53678" lon="4.75572">
        <ele>468</ele>
        <time>2015-05-27T13:49:11Z</time>
      </trkpt>
      <trkpt lat="45.53654" lon="4.75574">
        <ele>468</ele>
        <time>2015-05-27T13:49:19Z</time>
      </trkpt>
      <trkpt lat="45.5365" lon="4.7557">
        <ele>470</ele>
        <time>2015-05-27T13:49:21Z</time>
      </trkpt>
      <trkpt lat="45.53641" lon="4.7556">
        <ele>470</ele>
        <time>2015-05-27T13:49:26Z</time>
      </trkpt>
      <trkpt lat="45.53632" lon="4.75551">
        <ele>471</ele>
        <time>2015-05-27T13:49:31Z</time>
      </trkpt>
      <trkpt lat="45.53625" lon="4.75543">
        <ele>471</ele>
        <time>2015-05-27T13:49:36Z</time>
      </trkpt>
      <trkpt lat="45.53619" lon="4.75535">
        <ele>472</ele>
        <time>2015-05-27T13:49:41Z</time>
      </trkpt>
      <trkpt lat="45.53613" lon="4.75526">
        <ele>473</ele>
        <time>2015-05-27T13:49:46Z</time>
      </trkpt>
      <trkpt lat="45.53608" lon="4.75517">
        <ele>474</ele>
        <time>2015-05-27T13:49:51Z</time>
      </trkpt>
      <trkpt lat="45.53602" lon="4.75509">
        <ele>475</ele>
        <time>2015-05-27T13:49:56Z</time>
      </trkpt>
      <trkpt lat="45.53597" lon="4.75499">
        <ele>476</ele>
        <time>2015-05-27T13:50:01Z</time>
      </trkpt>
      <trkpt lat="45.5359" lon="4.75489">
        <ele>476</ele>
        <time>2015-05-27T13:50:06Z</time>
      </trkpt>
      <trkpt lat="45.53585" lon="4.75478">
        <ele>478</ele>
        <time>2015-05-27T13:50:11Z</time>
      </trkpt>
      <trkpt lat="45.5358" lon="4.75467">
        <ele>477</ele>
        <time>2015-05-27T13:50:16Z</time>
      </trkpt>
      <trkpt lat="45.53574" lon="4.75457">
        <ele>478</ele>
        <time>2015-05-27T13:50:21Z</time>
      </trkpt>
      <trkpt lat="45.53567" lon="4.75449">
        <ele>480</ele>
        <time>2015-05-27T13:50:26Z</time>
      </trkpt>
      <trkpt lat="45.53561" lon="4.7544">
        <ele>480</ele>
        <time>2015-05-27T13:50:31Z</time>
      </trkpt>
      <trkpt lat="45.53551" lon="4.75429">
        <ele>480</ele>
        <time>2015-05-27T13:50:37Z</time>
      </trkpt>
      <trkpt lat="45.53546" lon="4.75423">
        <ele>481</ele>
        <time>2015-05-27T13:50:41Z</time>
      </trkpt>
      <trkpt lat="45.53539" lon="4.75417">
        <ele>483</ele>
        <time>2015-05-27T13:50:46Z</time>
      </trkpt>
      <trkpt lat="45.53527" lon="4.75411">
        <ele>484</ele>
        <time>2015-05-27T13:50:54Z</time>
      </trkpt>
      <trkpt lat="45.53519" lon="4.75408">
        <ele>486</ele>
        <time>2015-05-27T13:51:00Z</time>
      </trkpt>
      <trkpt lat="45.53517" lon="4.75407">
        <ele>485</ele>
        <time>2015-05-27T13:51:01Z</time>
      </trkpt>
      <trkpt lat="45.53506" lon="4.75402">
        <ele>483</ele>
        <time>2015-05-27T13:51:08Z</time>
      </trkpt>
      <trkpt lat="45.53498" lon="4.75395">
        <ele>485</ele>
        <time>2015-05-27T13:51:13Z</time>
      </trkpt>
      <trkpt lat="45.53485" lon="4.75389">
        <ele>485</ele>
        <time>2015-05-27T13:51:19Z</time>
      </trkpt>
      <trkpt lat="45.53481" lon="4.75385">
        <ele>485</ele>
        <time>2015-05-27T13:51:21Z</time>
      </trkpt>
      <trkpt lat="45.53469" lon="4.75379">
        <ele>485</ele>
        <time>2015-05-27T13:51:26Z</time>
      </trkpt>
      <trkpt lat="45.53454" lon="4.7537">
        <ele>486</ele>
        <time>2015-05-27T13:51:32Z</time>
      </trkpt>
      <trkpt lat="45.53444" lon="4.75365">
        <ele>486</ele>
        <time>2015-05-27T13:51:36Z</time>
      </trkpt>
      <trkpt lat="45.53432" lon="4.75354">
        <ele>487</ele>
        <time>2015-05-27T13:51:41Z</time>
      </trkpt>
      <trkpt lat="45.53419" lon="4.75344">
        <ele>486</ele>
        <time>2015-05-27T13:51:46Z</time>
      </trkpt>
      <trkpt lat="45.53402" lon="4.75327">
        <ele>489</ele>
        <time>2015-05-27T13:51:54Z</time>
      </trkpt>
      <trkpt lat="45.53398" lon="4.75324">
        <ele>489</ele>
        <time>2015-05-27T13:51:56Z</time>
      </trkpt>
      <trkpt lat="45.5339" lon="4.75316">
        <ele>490</ele>
        <time>2015-05-27T13:52:01Z</time>
      </trkpt>
      <trkpt lat="45.53381" lon="4.75306">
        <ele>491</ele>
        <time>2015-05-27T13:52:06Z</time>
      </trkpt>
      <trkpt lat="45.53375" lon="4.75298">
        <ele>492</ele>
        <time>2015-05-27T13:52:11Z</time>
      </trkpt>
      <trkpt lat="45.53368" lon="4.75288">
        <ele>491</ele>
        <time>2015-05-27T13:52:16Z</time>
      </trkpt>
      <trkpt lat="45.53363" lon="4.75281">
        <ele>491</ele>
        <time>2015-05-27T13:52:21Z</time>
      </trkpt>
      <trkpt lat="45.53359" lon="4.75276">
        <ele>494</ele>
        <time>2015-05-27T13:52:26Z</time>
      </trkpt>
      <trkpt lat="45.53355" lon="4.7527">
        <ele>494</ele>
        <time>2015-05-27T13:52:31Z</time>
      </trkpt>
      <trkpt lat="45.53349" lon="4.75265">
        <ele>495</ele>
        <time>2015-05-27T13:52:36Z</time>
      </trkpt>
      <trkpt lat="45.53343" lon="4.75259">
        <ele>497</ele>
        <time>2015-05-27T13:52:41Z</time>
      </trkpt>
      <trkpt lat="45.53339" lon="4.75252">
        <ele>497</ele>
        <time>2015-05-27T13:52:46Z</time>
      </trkpt>
      <trkpt lat="45.53332" lon="4.75245">
        <ele>497</ele>
        <time>2015-05-27T13:52:51Z</time>
      </trkpt>
      <trkpt lat="45.53328" lon="4.75237">
        <ele>499</ele>
        <time>2015-05-27T13:52:56Z</time>
      </trkpt>
      <trkpt lat="45.53324" lon="4.75232">
        <ele>500</ele>
        <time>2015-05-27T13:53:01Z</time>
      </trkpt>
      <trkpt lat="45.53319" lon="4.75226">
        <ele>501</ele>
        <time>2015-05-27T13:53:06Z</time>
      </trkpt>
      <trkpt lat="45.53314" lon="4.75219">
        <ele>502</ele>
        <time>2015-05-27T13:53:11Z</time>
      </trkpt>
      <trkpt lat="45.53308" lon="4.75215">
        <ele>502</ele>
        <time>2015-05-27T13:53:16Z</time>
      </trkpt>
      <trkpt lat="45.53304" lon="4.7521">
        <ele>505</ele>
        <time>2015-05-27T13:53:21Z</time>
      </trkpt>
      <trkpt lat="45.53297" lon="4.75205">
        <ele>506</ele>
        <time>2015-05-27T13:53:26Z</time>
      </trkpt>
      <trkpt lat="45.53292" lon="4.75202">
        <ele>506</ele>
        <time>2015-05-27T13:53:31Z</time>
      </trkpt>
      <trkpt lat="45.53285" lon="4.75198">
        <ele>505</ele>
        <time>2015-05-27T13:53:36Z</time>
      </trkpt>
      <trkpt lat="45.53279" lon="4.75192">
        <ele>506</ele>
        <time>2015-05-27T13:53:41Z</time>
      </trkpt>
      <trkpt lat="45.53274" lon="4.75186">
        <ele>507</ele>
        <time>2015-05-27T13:53:46Z</time>
      </trkpt>
      <trkpt lat="45.53267" lon="4.75181">
        <ele>506</ele>
        <time>2015-05-27T13:53:51Z</time>
      </trkpt>
      <trkpt lat="45.53263" lon="4.75176">
        <ele>507</ele>
        <time>2015-05-27T13:53:56Z</time>
      </trkpt>
      <trkpt lat="45.53259" lon="4.75169">
        <ele>508</ele>
        <time>2015-05-27T13:54:01Z</time>
      </trkpt>
      <trkpt lat="45.53257" lon="4.75161">
        <ele>508</ele>
        <time>2015-05-27T13:54:06Z</time>
      </trkpt>
      <trkpt lat="45.53256" lon="4.75149">
        <ele>509</ele>
        <time>2015-05-27T13:54:13Z</time>
      </trkpt>
      <trkpt lat="45.53255" lon="4.75144">
        <ele>510</ele>
        <time>2015-05-27T13:54:16Z</time>
      </trkpt>
      <trkpt lat="45.53254" lon="4.75134">
        <ele>510</ele>
        <time>2015-05-27T13:54:22Z</time>
      </trkpt>
      <trkpt lat="45.53252" lon="4.75128">
        <ele>511</ele>
        <time>2015-05-27T13:54:26Z</time>
      </trkpt>
      <trkpt lat="45.53249" lon="4.7512">
        <ele>512</ele>
        <time>2015-05-27T13:54:31Z</time>
      </trkpt>
      <trkpt lat="45.53246" lon="4.75107">
        <ele>511</ele>
        <time>2015-05-27T13:54:38Z</time>
      </trkpt>
      <trkpt lat="45.53244" lon="4.75103">
        <ele>513</ele>
        <time>2015-05-27T13:54:41Z</time>
      </trkpt>
      <trkpt lat="45.53242" lon="4.75097">
        <ele>515</ele>
        <time>2015-05-27T13:54:46Z</time>
      </trkpt>
      <trkpt lat="45.53239" lon="4.75093">
        <ele>517</ele>
        <time>2015-05-27T13:54:51Z</time>
      </trkpt>
      <trkpt lat="45.53234" lon="4.75091">
        <ele>518</ele>
        <time>2015-05-27T13:54:56Z</time>
      </trkpt>
      <trkpt lat="45.53231" lon="4.75091">
        <ele>523</ele>
        <time>2015-05-27T13:55:01Z</time>
      </trkpt>
      <trkpt lat="45.53227" lon="4.7509">
        <ele>525</ele>
        <time>2015-05-27T13:55:06Z</time>
      </trkpt>
      <trkpt lat="45.53223" lon="4.75086">
        <ele>525</ele>
        <time>2015-05-27T13:55:11Z</time>
      </trkpt>
      <trkpt lat="45.53213" lon="4.75085">
        <ele>530</ele>
        <time>2015-05-27T13:55:20Z</time>
      </trkpt>
      <trkpt lat="45.53213" lon="4.75085">
        <ele>529</ele>
        <time>2015-05-27T13:55:21Z</time>
      </trkpt>
      <trkpt lat="45.53206" lon="4.7508">
        <ele>530</ele>
        <time>2015-05-27T13:55:26Z</time>
      </trkpt>
      <trkpt lat="45.53197" lon="4.75078">
        <ele>529</ele>
        <time>2015-05-27T13:55:32Z</time>
      </trkpt>
      <trkpt lat="45.53191" lon="4.75075">
        <ele>531</ele>
        <time>2015-05-27T13:55:36Z</time>
      </trkpt>
      <trkpt lat="45.53184" lon="4.75071">
        <ele>532</ele>
        <time>2015-05-27T13:55:41Z</time>
      </trkpt>
      <trkpt lat="45.53179" lon="4.75068">
        <ele>536</ele>
        <time>2015-05-27T13:55:46Z</time>
      </trkpt>
      <trkpt lat="45.53173" lon="4.75066">
        <ele>536</ele>
        <time>2015-05-27T13:55:51Z</time>
      </trkpt>
      <trkpt lat="45.53169" lon="4.75061">
        <ele>538</ele>
        <time>2015-05-27T13:55:56Z</time>
      </trkpt>
      <trkpt lat="45.53162" lon="4.75057">
        <ele>534</ele>
        <time>2015-05-27T13:56:01Z</time>
      </trkpt>
      <trkpt lat="45.53152" lon="4.75053">
        <ele>537</ele>
        <time>2015-05-27T13:56:06Z</time>
      </trkpt>
      <trkpt lat="45.53146" lon="4.75049">
        <ele>540</ele>
        <time>2015-05-27T13:56:11Z</time>
      </trkpt>
      <trkpt lat="45.53141" lon="4.75044">
        <ele>543</ele>
        <time>2015-05-27T13:56:16Z</time>
      </trkpt>
      <trkpt lat="45.53135" lon="4.75042">
        <ele>545</ele>
        <time>2015-05-27T13:56:21Z</time>
      </trkpt>
      <trkpt lat="45.53131" lon="4.75041">
        <ele>548</ele>
        <time>2015-05-27T13:56:26Z</time>
      </trkpt>
      <trkpt lat="45.53124" lon="4.75036">
        <ele>548</ele>
        <time>2015-05-27T13:56:31Z</time>
      </trkpt>
      <trkpt lat="45.53117" lon="4.75028">
        <ele>547</ele>
        <time>2015-05-27T13:56:36Z</time>
      </trkpt>
      <trkpt lat="45.53109" lon="4.75023">
        <ele>543</ele>
        <time>2015-05-27T13:56:41Z</time>
      </trkpt>
      <trkpt lat="45.53106" lon="4.75021">
        <ele>542</ele>
        <time>2015-05-27T13:56:46Z</time>
      </trkpt>
      <trkpt lat="45.531" lon="4.75018">
        <ele>544</ele>
        <time>2015-05-27T13:56:51Z</time>
      </trkpt>
      <trkpt lat="45.53094" lon="4.75018">
        <ele>545</ele>
        <time>2015-05-27T13:56:56Z</time>
      </trkpt>
      <trkpt lat="45.5309" lon="4.75014">
        <ele>547</ele>
        <time>2015-05-27T13:57:01Z</time>
      </trkpt>
      <trkpt lat="45.53086" lon="4.75011">
        <ele>552</ele>
        <time>2015-05-27T13:57:06Z</time>
      </trkpt>
      <trkpt lat="45.5308" lon="4.75011">
        <ele>552</ele>
        <time>2015-05-27T13:57:11Z</time>
      </trkpt>
      <trkpt lat="45.53072" lon="4.75013">
        <ele>551</ele>
        <time>2015-05-27T13:57:16Z</time>
      </trkpt>
      <trkpt lat="45.53063" lon="4.75014">
        <ele>551</ele>
        <time>2015-05-27T13:57:22Z</time>
      </trkpt>
      <trkpt lat="45.53052" lon="4.75012">
        <ele>551</ele>
        <time>2015-05-27T13:57:29Z</time>
      </trkpt>
      <trkpt lat="45.53048" lon="4.75011">
        <ele>555</ele>
        <time>2015-05-27T13:57:35Z</time>
      </trkpt>
      <trkpt lat="45.53036" lon="4.75007">
        <ele>557</ele>
        <time>2015-05-27T13:57:40Z</time>
      </trkpt>
      <trkpt lat="45.53035" lon="4.75007">
        <ele>557</ele>
        <time>2015-05-27T13:57:41Z</time>
      </trkpt>
      <trkpt lat="45.53025" lon="4.75006">
        <ele>556</ele>
        <time>2015-05-27T13:57:46Z</time>
      </trkpt>
      <trkpt lat="45.53015" lon="4.74999">
        <ele>556</ele>
        <time>2015-05-27T13:57:51Z</time>
      </trkpt>
      <trkpt lat="45.53008" lon="4.74992">
        <ele>557</ele>
        <time>2015-05-27T13:57:56Z</time>
      </trkpt>
      <trkpt lat="45.53003" lon="4.74986">
        <ele>559</ele>
        <time>2015-05-27T13:58:01Z</time>
      </trkpt>
      <trkpt lat="45.52991" lon="4.74983">
        <ele>562</ele>
        <time>2015-05-27T13:58:06Z</time>
      </trkpt>
      <trkpt lat="45.5298" lon="4.74976">
        <ele>560</ele>
        <time>2015-05-27T13:58:11Z</time>
      </trkpt>
      <trkpt lat="45.52969" lon="4.7497">
        <ele>558</ele>
        <time>2015-05-27T13:58:19Z</time>
      </trkpt>
      <trkpt lat="45.52966" lon="4.74969">
        <ele>558</ele>
        <time>2015-05-27T13:58:21Z</time>
      </trkpt>
      <trkpt lat="45.5296" lon="4.74964">
        <ele>558</ele>
        <time>2015-05-27T13:58:26Z</time>
      </trkpt>
      <trkpt lat="45.52957" lon="4.74961">
        <ele>558</ele>
        <time>2015-05-27T13:58:31Z</time>
      </trkpt>
      <trkpt lat="45.52949" lon="4.74957">
        <ele>556</ele>
        <time>2015-05-27T13:58:36Z</time>
      </trkpt>
      <trkpt lat="45.52938" lon="4.74953">
        <ele>556</ele>
        <time>2015-05-27T13:58:42Z</time>
      </trkpt>
      <trkpt lat="45.52934" lon="4.74953">
        <ele>559</ele>
        <time>2015-05-27T13:58:46Z</time>
      </trkpt>
      <trkpt lat="45.52912" lon="4.74945">
        <ele>554</ele>
        <time>2015-05-27T13:58:53Z</time>
      </trkpt>
      <trkpt lat="45.52907" lon="4.74941">
        <ele>555</ele>
        <time>2015-05-27T13:58:56Z</time>
      </trkpt>
      <trkpt lat="45.52893" lon="4.74932">
        <ele>559</ele>
        <time>2015-05-27T13:59:01Z</time>
      </trkpt>
      <trkpt lat="45.52875" lon="4.74917">
        <ele>560</ele>
        <time>2015-05-27T13:59:07Z</time>
      </trkpt>
      <trkpt lat="45.52852" lon="4.74892">
        <ele>558</ele>
        <time>2015-05-27T13:59:14Z</time>
      </trkpt>
      <trkpt lat="45.52848" lon="4.74883">
        <ele>559</ele>
        <time>2015-05-27T13:59:16Z</time>
      </trkpt>
      <trkpt lat="45.52838" lon="4.74855">
        <ele>558</ele>
        <time>2015-05-27T13:59:21Z</time>
      </trkpt>
      <trkpt lat="45.52824" lon="4.74829">
        <ele>558</ele>
        <time>2015-05-27T13:59:26Z</time>
      </trkpt>
      <trkpt lat="45.52808" lon="4.74805">
        <ele>557</ele>
        <time>2015-05-27T13:59:31Z</time>
      </trkpt>
      <trkpt lat="45.52799" lon="4.74779">
        <ele>559</ele>
        <time>2015-05-27T13:59:36Z</time>
      </trkpt>
      <trkpt lat="45.52787" lon="4.74756">
        <ele>561</ele>
        <time>2015-05-27T13:59:41Z</time>
      </trkpt>
      <trkpt lat="45.52771" lon="4.74736">
        <ele>561</ele>
        <time>2015-05-27T13:59:46Z</time>
      </trkpt>
      <trkpt lat="45.52752" lon="4.74703">
        <ele>561</ele>
        <time>2015-05-27T13:59:54Z</time>
      </trkpt>
      <trkpt lat="45.52745" lon="4.74684">
        <ele>562</ele>
        <time>2015-05-27T13:59:58Z</time>
      </trkpt>
      <trkpt lat="45.5273" lon="4.74671">
        <ele>561</ele>
        <time>2015-05-27T14:00:04Z</time>
      </trkpt>
      <trkpt lat="45.52725" lon="4.74666">
        <ele>560</ele>
        <time>2015-05-27T14:00:06Z</time>
      </trkpt>
      <trkpt lat="45.52702" lon="4.7465">
        <ele>558</ele>
        <time>2015-05-27T14:00:14Z</time>
      </trkpt>
      <trkpt lat="45.52698" lon="4.74644">
        <ele>559</ele>
        <time>2015-05-27T14:00:16Z</time>
      </trkpt>
      <trkpt lat="45.52691" lon="4.74636">
        <ele>559</ele>
        <time>2015-05-27T14:00:21Z</time>
      </trkpt>
      <trkpt lat="45.52691" lon="4.74636">
        <ele>559</ele>
        <time>2015-05-27T14:00:26Z</time>
      </trkpt>
      <trkpt lat="45.52692" lon="4.74636">
        <ele>557</ele>
        <time>2015-05-27T14:00:29Z</time>
      </trkpt>
      <trkpt lat="45.52692" lon="4.74636">
        <ele>558</ele>
        <time>2015-05-27T14:00:32Z</time>
      </trkpt>
      <trkpt lat="45.52693" lon="4.74636">
        <ele>558</ele>
        <time>2015-05-27T14:00:35Z</time>
      </trkpt>
      <trkpt lat="45.52693" lon="4.74636">
        <ele>560</ele>
        <time>2015-05-27T14:00:38Z</time>
      </trkpt>
      <trkpt lat="45.52693" lon="4.74637">
        <ele>561</ele>
        <time>2015-05-27T14:00:41Z</time>
      </trkpt>
    </trkseg>
  </trk>
  <trk>
    <name><![CDATA[Sequence 4]]></name>
    <trkseg>
      <trkpt lat="45.52693" lon="4.74637">
        <ele>561</ele>
        <time>2015-05-27T14:01:51Z</time>
      </trkpt>
      <trkpt lat="45.52693" lon="4.74637">
        <ele>561</ele>
        <time>2015-05-27T14:01:54Z</time>
      </trkpt>
      <trkpt lat="45.52693" lon="4.74636">
        <ele>560</ele>
        <time>2015-05-27T14:01:57Z</time>
      </trkpt>
      <trkpt lat="45.52693" lon="4.74636">
        <ele>559</ele>
        <time>2015-05-27T14:02:00Z</time>
      </trkpt>
      <trkpt lat="45.52693" lon="4.74636">
        <ele>559</ele>
        <time>2015-05-27T14:02:03Z</time>
      </trkpt>
      <trkpt lat="45.52694" lon="4.74637">
        <ele>560</ele>
        <time>2015-05-27T14:02:06Z</time>
      </trkpt>
      <trkpt lat="45.52694" lon="4.74637">
        <ele>560</ele>
        <time>2015-05-27T14:02:09Z</time>
      </trkpt>
      <trkpt lat="45.52695" lon="4.74636">
        <ele>561</ele>
        <time>2015-05-27T14:02:12Z</time>
      </trkpt>
      <trkpt lat="45.52696" lon="4.74636">
        <ele>562</ele>
        <time>2015-05-27T14:02:15Z</time>
      </trkpt>
      <trkpt lat="45.52695" lon="4.74636">
        <ele>561</ele>
        <time>2015-05-27T14:02:20Z</time>
      </trkpt>
      <trkpt lat="45.52696" lon="4.74636">
        <ele>560</ele>
        <time>2015-05-27T14:02:23Z</time>
      </trkpt>
      <trkpt lat="45.52696" lon="4.74637">
        <ele>560</ele>
        <time>2015-05-27T14:02:26Z</time>
      </trkpt>
      <trkpt lat="45.52696" lon="4.74637">
        <ele>560</ele>
        <time>2015-05-27T14:02:29Z</time>
      </trkpt>
      <trkpt lat="45.52695" lon="4.74637">
        <ele>560</ele>
        <time>2015-05-27T14:02:32Z</time>
      </trkpt>
      <trkpt lat="45.52695" lon="4.74637">
        <ele>560</ele>
        <time>2015-05-27T14:02:35Z</time>
      </trkpt>
      <trkpt lat="45.52695" lon="4.74639">
        <ele>561</ele>
        <time>2015-05-27T14:02:38Z</time>
      </trkpt>
      <trkpt lat="45.52694" lon="4.74639">
        <ele>561</ele>
        <time>2015-05-27T14:02:41Z</time>
      </trkpt>
      <trkpt lat="45.52693" lon="4.74639">
        <ele>560</ele>
        <time>2015-05-27T14:02:44Z</time>
      </trkpt>
      <trkpt lat="45.52693" lon="4.7464">
        <ele>561</ele>
        <time>2015-05-27T14:02:47Z</time>
      </trkpt>
      <trkpt lat="45.52693" lon="4.74638">
        <ele>562</ele>
        <time>2015-05-27T14:02:50Z</time>
      </trkpt>
      <trkpt lat="45.52688" lon="4.74629">
        <ele>563</ele>
        <time>2015-05-27T14:02:55Z</time>
      </trkpt>
      <trkpt lat="45.52681" lon="4.7461">
        <ele>561</ele>
        <time>2015-05-27T14:03:00Z</time>
      </trkpt>
      <trkpt lat="45.52679" lon="4.74579">
        <ele>558</ele>
        <time>2015-05-27T14:03:05Z</time>
      </trkpt>
      <trkpt lat="45.5267" lon="4.74546">
        <ele>558</ele>
        <time>2015-05-27T14:03:10Z</time>
      </trkpt>
      <trkpt lat="45.52662" lon="4.7452">
        <ele>557</ele>
        <time>2015-05-27T14:03:15Z</time>
      </trkpt>
      <trkpt lat="45.52661" lon="4.74493">
        <ele>550</ele>
        <time>2015-05-27T14:03:20Z</time>
      </trkpt>
      <trkpt lat="45.52669" lon="4.74464">
        <ele>543</ele>
        <time>2015-05-27T14:03:26Z</time>
      </trkpt>
      <trkpt lat="45.52676" lon="4.74442">
        <ele>540</ele>
        <time>2015-05-27T14:03:30Z</time>
      </trkpt>
      <trkpt lat="45.52702" lon="4.74402">
        <ele>536</ele>
        <time>2015-05-27T14:03:36Z</time>
      </trkpt>
      <trkpt lat="45.52716" lon="4.74378">
        <ele>534</ele>
        <time>2015-05-27T14:03:40Z</time>
      </trkpt>
      <trkpt lat="45.52737" lon="4.74346">
        <ele>527</ele>
        <time>2015-05-27T14:03:48Z</time>
      </trkpt>
      <trkpt lat="45.52737" lon="4.74336">
        <ele>525</ele>
        <time>2015-05-27T14:03:50Z</time>
      </trkpt>
      <trkpt lat="45.5275" lon="4.74309">
        <ele>516</ele>
        <time>2015-05-27T14:03:58Z</time>
      </trkpt>
      <trkpt lat="45.52749" lon="4.74301">
        <ele>517</ele>
        <time>2015-05-27T14:04:00Z</time>
      </trkpt>
      <trkpt lat="45.52751" lon="4.74277">
        <ele>514</ele>
        <time>2015-05-27T14:04:05Z</time>
      </trkpt>
      <trkpt lat="45.52762" lon="4.74245">
        <ele>503</ele>
        <time>2015-05-27T14:04:10Z</time>
      </trkpt>
      <trkpt lat="45.52785" lon="4.74205">
        <ele>493</ele>
        <time>2015-05-27T14:04:15Z</time>
      </trkpt>
      <trkpt lat="45.52804" lon="4.74163">
        <ele>489</ele>
        <time>2015-05-27T14:04:20Z</time>
      </trkpt>
      <trkpt lat="45.52824" lon="4.74122">
        <ele>483</ele>
        <time>2015-05-27T14:04:25Z</time>
      </trkpt>
      <trkpt lat="45.52849" lon="4.74088">
        <ele>475</ele>
        <time>2015-05-27T14:04:32Z</time>
      </trkpt>
      <trkpt lat="45.52858" lon="4.74086">
        <ele>472</ele>
        <time>2015-05-27T14:04:35Z</time>
      </trkpt>
      <trkpt lat="45.52876" lon="4.74094">
        <ele>470</ele>
        <time>2015-05-27T14:04:40Z</time>
      </trkpt>
      <trkpt lat="45.52898" lon="4.74109">
        <ele>470</ele>
        <time>2015-05-27T14:04:45Z</time>
      </trkpt>
      <trkpt lat="45.52916" lon="4.74075">
        <ele>467</ele>
        <time>2015-05-27T14:04:50Z</time>
      </trkpt>
      <trkpt lat="45.52916" lon="4.74019">
        <ele>464</ele>
        <time>2015-05-27T14:04:55Z</time>
      </trkpt>
      <trkpt lat="45.52894" lon="4.73966">
        <ele>461</ele>
        <time>2015-05-27T14:05:00Z</time>
      </trkpt>
      <trkpt lat="45.52829" lon="4.73927">
        <ele>450</ele>
        <time>2015-05-27T14:05:07Z</time>
      </trkpt>
      <trkpt lat="45.52793" lon="4.7393">
        <ele>445</ele>
        <time>2015-05-27T14:05:11Z</time>
      </trkpt>
      <trkpt lat="45.52794" lon="4.73905">
        <ele>440</ele>
        <time>2015-05-27T14:05:17Z</time>
      </trkpt>
      <trkpt lat="45.52805" lon="4.73884">
        <ele>438</ele>
        <time>2015-05-27T14:05:20Z</time>
      </trkpt>
      <trkpt lat="45.52827" lon="4.73842">
        <ele>435</ele>
        <time>2015-05-27T14:05:25Z</time>
      </trkpt>
      <trkpt lat="45.5285" lon="4.73795">
        <ele>432</ele>
        <time>2015-05-27T14:05:30Z</time>
      </trkpt>
      <trkpt lat="45.5287" lon="4.73742">
        <ele>428</ele>
        <time>2015-05-27T14:05:35Z</time>
      </trkpt>
      <trkpt lat="45.52893" lon="4.73692">
        <ele>423</ele>
        <time>2015-05-27T14:05:40Z</time>
      </trkpt>
      <trkpt lat="45.52924" lon="4.73657">
        <ele>421</ele>
        <time>2015-05-27T14:05:45Z</time>
      </trkpt>
      <trkpt lat="45.5294" lon="4.73638">
        <ele>420</ele>
        <time>2015-05-27T14:05:50Z</time>
      </trkpt>
      <trkpt lat="45.52944" lon="4.73608">
        <ele>420</ele>
        <time>2015-05-27T14:05:57Z</time>
      </trkpt>
      <trkpt lat="45.52947" lon="4.73591">
        <ele>420</ele>
        <time>2015-05-27T14:06:00Z</time>
      </trkpt>
      <trkpt lat="45.52951" lon="4.7356">
        <ele>422</ele>
        <time>2015-05-27T14:06:05Z</time>
      </trkpt>
      <trkpt lat="45.52958" lon="4.73521">
        <ele>418</ele>
        <time>2015-05-27T14:06:10Z</time>
      </trkpt>
      <trkpt lat="45.52974" lon="4.73481">
        <ele>416</ele>
        <time>2015-05-27T14:06:15Z</time>
      </trkpt>
      <trkpt lat="45.53" lon="4.73447">
        <ele>414</ele>
        <time>2015-05-27T14:06:20Z</time>
      </trkpt>
      <trkpt lat="45.53026" lon="4.7342">
        <ele>415</ele>
        <time>2015-05-27T14:06:25Z</time>
      </trkpt>
      <trkpt lat="45.53049" lon="4.73396">
        <ele>415</ele>
        <time>2015-05-27T14:06:30Z</time>
      </trkpt>
      <trkpt lat="45.53064" lon="4.73379">
        <ele>416</ele>
        <time>2015-05-27T14:06:35Z</time>
      </trkpt>
      <trkpt lat="45.53076" lon="4.73365">
        <ele>415</ele>
        <time>2015-05-27T14:06:40Z</time>
      </trkpt>
      <trkpt lat="45.53088" lon="4.73353">
        <ele>413</ele>
        <time>2015-05-27T14:06:45Z</time>
      </trkpt>
      <trkpt lat="45.53102" lon="4.73337">
        <ele>411</ele>
        <time>2015-05-27T14:06:50Z</time>
      </trkpt>
      <trkpt lat="45.53125" lon="4.73314">
        <ele>407</ele>
        <time>2015-05-27T14:06:56Z</time>
      </trkpt>
      <trkpt lat="45.53141" lon="4.73298">
        <ele>405</ele>
        <time>2015-05-27T14:07:00Z</time>
      </trkpt>
      <trkpt lat="45.53153" lon="4.73287">
        <ele>404</ele>
        <time>2015-05-27T14:07:05Z</time>
      </trkpt>
      <trkpt lat="45.53175" lon="4.73267">
        <ele>400</ele>
        <time>2015-05-27T14:07:13Z</time>
      </trkpt>
      <trkpt lat="45.53179" lon="4.73262">
        <ele>399</ele>
        <time>2015-05-27T14:07:15Z</time>
      </trkpt>
      <trkpt lat="45.53193" lon="4.73247">
        <ele>395</ele>
        <time>2015-05-27T14:07:22Z</time>
      </trkpt>
      <trkpt lat="45.53205" lon="4.73234">
        <ele>393</ele>
        <time>2015-05-27T14:07:26Z</time>
      </trkpt>
      <trkpt lat="45.5325" lon="4.73247">
        <ele>388</ele>
        <time>2015-05-27T14:07:34Z</time>
      </trkpt>
      <trkpt lat="45.53255" lon="4.73246">
        <ele>388</ele>
        <time>2015-05-27T14:07:35Z</time>
      </trkpt>
      <trkpt lat="45.53281" lon="4.73224">
        <ele>387</ele>
        <time>2015-05-27T14:07:40Z</time>
      </trkpt>
      <trkpt lat="45.53303" lon="4.73234">
        <ele>381</ele>
        <time>2015-05-27T14:07:45Z</time>
      </trkpt>
      <trkpt lat="45.53306" lon="4.73269">
        <ele>380</ele>
        <time>2015-05-27T14:07:50Z</time>
      </trkpt>
      <trkpt lat="45.53312" lon="4.73304">
        <ele>386</ele>
        <time>2015-05-27T14:07:55Z</time>
      </trkpt>
      <trkpt lat="45.53316" lon="4.73371">
        <ele>385</ele>
        <time>2015-05-27T14:08:01Z</time>
      </trkpt>
      <trkpt lat="45.53321" lon="4.73395">
        <ele>380</ele>
        <time>2015-05-27T14:08:06Z</time>
      </trkpt>
      <trkpt lat="45.53335" lon="4.73387">
        <ele>375</ele>
        <time>2015-05-27T14:08:10Z</time>
      </trkpt>
      <trkpt lat="45.5334" lon="4.73355">
        <ele>374</ele>
        <time>2015-05-27T14:08:15Z</time>
      </trkpt>
      <trkpt lat="45.53351" lon="4.73308">
        <ele>371</ele>
        <time>2015-05-27T14:08:21Z</time>
      </trkpt>
      <trkpt lat="45.53375" lon="4.7325">
        <ele>369</ele>
        <time>2015-05-27T14:08:28Z</time>
      </trkpt>
      <trkpt lat="45.53401" lon="4.7325">
        <ele>365</ele>
        <time>2015-05-27T14:08:32Z</time>
      </trkpt>
      <trkpt lat="45.53421" lon="4.73263">
        <ele>364</ele>
        <time>2015-05-27T14:08:35Z</time>
      </trkpt>
      <trkpt lat="45.53444" lon="4.73293">
        <ele>363</ele>
        <time>2015-05-27T14:08:40Z</time>
      </trkpt>
      <trkpt lat="45.53466" lon="4.73273">
        <ele>365</ele>
        <time>2015-05-27T14:08:48Z</time>
      </trkpt>
      <trkpt lat="45.53463" lon="4.73262">
        <ele>366</ele>
        <time>2015-05-27T14:08:51Z</time>
      </trkpt>
      <trkpt lat="45.53448" lon="4.73238">
        <ele>372</ele>
        <time>2015-05-27T14:08:58Z</time>
      </trkpt>
      <trkpt lat="45.53442" lon="4.73225">
        <ele>373</ele>
        <time>2015-05-27T14:09:01Z</time>
      </trkpt>
      <trkpt lat="45.53435" lon="4.73214">
        <ele>376</ele>
        <time>2015-05-27T14:09:05Z</time>
      </trkpt>
      <trkpt lat="45.53428" lon="4.73199">
        <ele>374</ele>
        <time>2015-05-27T14:09:10Z</time>
      </trkpt>
      <trkpt lat="45.53422" lon="4.73179">
        <ele>373</ele>
        <time>2015-05-27T14:09:15Z</time>
      </trkpt>
      <trkpt lat="45.53415" lon="4.73165">
        <ele>374</ele>
        <time>2015-05-27T14:09:20Z</time>
      </trkpt>
      <trkpt lat="45.53412" lon="4.73148">
        <ele>375</ele>
        <time>2015-05-27T14:09:25Z</time>
      </trkpt>
      <trkpt lat="45.53406" lon="4.73131">
        <ele>374</ele>
        <time>2015-05-27T14:09:31Z</time>
      </trkpt>
      <trkpt lat="45.53401" lon="4.73122">
        <ele>383</ele>
        <time>2015-05-27T14:09:36Z</time>
      </trkpt>
      <trkpt lat="45.53398" lon="4.73115">
        <ele>388</ele>
        <time>2015-05-27T14:09:40Z</time>
      </trkpt>
      <trkpt lat="45.53396" lon="4.73103">
        <ele>392</ele>
        <time>2015-05-27T14:09:45Z</time>
      </trkpt>
      <trkpt lat="45.53396" lon="4.73087">
        <ele>392</ele>
        <time>2015-05-27T14:09:50Z</time>
      </trkpt>
      <trkpt lat="45.53405" lon="4.73069">
        <ele>382</ele>
        <time>2015-05-27T14:09:55Z</time>
      </trkpt>
      <trkpt lat="45.5341" lon="4.73057">
        <ele>378</ele>
        <time>2015-05-27T14:10:00Z</time>
      </trkpt>
      <trkpt lat="45.53417" lon="4.73048">
        <ele>377</ele>
        <time>2015-05-27T14:10:05Z</time>
      </trkpt>
      <trkpt lat="45.53424" lon="4.7304">
        <ele>381</ele>
        <time>2015-05-27T14:10:11Z</time>
      </trkpt>
      <trkpt lat="45.53434" lon="4.73033">
        <ele>382</ele>
        <time>2015-05-27T14:10:18Z</time>
      </trkpt>
      <trkpt lat="45.53437" lon="4.73032">
        <ele>384</ele>
        <time>2015-05-27T14:10:20Z</time>
      </trkpt>
      <trkpt lat="45.53442" lon="4.73027">
        <ele>388</ele>
        <time>2015-05-27T14:10:25Z</time>
      </trkpt>
      <trkpt lat="45.53453" lon="4.73022">
        <ele>385</ele>
        <time>2015-05-27T14:10:30Z</time>
      </trkpt>
      <trkpt lat="45.53461" lon="4.73019">
        <ele>385</ele>
        <time>2015-05-27T14:10:35Z</time>
      </trkpt>
      <trkpt lat="45.53468" lon="4.73014">
        <ele>385</ele>
        <time>2015-05-27T14:10:40Z</time>
      </trkpt>
      <trkpt lat="45.53477" lon="4.73011">
        <ele>389</ele>
        <time>2015-05-27T14:10:45Z</time>
      </trkpt>
      <trkpt lat="45.53484" lon="4.73008">
        <ele>391</ele>
        <time>2015-05-27T14:10:50Z</time>
      </trkpt>
      <trkpt lat="45.53491" lon="4.73004">
        <ele>394</ele>
        <time>2015-05-27T14:10:55Z</time>
      </trkpt>
      <trkpt lat="45.53498" lon="4.73001">
        <ele>394</ele>
        <time>2015-05-27T14:11:01Z</time>
      </trkpt>
      <trkpt lat="45.53504" lon="4.72996">
        <ele>397</ele>
        <time>2015-05-27T14:11:05Z</time>
      </trkpt>
      <trkpt lat="45.53513" lon="4.72992">
        <ele>398</ele>
        <time>2015-05-27T14:11:10Z</time>
      </trkpt>
      <trkpt lat="45.53524" lon="4.72984">
        <ele>405</ele>
        <time>2015-05-27T14:11:17Z</time>
      </trkpt>
      <trkpt lat="45.53536" lon="4.7298">
        <ele>406</ele>
        <time>2015-05-27T14:11:22Z</time>
      </trkpt>
      <trkpt lat="45.5354" lon="4.72978">
        <ele>407</ele>
        <time>2015-05-27T14:11:25Z</time>
      </trkpt>
      <trkpt lat="45.53548" lon="4.72976">
        <ele>407</ele>
        <time>2015-05-27T14:11:30Z</time>
      </trkpt>
      <trkpt lat="45.53556" lon="4.72971">
        <ele>404</ele>
        <time>2015-05-27T14:11:35Z</time>
      </trkpt>
      <trkpt lat="45.53567" lon="4.72966">
        <ele>400</ele>
        <time>2015-05-27T14:11:40Z</time>
      </trkpt>
      <trkpt lat="45.53577" lon="4.72961">
        <ele>400</ele>
        <time>2015-05-27T14:11:45Z</time>
      </trkpt>
      <trkpt lat="45.53595" lon="4.72949">
        <ele>401</ele>
        <time>2015-05-27T14:11:54Z</time>
      </trkpt>
      <trkpt lat="45.53598" lon="4.72948">
        <ele>403</ele>
        <time>2015-05-27T14:11:55Z</time>
      </trkpt>
      <trkpt lat="45.53609" lon="4.72941">
        <ele>406</ele>
        <time>2015-05-27T14:12:01Z</time>
      </trkpt>
      <trkpt lat="45.53623" lon="4.72937">
        <ele>403</ele>
        <time>2015-05-27T14:12:08Z</time>
      </trkpt>
      <trkpt lat="45.53625" lon="4.72935">
        <ele>402</ele>
        <time>2015-05-27T14:12:10Z</time>
      </trkpt>
      <trkpt lat="45.53637" lon="4.72929">
        <ele>402</ele>
        <time>2015-05-27T14:12:17Z</time>
      </trkpt>
      <trkpt lat="45.5365" lon="4.72923">
        <ele>404</ele>
        <time>2015-05-27T14:12:24Z</time>
      </trkpt>
      <trkpt lat="45.53651" lon="4.72922">
        <ele>404</ele>
        <time>2015-05-27T14:12:25Z</time>
      </trkpt>
      <trkpt lat="45.53661" lon="4.72915">
        <ele>408</ele>
        <time>2015-05-27T14:12:31Z</time>
      </trkpt>
      <trkpt lat="45.53667" lon="4.72913">
        <ele>406</ele>
        <time>2015-05-27T14:12:35Z</time>
      </trkpt>
      <trkpt lat="45.53682" lon="4.72904">
        <ele>413</ele>
        <time>2015-05-27T14:12:44Z</time>
      </trkpt>
      <trkpt lat="45.53683" lon="4.72903">
        <ele>414</ele>
        <time>2015-05-27T14:12:45Z</time>
      </trkpt>
      <trkpt lat="45.53694" lon="4.72889">
        <ele>420</ele>
        <time>2015-05-27T14:12:53Z</time>
      </trkpt>
      <trkpt lat="45.53697" lon="4.72886">
        <ele>419</ele>
        <time>2015-05-27T14:12:55Z</time>
      </trkpt>
      <trkpt lat="45.53708" lon="4.72878">
        <ele>422</ele>
        <time>2015-05-27T14:13:00Z</time>
      </trkpt>
      <trkpt lat="45.53721" lon="4.72866">
        <ele>419</ele>
        <time>2015-05-27T14:13:07Z</time>
      </trkpt>
      <trkpt lat="45.53727" lon="4.72861">
        <ele>418</ele>
        <time>2015-05-27T14:13:10Z</time>
      </trkpt>
      <trkpt lat="45.53732" lon="4.72856">
        <ele>421</ele>
        <time>2015-05-27T14:13:15Z</time>
      </trkpt>
      <trkpt lat="45.5374" lon="4.72851">
        <ele>418</ele>
        <time>2015-05-27T14:13:20Z</time>
      </trkpt>
      <trkpt lat="45.53749" lon="4.72844">
        <ele>418</ele>
        <time>2015-05-27T14:13:25Z</time>
      </trkpt>
      <trkpt lat="45.53756" lon="4.72839">
        <ele>417</ele>
        <time>2015-05-27T14:13:30Z</time>
      </trkpt>
      <trkpt lat="45.53768" lon="4.72834">
        <ele>417</ele>
        <time>2015-05-27T14:13:35Z</time>
      </trkpt>
      <trkpt lat="45.53775" lon="4.72828">
        <ele>419</ele>
        <time>2015-05-27T14:13:40Z</time>
      </trkpt>
      <trkpt lat="45.53784" lon="4.72825">
        <ele>414</ele>
        <time>2015-05-27T14:13:45Z</time>
      </trkpt>
      <trkpt lat="45.53791" lon="4.72819">
        <ele>414</ele>
        <time>2015-05-27T14:13:50Z</time>
      </trkpt>
      <trkpt lat="45.53803" lon="4.72808">
        <ele>412</ele>
        <time>2015-05-27T14:13:56Z</time>
      </trkpt>
      <trkpt lat="45.53812" lon="4.728">
        <ele>410</ele>
        <time>2015-05-27T14:14:00Z</time>
      </trkpt>
      <trkpt lat="45.5382" lon="4.72793">
        <ele>413</ele>
        <time>2015-05-27T14:14:05Z</time>
      </trkpt>
      <trkpt lat="45.5384" lon="4.72781">
        <ele>415</ele>
        <time>2015-05-27T14:14:14Z</time>
      </trkpt>
      <trkpt lat="45.53842" lon="4.72779">
        <ele>414</ele>
        <time>2015-05-27T14:14:15Z</time>
      </trkpt>
      <trkpt lat="45.53857" lon="4.7277">
        <ele>417</ele>
        <time>2015-05-27T14:14:22Z</time>
      </trkpt>
      <trkpt lat="45.53864" lon="4.72765">
        <ele>417</ele>
        <time>2015-05-27T14:14:25Z</time>
      </trkpt>
      <trkpt lat="45.53875" lon="4.7276">
        <ele>417</ele>
        <time>2015-05-27T14:14:30Z</time>
      </trkpt>
      <trkpt lat="45.53885" lon="4.72757">
        <ele>419</ele>
        <time>2015-05-27T14:14:35Z</time>
      </trkpt>
      <trkpt lat="45.53894" lon="4.72752">
        <ele>420</ele>
        <time>2015-05-27T14:14:40Z</time>
      </trkpt>
      <trkpt lat="45.53903" lon="4.72748">
        <ele>420</ele>
        <time>2015-05-27T14:14:45Z</time>
      </trkpt>
      <trkpt lat="45.53912" lon="4.72745">
        <ele>421</ele>
        <time>2015-05-27T14:14:50Z</time>
      </trkpt>
      <trkpt lat="45.53921" lon="4.72741">
        <ele>422</ele>
        <time>2015-05-27T14:14:55Z</time>
      </trkpt>
      <trkpt lat="45.53929" lon="4.72737">
        <ele>424</ele>
        <time>2015-05-27T14:15:00Z</time>
      </trkpt>
      <trkpt lat="45.53939" lon="4.72733">
        <ele>424</ele>
        <time>2015-05-27T14:15:05Z</time>
      </trkpt>
      <trkpt lat="45.5395" lon="4.72728">
        <ele>424</ele>
        <time>2015-05-27T14:15:10Z</time>
      </trkpt>
      <trkpt lat="45.53959" lon="4.72724">
        <ele>425</ele>
        <time>2015-05-27T14:15:15Z</time>
      </trkpt>
      <trkpt lat="45.53967" lon="4.72719">
        <ele>426</ele>
        <time>2015-05-27T14:15:20Z</time>
      </trkpt>
      <trkpt lat="45.53978" lon="4.72712">
        <ele>426</ele>
        <time>2015-05-27T14:15:26Z</time>
      </trkpt>
      <trkpt lat="45.53985" lon="4.72707">
        <ele>427</ele>
        <time>2015-05-27T14:15:30Z</time>
      </trkpt>
      <trkpt lat="45.53994" lon="4.72699">
        <ele>428</ele>
        <time>2015-05-27T14:15:35Z</time>
      </trkpt>
      <trkpt lat="45.54005" lon="4.7269">
        <ele>429</ele>
        <time>2015-05-27T14:15:41Z</time>
      </trkpt>
      <trkpt lat="45.54013" lon="4.72681">
        <ele>427</ele>
        <time>2015-05-27T14:15:45Z</time>
      </trkpt>
      <trkpt lat="45.5402" lon="4.72674">
        <ele>426</ele>
        <time>2015-05-27T14:15:50Z</time>
      </trkpt>
      <trkpt lat="45.54027" lon="4.72666">
        <ele>428</ele>
        <time>2015-05-27T14:15:55Z</time>
      </trkpt>
      <trkpt lat="45.54034" lon="4.72657">
        <ele>429</ele>
        <time>2015-05-27T14:16:00Z</time>
      </trkpt>
      <trkpt lat="45.5404" lon="4.7265">
        <ele>432</ele>
        <time>2015-05-27T14:16:05Z</time>
      </trkpt>
      <trkpt lat="45.54048" lon="4.72645">
        <ele>431</ele>
        <time>2015-05-27T14:16:10Z</time>
      </trkpt>
      <trkpt lat="45.5406" lon="4.72637">
        <ele>432</ele>
        <time>2015-05-27T14:16:15Z</time>
      </trkpt>
      <trkpt lat="45.54072" lon="4.72628">
        <ele>432</ele>
        <time>2015-05-27T14:16:20Z</time>
      </trkpt>
      <trkpt lat="45.54088" lon="4.72617">
        <ele>431</ele>
        <time>2015-05-27T14:16:25Z</time>
      </trkpt>
      <trkpt lat="45.54107" lon="4.72606">
        <ele>431</ele>
        <time>2015-05-27T14:16:30Z</time>
      </trkpt>
      <trkpt lat="45.54131" lon="4.72595">
        <ele>430</ele>
        <time>2015-05-27T14:16:35Z</time>
      </trkpt>
      <trkpt lat="45.5418" lon="4.72575">
        <ele>425</ele>
        <time>2015-05-27T14:16:44Z</time>
      </trkpt>
      <trkpt lat="45.54186" lon="4.72572">
        <ele>425</ele>
        <time>2015-05-27T14:16:45Z</time>
      </trkpt>
      <trkpt lat="45.54211" lon="4.72556">
        <ele>423</ele>
        <time>2015-05-27T14:16:50Z</time>
      </trkpt>
      <trkpt lat="45.54237" lon="4.72538">
        <ele>422</ele>
        <time>2015-05-27T14:16:55Z</time>
      </trkpt>
      <trkpt lat="45.54263" lon="4.72524">
        <ele>423</ele>
        <time>2015-05-27T14:17:00Z</time>
      </trkpt>
      <trkpt lat="45.54291" lon="4.72509">
        <ele>421</ele>
        <time>2015-05-27T14:17:05Z</time>
      </trkpt>
      <trkpt lat="45.54331" lon="4.72487">
        <ele>419</ele>
        <time>2015-05-27T14:17:12Z</time>
      </trkpt>
      <trkpt lat="45.54347" lon="4.72478">
        <ele>421</ele>
        <time>2015-05-27T14:17:15Z</time>
      </trkpt>
      <trkpt lat="45.54373" lon="4.72462">
        <ele>419</ele>
        <time>2015-05-27T14:17:20Z</time>
      </trkpt>
      <trkpt lat="45.54408" lon="4.72443">
        <ele>420</ele>
        <time>2015-05-27T14:17:27Z</time>
      </trkpt>
      <trkpt lat="45.54423" lon="4.72437">
        <ele>418</ele>
        <time>2015-05-27T14:17:30Z</time>
      </trkpt>
      <trkpt lat="45.54461" lon="4.72419">
        <ele>418</ele>
        <time>2015-05-27T14:17:39Z</time>
      </trkpt>
      <trkpt lat="45.54465" lon="4.72417">
        <ele>418</ele>
        <time>2015-05-27T14:17:40Z</time>
      </trkpt>
      <trkpt lat="45.54485" lon="4.72408">
        <ele>418</ele>
        <time>2015-05-27T14:17:45Z</time>
      </trkpt>
      <trkpt lat="45.54506" lon="4.72397">
        <ele>417</ele>
        <time>2015-05-27T14:17:50Z</time>
      </trkpt>
      <trkpt lat="45.54524" lon="4.72386">
        <ele>416</ele>
        <time>2015-05-27T14:17:55Z</time>
      </trkpt>
      <trkpt lat="45.54539" lon="4.72375">
        <ele>417</ele>
        <time>2015-05-27T14:18:00Z</time>
      </trkpt>
      <trkpt lat="45.54555" lon="4.72371">
        <ele>417</ele>
        <time>2015-05-27T14:18:05Z</time>
      </trkpt>
      <trkpt lat="45.54573" lon="4.7237">
        <ele>414</ele>
        <time>2015-05-27T14:18:10Z</time>
      </trkpt>
      <trkpt lat="45.5459" lon="4.72363">
        <ele>412</ele>
        <time>2015-05-27T14:18:15Z</time>
      </trkpt>
      <trkpt lat="45.54615" lon="4.72345">
        <ele>410</ele>
        <time>2015-05-27T14:18:20Z</time>
      </trkpt>
      <trkpt lat="45.54644" lon="4.7232">
        <ele>407</ele>
        <time>2015-05-27T14:18:25Z</time>
      </trkpt>
      <trkpt lat="45.54676" lon="4.72293">
        <ele>406</ele>
        <time>2015-05-27T14:18:30Z</time>
      </trkpt>
      <trkpt lat="45.54712" lon="4.72261">
        <ele>403</ele>
        <time>2015-05-27T14:18:35Z</time>
      </trkpt>
      <trkpt lat="45.5475" lon="4.72223">
        <ele>398</ele>
        <time>2015-05-27T14:18:40Z</time>
      </trkpt>
      <trkpt lat="45.54792" lon="4.72184">
        <ele>397</ele>
        <time>2015-05-27T14:18:45Z</time>
      </trkpt>
      <trkpt lat="45.54837" lon="4.72145">
        <ele>394</ele>
        <time>2015-05-27T14:18:50Z</time>
      </trkpt>
      <trkpt lat="45.54879" lon="4.72108">
        <ele>390</ele>
        <time>2015-05-27T14:18:55Z</time>
      </trkpt>
      <trkpt lat="45.5492" lon="4.72071">
        <ele>388</ele>
        <time>2015-05-27T14:19:00Z</time>
      </trkpt>
      <trkpt lat="45.54966" lon="4.72024">
        <ele>386</ele>
        <time>2015-05-27T14:19:06Z</time>
      </trkpt>
      <trkpt lat="45.5499" lon="4.7199">
        <ele>383</ele>
        <time>2015-05-27T14:19:10Z</time>
      </trkpt>
      <trkpt lat="45.55018" lon="4.71953">
        <ele>379</ele>
        <time>2015-05-27T14:19:15Z</time>
      </trkpt>
      <trkpt lat="45.55046" lon="4.71932">
        <ele>375</ele>
        <time>2015-05-27T14:19:20Z</time>
      </trkpt>
      <trkpt lat="45.55089" lon="4.71917">
        <ele>372</ele>
        <time>2015-05-27T14:19:28Z</time>
      </trkpt>
      <trkpt lat="45.5511" lon="4.71914">
        <ele>372</ele>
        <time>2015-05-27T14:19:32Z</time>
      </trkpt>
      <trkpt lat="45.55126" lon="4.71913">
        <ele>371</ele>
        <time>2015-05-27T14:19:35Z</time>
      </trkpt>
      <trkpt lat="45.55155" lon="4.71915">
        <ele>370</ele>
        <time>2015-05-27T14:19:40Z</time>
      </trkpt>
      <trkpt lat="45.55181" lon="4.7192">
        <ele>369</ele>
        <time>2015-05-27T14:19:45Z</time>
      </trkpt>
      <trkpt lat="45.55207" lon="4.71921">
        <ele>368</ele>
        <time>2015-05-27T14:19:50Z</time>
      </trkpt>
      <trkpt lat="45.55236" lon="4.71917">
        <ele>366</ele>
        <time>2015-05-27T14:19:55Z</time>
      </trkpt>
      <trkpt lat="45.55273" lon="4.71913">
        <ele>366</ele>
        <time>2015-05-27T14:20:01Z</time>
      </trkpt>
      <trkpt lat="45.553" lon="4.7191">
        <ele>364</ele>
        <time>2015-05-27T14:20:05Z</time>
      </trkpt>
      <trkpt lat="45.55337" lon="4.719">
        <ele>363</ele>
        <time>2015-05-27T14:20:10Z</time>
      </trkpt>
      <trkpt lat="45.55376" lon="4.71884">
        <ele>360</ele>
        <time>2015-05-27T14:20:15Z</time>
      </trkpt>
      <trkpt lat="45.55419" lon="4.71861">
        <ele>357</ele>
        <time>2015-05-27T14:20:20Z</time>
      </trkpt>
      <trkpt lat="45.55444" lon="4.71825">
        <ele>352</ele>
        <time>2015-05-27T14:20:25Z</time>
      </trkpt>
      <trkpt lat="45.55429" lon="4.71791">
        <ele>351</ele>
        <time>2015-05-27T14:20:30Z</time>
      </trkpt>
      <trkpt lat="45.55421" lon="4.71775">
        <ele>351</ele>
        <time>2015-05-27T14:20:35Z</time>
      </trkpt>
      <trkpt lat="45.55422" lon="4.71768">
        <ele>352</ele>
        <time>2015-05-27T14:20:40Z</time>
      </trkpt>
      <trkpt lat="45.55422" lon="4.71752">
        <ele>352</ele>
        <time>2015-05-27T14:20:47Z</time>
      </trkpt>
      <trkpt lat="45.55419" lon="4.71746">
        <ele>350</ele>
        <time>2015-05-27T14:20:52Z</time>
      </trkpt>
      <trkpt lat="45.55419" lon="4.71745">
        <ele>350</ele>
        <time>2015-05-27T14:20:55Z</time>
      </trkpt>
      <trkpt lat="45.5542" lon="4.71745">
        <ele>350</ele>
        <time>2015-05-27T14:20:58Z</time>
      </trkpt>
      <trkpt lat="45.55419" lon="4.71745">
        <ele>350</ele>
        <time>2015-05-27T14:21:01Z</time>
      </trkpt>
      <trkpt lat="45.5542" lon="4.71745">
        <ele>350</ele>
        <time>2015-05-27T14:21:04Z</time>
      </trkpt>
      <trkpt lat="45.5542" lon="4.71745">
        <ele>350</ele>
        <time>2015-05-27T14:21:07Z</time>
      </trkpt>
      <trkpt lat="45.55421" lon="4.71744">
        <ele>350</ele>
        <time>2015-05-27T14:21:10Z</time>
      </trkpt>
      <trkpt lat="45.55422" lon="4.71744">
        <ele>349</ele>
        <time>2015-05-27T14:21:13Z</time>
      </trkpt>
      <trkpt lat="45.55422" lon="4.71744">
        <ele>349</ele>
        <time>2015-05-27T14:21:16Z</time>
      </trkpt>
      <trkpt lat="45.55423" lon="4.71744">
        <ele>349</ele>
        <time>2015-05-27T14:21:19Z</time>
      </trkpt>
    </trkseg>
  </trk>
</gpx>